<?xml version="1.0" encoding="UTF-8" standalone="no" ?>
<gpx xmlns="http://www.topografix.com/GPX/1/1" xmlns:xsi="http://www.w3.org/2001/XMLSchema-instance" xsi:schemaLocation="http://www.topografix.com/GPX/1/1 http://www.topografix.com/GPX/1/1/gpx.xsd" version="1.1" creator="VisuGPX - https://www.visugpx.com">
  <metadata>
    <name>Rando Sur Le Beaucet 2</name>
    <desc><![CDATA[Second tracé, à revoir sur la boucle finale, la varap c\'est pas top !!!]]></desc>
  </metadata>
  <trk>
    <name><![CDATA[07/03/2013 17:45]]></name>
    <trkseg>
      <trkpt lat="43.95419" lon="5.14238">
        <ele>689.1</ele>
        <time>2013-03-07T16:46:08Z</time>
      </trkpt>
      <trkpt lat="43.95418" lon="5.14233">
        <ele>689.6</ele>
        <time>2013-03-07T16:47:19Z</time>
      </trkpt>
      <trkpt lat="43.95417" lon="5.14232">
        <ele>689.8</ele>
        <time>2013-03-07T16:47:20Z</time>
      </trkpt>
      <trkpt lat="43.95413" lon="5.1423">
        <ele>689.1</ele>
        <time>2013-03-07T16:47:21Z</time>
      </trkpt>
      <trkpt lat="43.95411" lon="5.14229">
        <ele>689</ele>
        <time>2013-03-07T16:47:22Z</time>
      </trkpt>
      <trkpt lat="43.95408" lon="5.14228">
        <ele>689.2</ele>
        <time>2013-03-07T16:47:24Z</time>
      </trkpt>
      <trkpt lat="43.95407" lon="5.14228">
        <ele>689.1</ele>
        <time>2013-03-07T16:47:25Z</time>
      </trkpt>
      <trkpt lat="43.95402" lon="5.14227">
        <ele>687.6</ele>
        <time>2013-03-07T16:47:27Z</time>
      </trkpt>
      <trkpt lat="43.954" lon="5.14226">
        <ele>687.4</ele>
        <time>2013-03-07T16:47:28Z</time>
      </trkpt>
      <trkpt lat="43.95397" lon="5.14227">
        <ele>687</ele>
        <time>2013-03-07T16:47:30Z</time>
      </trkpt>
      <trkpt lat="43.95395" lon="5.14227">
        <ele>687.2</ele>
        <time>2013-03-07T16:47:31Z</time>
      </trkpt>
      <trkpt lat="43.95391" lon="5.14226">
        <ele>684.9</ele>
        <time>2013-03-07T16:47:33Z</time>
      </trkpt>
      <trkpt lat="43.9539" lon="5.14226">
        <ele>684.5</ele>
        <time>2013-03-07T16:47:34Z</time>
      </trkpt>
      <trkpt lat="43.95387" lon="5.14222">
        <ele>683.3</ele>
        <time>2013-03-07T16:47:37Z</time>
      </trkpt>
      <trkpt lat="43.95386" lon="5.1422">
        <ele>683</ele>
        <time>2013-03-07T16:47:38Z</time>
      </trkpt>
      <trkpt lat="43.95386" lon="5.14215">
        <ele>682.3</ele>
        <time>2013-03-07T16:47:44Z</time>
      </trkpt>
      <trkpt lat="43.95386" lon="5.14214">
        <ele>682.2</ele>
        <time>2013-03-07T16:47:45Z</time>
      </trkpt>
      <trkpt lat="43.95389" lon="5.14209">
        <ele>681.4</ele>
        <time>2013-03-07T16:47:49Z</time>
      </trkpt>
      <trkpt lat="43.95389" lon="5.14208">
        <ele>681.2</ele>
        <time>2013-03-07T16:47:50Z</time>
      </trkpt>
      <trkpt lat="43.95393" lon="5.14205">
        <ele>680.7</ele>
        <time>2013-03-07T16:47:54Z</time>
      </trkpt>
      <trkpt lat="43.95395" lon="5.14204">
        <ele>680.3</ele>
        <time>2013-03-07T16:47:55Z</time>
      </trkpt>
      <trkpt lat="43.95398" lon="5.14202">
        <ele>679.2</ele>
        <time>2013-03-07T16:48:01Z</time>
      </trkpt>
      <trkpt lat="43.954" lon="5.14198">
        <ele>679.8</ele>
        <time>2013-03-07T16:48:02Z</time>
      </trkpt>
      <trkpt lat="43.95401" lon="5.14196">
        <ele>680</ele>
        <time>2013-03-07T16:48:03Z</time>
      </trkpt>
      <trkpt lat="43.95403" lon="5.14193">
        <ele>678.8</ele>
        <time>2013-03-07T16:48:04Z</time>
      </trkpt>
      <trkpt lat="43.95406" lon="5.1419">
        <ele>678.6</ele>
        <time>2013-03-07T16:48:07Z</time>
      </trkpt>
      <trkpt lat="43.95406" lon="5.14189">
        <ele>678.8</ele>
        <time>2013-03-07T16:48:08Z</time>
      </trkpt>
      <trkpt lat="43.95408" lon="5.14185">
        <ele>678.5</ele>
        <time>2013-03-07T16:48:10Z</time>
      </trkpt>
      <trkpt lat="43.95409" lon="5.14183">
        <ele>679.1</ele>
        <time>2013-03-07T16:48:11Z</time>
      </trkpt>
      <trkpt lat="43.9541" lon="5.1418">
        <ele>678.6</ele>
        <time>2013-03-07T16:48:12Z</time>
      </trkpt>
      <trkpt lat="43.95411" lon="5.14176">
        <ele>677.9</ele>
        <time>2013-03-07T16:48:13Z</time>
      </trkpt>
      <trkpt lat="43.95413" lon="5.14173">
        <ele>677.6</ele>
        <time>2013-03-07T16:48:14Z</time>
      </trkpt>
      <trkpt lat="43.95414" lon="5.14171">
        <ele>677.3</ele>
        <time>2013-03-07T16:48:15Z</time>
      </trkpt>
      <trkpt lat="43.95415" lon="5.14169">
        <ele>676.3</ele>
        <time>2013-03-07T16:48:16Z</time>
      </trkpt>
      <trkpt lat="43.95416" lon="5.14165">
        <ele>675.7</ele>
        <time>2013-03-07T16:48:17Z</time>
      </trkpt>
      <trkpt lat="43.95418" lon="5.14163">
        <ele>675.4</ele>
        <time>2013-03-07T16:48:18Z</time>
      </trkpt>
      <trkpt lat="43.9542" lon="5.14161">
        <ele>674.7</ele>
        <time>2013-03-07T16:48:19Z</time>
      </trkpt>
      <trkpt lat="43.95423" lon="5.14156">
        <ele>674.3</ele>
        <time>2013-03-07T16:48:21Z</time>
      </trkpt>
      <trkpt lat="43.95424" lon="5.14153">
        <ele>673.8</ele>
        <time>2013-03-07T16:48:22Z</time>
      </trkpt>
      <trkpt lat="43.95426" lon="5.14151">
        <ele>673.5</ele>
        <time>2013-03-07T16:48:23Z</time>
      </trkpt>
      <trkpt lat="43.95428" lon="5.14148">
        <ele>673.1</ele>
        <time>2013-03-07T16:48:24Z</time>
      </trkpt>
      <trkpt lat="43.95431" lon="5.14144">
        <ele>672.2</ele>
        <time>2013-03-07T16:48:26Z</time>
      </trkpt>
      <trkpt lat="43.95432" lon="5.14142">
        <ele>671.1</ele>
        <time>2013-03-07T16:48:27Z</time>
      </trkpt>
      <trkpt lat="43.95436" lon="5.14139">
        <ele>670.6</ele>
        <time>2013-03-07T16:48:29Z</time>
      </trkpt>
      <trkpt lat="43.95437" lon="5.14137">
        <ele>670.5</ele>
        <time>2013-03-07T16:48:30Z</time>
      </trkpt>
      <trkpt lat="43.95437" lon="5.14132">
        <ele>669.9</ele>
        <time>2013-03-07T16:48:32Z</time>
      </trkpt>
      <trkpt lat="43.95438" lon="5.14129">
        <ele>669.6</ele>
        <time>2013-03-07T16:48:33Z</time>
      </trkpt>
      <trkpt lat="43.95439" lon="5.14126">
        <ele>667</ele>
        <time>2013-03-07T16:49:05Z</time>
      </trkpt>
      <trkpt lat="43.95444" lon="5.14123">
        <ele>668.2</ele>
        <time>2013-03-07T16:49:06Z</time>
      </trkpt>
      <trkpt lat="43.95446" lon="5.14119">
        <ele>668.3</ele>
        <time>2013-03-07T16:49:08Z</time>
      </trkpt>
      <trkpt lat="43.95447" lon="5.14117">
        <ele>667.7</ele>
        <time>2013-03-07T16:49:09Z</time>
      </trkpt>
      <trkpt lat="43.95449" lon="5.14111">
        <ele>666.5</ele>
        <time>2013-03-07T16:49:11Z</time>
      </trkpt>
      <trkpt lat="43.95451" lon="5.14108">
        <ele>666.8</ele>
        <time>2013-03-07T16:49:12Z</time>
      </trkpt>
      <trkpt lat="43.95452" lon="5.14105">
        <ele>666.7</ele>
        <time>2013-03-07T16:49:13Z</time>
      </trkpt>
      <trkpt lat="43.95454" lon="5.14102">
        <ele>666</ele>
        <time>2013-03-07T16:49:14Z</time>
      </trkpt>
      <trkpt lat="43.95456" lon="5.14097">
        <ele>665.2</ele>
        <time>2013-03-07T16:49:16Z</time>
      </trkpt>
      <trkpt lat="43.95457" lon="5.14094">
        <ele>664.4</ele>
        <time>2013-03-07T16:49:17Z</time>
      </trkpt>
      <trkpt lat="43.9546" lon="5.1409">
        <ele>663.4</ele>
        <time>2013-03-07T16:49:19Z</time>
      </trkpt>
      <trkpt lat="43.95462" lon="5.14087">
        <ele>662.8</ele>
        <time>2013-03-07T16:49:20Z</time>
      </trkpt>
      <trkpt lat="43.95464" lon="5.14082">
        <ele>661.7</ele>
        <time>2013-03-07T16:49:22Z</time>
      </trkpt>
      <trkpt lat="43.95466" lon="5.1408">
        <ele>661.2</ele>
        <time>2013-03-07T16:49:23Z</time>
      </trkpt>
      <trkpt lat="43.95468" lon="5.14076">
        <ele>658.5</ele>
        <time>2013-03-07T16:49:30Z</time>
      </trkpt>
      <trkpt lat="43.95468" lon="5.14075">
        <ele>658</ele>
        <time>2013-03-07T16:49:31Z</time>
      </trkpt>
      <trkpt lat="43.95469" lon="5.14071">
        <ele>656.1</ele>
        <time>2013-03-07T16:49:40Z</time>
      </trkpt>
      <trkpt lat="43.95469" lon="5.14068">
        <ele>656.1</ele>
        <time>2013-03-07T16:49:41Z</time>
      </trkpt>
      <trkpt lat="43.95471" lon="5.14064">
        <ele>655</ele>
        <time>2013-03-07T16:49:43Z</time>
      </trkpt>
      <trkpt lat="43.95472" lon="5.14062">
        <ele>653.5</ele>
        <time>2013-03-07T16:49:44Z</time>
      </trkpt>
      <trkpt lat="43.95474" lon="5.14059">
        <ele>653.1</ele>
        <time>2013-03-07T16:49:45Z</time>
      </trkpt>
      <trkpt lat="43.95476" lon="5.14056">
        <ele>652.6</ele>
        <time>2013-03-07T16:49:46Z</time>
      </trkpt>
      <trkpt lat="43.95479" lon="5.14054">
        <ele>651.8</ele>
        <time>2013-03-07T16:49:49Z</time>
      </trkpt>
      <trkpt lat="43.9548" lon="5.14052">
        <ele>651.7</ele>
        <time>2013-03-07T16:49:50Z</time>
      </trkpt>
      <trkpt lat="43.9548" lon="5.14052">
        <ele>651.6</ele>
        <time>2013-03-07T16:50:11Z</time>
      </trkpt>
      <trkpt lat="43.95478" lon="5.14044">
        <ele>650</ele>
        <time>2013-03-07T16:50:12Z</time>
      </trkpt>
      <trkpt lat="43.95479" lon="5.14042">
        <ele>650.2</ele>
        <time>2013-03-07T16:50:13Z</time>
      </trkpt>
      <trkpt lat="43.95477" lon="5.14037">
        <ele>650.4</ele>
        <time>2013-03-07T16:50:14Z</time>
      </trkpt>
      <trkpt lat="43.95476" lon="5.14034">
        <ele>649.3</ele>
        <time>2013-03-07T16:50:15Z</time>
      </trkpt>
      <trkpt lat="43.95474" lon="5.14031">
        <ele>648.4</ele>
        <time>2013-03-07T16:50:16Z</time>
      </trkpt>
      <trkpt lat="43.95471" lon="5.14028">
        <ele>648.6</ele>
        <time>2013-03-07T16:50:18Z</time>
      </trkpt>
      <trkpt lat="43.95471" lon="5.14025">
        <ele>647.6</ele>
        <time>2013-03-07T16:50:19Z</time>
      </trkpt>
      <trkpt lat="43.95471" lon="5.14021">
        <ele>646.6</ele>
        <time>2013-03-07T16:50:20Z</time>
      </trkpt>
      <trkpt lat="43.95472" lon="5.14017">
        <ele>646.5</ele>
        <time>2013-03-07T16:50:21Z</time>
      </trkpt>
      <trkpt lat="43.95473" lon="5.14013">
        <ele>646.1</ele>
        <time>2013-03-07T16:50:22Z</time>
      </trkpt>
      <trkpt lat="43.95473" lon="5.1401">
        <ele>645.8</ele>
        <time>2013-03-07T16:50:23Z</time>
      </trkpt>
      <trkpt lat="43.95474" lon="5.14007">
        <ele>645.2</ele>
        <time>2013-03-07T16:50:24Z</time>
      </trkpt>
      <trkpt lat="43.95474" lon="5.14003">
        <ele>644.7</ele>
        <time>2013-03-07T16:50:25Z</time>
      </trkpt>
      <trkpt lat="43.95474" lon="5.13999">
        <ele>644.7</ele>
        <time>2013-03-07T16:50:26Z</time>
      </trkpt>
      <trkpt lat="43.95473" lon="5.13995">
        <ele>644.1</ele>
        <time>2013-03-07T16:50:27Z</time>
      </trkpt>
      <trkpt lat="43.95473" lon="5.13991">
        <ele>643.7</ele>
        <time>2013-03-07T16:50:28Z</time>
      </trkpt>
      <trkpt lat="43.95473" lon="5.13986">
        <ele>642.9</ele>
        <time>2013-03-07T16:50:29Z</time>
      </trkpt>
      <trkpt lat="43.95474" lon="5.13982">
        <ele>642.6</ele>
        <time>2013-03-07T16:50:30Z</time>
      </trkpt>
      <trkpt lat="43.95475" lon="5.13978">
        <ele>641.6</ele>
        <time>2013-03-07T16:50:31Z</time>
      </trkpt>
      <trkpt lat="43.95476" lon="5.13974">
        <ele>640.9</ele>
        <time>2013-03-07T16:50:32Z</time>
      </trkpt>
      <trkpt lat="43.95477" lon="5.1397">
        <ele>640.1</ele>
        <time>2013-03-07T16:50:33Z</time>
      </trkpt>
      <trkpt lat="43.95477" lon="5.13964">
        <ele>639.7</ele>
        <time>2013-03-07T16:50:35Z</time>
      </trkpt>
      <trkpt lat="43.95477" lon="5.13962">
        <ele>639.4</ele>
        <time>2013-03-07T16:50:36Z</time>
      </trkpt>
      <trkpt lat="43.95479" lon="5.13957">
        <ele>637.6</ele>
        <time>2013-03-07T16:50:42Z</time>
      </trkpt>
      <trkpt lat="43.9548" lon="5.13956">
        <ele>637.5</ele>
        <time>2013-03-07T16:50:43Z</time>
      </trkpt>
      <trkpt lat="43.95484" lon="5.13953">
        <ele>636.4</ele>
        <time>2013-03-07T16:50:44Z</time>
      </trkpt>
      <trkpt lat="43.95486" lon="5.13951">
        <ele>636</ele>
        <time>2013-03-07T16:50:45Z</time>
      </trkpt>
      <trkpt lat="43.95488" lon="5.13949">
        <ele>635.8</ele>
        <time>2013-03-07T16:50:46Z</time>
      </trkpt>
      <trkpt lat="43.95491" lon="5.13948">
        <ele>635.4</ele>
        <time>2013-03-07T16:50:47Z</time>
      </trkpt>
      <trkpt lat="43.95494" lon="5.13946">
        <ele>635.1</ele>
        <time>2013-03-07T16:50:48Z</time>
      </trkpt>
      <trkpt lat="43.95496" lon="5.13945">
        <ele>634.9</ele>
        <time>2013-03-07T16:50:49Z</time>
      </trkpt>
      <trkpt lat="43.95498" lon="5.13943">
        <ele>634.1</ele>
        <time>2013-03-07T16:50:50Z</time>
      </trkpt>
      <trkpt lat="43.955" lon="5.1394">
        <ele>633.5</ele>
        <time>2013-03-07T16:50:51Z</time>
      </trkpt>
      <trkpt lat="43.95502" lon="5.13938">
        <ele>633.2</ele>
        <time>2013-03-07T16:50:52Z</time>
      </trkpt>
      <trkpt lat="43.95503" lon="5.13936">
        <ele>632.7</ele>
        <time>2013-03-07T16:50:53Z</time>
      </trkpt>
      <trkpt lat="43.95505" lon="5.13933">
        <ele>632</ele>
        <time>2013-03-07T16:50:54Z</time>
      </trkpt>
      <trkpt lat="43.95506" lon="5.1393">
        <ele>631.6</ele>
        <time>2013-03-07T16:50:55Z</time>
      </trkpt>
      <trkpt lat="43.95507" lon="5.13927">
        <ele>631.2</ele>
        <time>2013-03-07T16:50:56Z</time>
      </trkpt>
      <trkpt lat="43.95509" lon="5.13923">
        <ele>630.4</ele>
        <time>2013-03-07T16:50:57Z</time>
      </trkpt>
      <trkpt lat="43.9551" lon="5.1392">
        <ele>629.9</ele>
        <time>2013-03-07T16:50:58Z</time>
      </trkpt>
      <trkpt lat="43.95511" lon="5.13917">
        <ele>629.4</ele>
        <time>2013-03-07T16:50:59Z</time>
      </trkpt>
      <trkpt lat="43.95512" lon="5.13914">
        <ele>629.1</ele>
        <time>2013-03-07T16:51:00Z</time>
      </trkpt>
      <trkpt lat="43.95513" lon="5.13911">
        <ele>628.5</ele>
        <time>2013-03-07T16:51:01Z</time>
      </trkpt>
      <trkpt lat="43.95514" lon="5.13908">
        <ele>628</ele>
        <time>2013-03-07T16:51:02Z</time>
      </trkpt>
      <trkpt lat="43.95514" lon="5.13905">
        <ele>628.1</ele>
        <time>2013-03-07T16:51:03Z</time>
      </trkpt>
      <trkpt lat="43.95514" lon="5.139">
        <ele>627.8</ele>
        <time>2013-03-07T16:51:04Z</time>
      </trkpt>
      <trkpt lat="43.95515" lon="5.13896">
        <ele>627.9</ele>
        <time>2013-03-07T16:51:05Z</time>
      </trkpt>
      <trkpt lat="43.95516" lon="5.13892">
        <ele>627.4</ele>
        <time>2013-03-07T16:51:06Z</time>
      </trkpt>
      <trkpt lat="43.95515" lon="5.1389">
        <ele>627.3</ele>
        <time>2013-03-07T16:51:08Z</time>
      </trkpt>
      <trkpt lat="43.95515" lon="5.13886">
        <ele>626.2</ele>
        <time>2013-03-07T16:51:10Z</time>
      </trkpt>
      <trkpt lat="43.95515" lon="5.13883">
        <ele>625.7</ele>
        <time>2013-03-07T16:51:11Z</time>
      </trkpt>
      <trkpt lat="43.95515" lon="5.13879">
        <ele>625.6</ele>
        <time>2013-03-07T16:51:12Z</time>
      </trkpt>
      <trkpt lat="43.95515" lon="5.13875">
        <ele>624.6</ele>
        <time>2013-03-07T16:51:13Z</time>
      </trkpt>
      <trkpt lat="43.95514" lon="5.13872">
        <ele>624.1</ele>
        <time>2013-03-07T16:51:14Z</time>
      </trkpt>
      <trkpt lat="43.95514" lon="5.13868">
        <ele>623.6</ele>
        <time>2013-03-07T16:51:15Z</time>
      </trkpt>
      <trkpt lat="43.95514" lon="5.13864">
        <ele>623.1</ele>
        <time>2013-03-07T16:51:16Z</time>
      </trkpt>
      <trkpt lat="43.95513" lon="5.13861">
        <ele>622.7</ele>
        <time>2013-03-07T16:51:17Z</time>
      </trkpt>
      <trkpt lat="43.95512" lon="5.13857">
        <ele>622.2</ele>
        <time>2013-03-07T16:51:18Z</time>
      </trkpt>
      <trkpt lat="43.95511" lon="5.13854">
        <ele>622</ele>
        <time>2013-03-07T16:51:19Z</time>
      </trkpt>
      <trkpt lat="43.95509" lon="5.13851">
        <ele>621.3</ele>
        <time>2013-03-07T16:51:20Z</time>
      </trkpt>
      <trkpt lat="43.95507" lon="5.13849">
        <ele>620.8</ele>
        <time>2013-03-07T16:51:21Z</time>
      </trkpt>
      <trkpt lat="43.95504" lon="5.13846">
        <ele>620.5</ele>
        <time>2013-03-07T16:51:22Z</time>
      </trkpt>
      <trkpt lat="43.95502" lon="5.13845">
        <ele>620.1</ele>
        <time>2013-03-07T16:51:23Z</time>
      </trkpt>
      <trkpt lat="43.955" lon="5.13843">
        <ele>619.5</ele>
        <time>2013-03-07T16:51:24Z</time>
      </trkpt>
      <trkpt lat="43.95497" lon="5.13842">
        <ele>618.5</ele>
        <time>2013-03-07T16:51:25Z</time>
      </trkpt>
      <trkpt lat="43.95493" lon="5.13843">
        <ele>618.3</ele>
        <time>2013-03-07T16:51:27Z</time>
      </trkpt>
      <trkpt lat="43.95491" lon="5.13844">
        <ele>617.9</ele>
        <time>2013-03-07T16:51:28Z</time>
      </trkpt>
      <trkpt lat="43.95487" lon="5.13843">
        <ele>617.4</ele>
        <time>2013-03-07T16:51:30Z</time>
      </trkpt>
      <trkpt lat="43.95486" lon="5.1384">
        <ele>616.6</ele>
        <time>2013-03-07T16:51:31Z</time>
      </trkpt>
      <trkpt lat="43.95485" lon="5.13838">
        <ele>616.3</ele>
        <time>2013-03-07T16:51:32Z</time>
      </trkpt>
      <trkpt lat="43.95484" lon="5.13835">
        <ele>615.7</ele>
        <time>2013-03-07T16:51:33Z</time>
      </trkpt>
      <trkpt lat="43.95482" lon="5.13832">
        <ele>615.9</ele>
        <time>2013-03-07T16:51:34Z</time>
      </trkpt>
      <trkpt lat="43.95481" lon="5.13829">
        <ele>615.2</ele>
        <time>2013-03-07T16:51:35Z</time>
      </trkpt>
      <trkpt lat="43.9548" lon="5.13826">
        <ele>614.7</ele>
        <time>2013-03-07T16:51:36Z</time>
      </trkpt>
      <trkpt lat="43.9548" lon="5.13821">
        <ele>614</ele>
        <time>2013-03-07T16:51:37Z</time>
      </trkpt>
      <trkpt lat="43.9548" lon="5.13816">
        <ele>612.7</ele>
        <time>2013-03-07T16:51:38Z</time>
      </trkpt>
      <trkpt lat="43.95482" lon="5.13811">
        <ele>612.1</ele>
        <time>2013-03-07T16:51:39Z</time>
      </trkpt>
      <trkpt lat="43.95483" lon="5.13806">
        <ele>611.4</ele>
        <time>2013-03-07T16:51:40Z</time>
      </trkpt>
      <trkpt lat="43.95485" lon="5.13801">
        <ele>610.4</ele>
        <time>2013-03-07T16:51:41Z</time>
      </trkpt>
      <trkpt lat="43.95487" lon="5.13796">
        <ele>609.5</ele>
        <time>2013-03-07T16:51:42Z</time>
      </trkpt>
      <trkpt lat="43.95488" lon="5.13792">
        <ele>608.8</ele>
        <time>2013-03-07T16:51:43Z</time>
      </trkpt>
      <trkpt lat="43.95489" lon="5.13787">
        <ele>608.5</ele>
        <time>2013-03-07T16:51:44Z</time>
      </trkpt>
      <trkpt lat="43.9549" lon="5.13783">
        <ele>608</ele>
        <time>2013-03-07T16:51:45Z</time>
      </trkpt>
      <trkpt lat="43.9549" lon="5.13778">
        <ele>607.3</ele>
        <time>2013-03-07T16:51:46Z</time>
      </trkpt>
      <trkpt lat="43.95491" lon="5.13773">
        <ele>606.7</ele>
        <time>2013-03-07T16:51:47Z</time>
      </trkpt>
      <trkpt lat="43.95491" lon="5.13768">
        <ele>605.8</ele>
        <time>2013-03-07T16:51:48Z</time>
      </trkpt>
      <trkpt lat="43.95491" lon="5.13762">
        <ele>605.3</ele>
        <time>2013-03-07T16:51:49Z</time>
      </trkpt>
      <trkpt lat="43.95492" lon="5.13757">
        <ele>604.6</ele>
        <time>2013-03-07T16:51:50Z</time>
      </trkpt>
      <trkpt lat="43.95494" lon="5.13753">
        <ele>603.8</ele>
        <time>2013-03-07T16:51:51Z</time>
      </trkpt>
      <trkpt lat="43.95496" lon="5.13748">
        <ele>603.1</ele>
        <time>2013-03-07T16:51:52Z</time>
      </trkpt>
      <trkpt lat="43.95498" lon="5.13742">
        <ele>602.4</ele>
        <time>2013-03-07T16:51:53Z</time>
      </trkpt>
      <trkpt lat="43.95499" lon="5.13735">
        <ele>601.8</ele>
        <time>2013-03-07T16:51:54Z</time>
      </trkpt>
      <trkpt lat="43.955" lon="5.1373">
        <ele>601.3</ele>
        <time>2013-03-07T16:51:55Z</time>
      </trkpt>
      <trkpt lat="43.95501" lon="5.13724">
        <ele>600.8</ele>
        <time>2013-03-07T16:51:56Z</time>
      </trkpt>
      <trkpt lat="43.95503" lon="5.1372">
        <ele>600.2</ele>
        <time>2013-03-07T16:51:57Z</time>
      </trkpt>
      <trkpt lat="43.95504" lon="5.13715">
        <ele>599.7</ele>
        <time>2013-03-07T16:51:58Z</time>
      </trkpt>
      <trkpt lat="43.95505" lon="5.1371">
        <ele>599.2</ele>
        <time>2013-03-07T16:51:59Z</time>
      </trkpt>
      <trkpt lat="43.95505" lon="5.13705">
        <ele>598.7</ele>
        <time>2013-03-07T16:52:00Z</time>
      </trkpt>
      <trkpt lat="43.95506" lon="5.137">
        <ele>598.1</ele>
        <time>2013-03-07T16:52:01Z</time>
      </trkpt>
      <trkpt lat="43.95507" lon="5.13696">
        <ele>597.6</ele>
        <time>2013-03-07T16:52:02Z</time>
      </trkpt>
      <trkpt lat="43.95508" lon="5.13691">
        <ele>596.9</ele>
        <time>2013-03-07T16:52:03Z</time>
      </trkpt>
      <trkpt lat="43.9551" lon="5.13686">
        <ele>596.3</ele>
        <time>2013-03-07T16:52:04Z</time>
      </trkpt>
      <trkpt lat="43.95511" lon="5.13681">
        <ele>595.7</ele>
        <time>2013-03-07T16:52:05Z</time>
      </trkpt>
      <trkpt lat="43.95512" lon="5.13675">
        <ele>595.3</ele>
        <time>2013-03-07T16:52:06Z</time>
      </trkpt>
      <trkpt lat="43.95514" lon="5.13663">
        <ele>593.9</ele>
        <time>2013-03-07T16:52:08Z</time>
      </trkpt>
      <trkpt lat="43.95514" lon="5.13657">
        <ele>593.4</ele>
        <time>2013-03-07T16:52:09Z</time>
      </trkpt>
      <trkpt lat="43.95516" lon="5.13651">
        <ele>592.8</ele>
        <time>2013-03-07T16:52:10Z</time>
      </trkpt>
      <trkpt lat="43.95516" lon="5.13645">
        <ele>592.4</ele>
        <time>2013-03-07T16:52:11Z</time>
      </trkpt>
      <trkpt lat="43.95517" lon="5.1364">
        <ele>591.7</ele>
        <time>2013-03-07T16:52:12Z</time>
      </trkpt>
      <trkpt lat="43.95519" lon="5.13635">
        <ele>591</ele>
        <time>2013-03-07T16:52:13Z</time>
      </trkpt>
      <trkpt lat="43.9552" lon="5.1363">
        <ele>590.5</ele>
        <time>2013-03-07T16:52:14Z</time>
      </trkpt>
      <trkpt lat="43.95521" lon="5.13626">
        <ele>589.5</ele>
        <time>2013-03-07T16:52:15Z</time>
      </trkpt>
      <trkpt lat="43.95522" lon="5.13622">
        <ele>589</ele>
        <time>2013-03-07T16:52:16Z</time>
      </trkpt>
      <trkpt lat="43.95523" lon="5.13618">
        <ele>588.5</ele>
        <time>2013-03-07T16:52:17Z</time>
      </trkpt>
      <trkpt lat="43.95524" lon="5.13614">
        <ele>588</ele>
        <time>2013-03-07T16:52:18Z</time>
      </trkpt>
      <trkpt lat="43.95524" lon="5.1361">
        <ele>587.5</ele>
        <time>2013-03-07T16:52:19Z</time>
      </trkpt>
      <trkpt lat="43.95524" lon="5.13606">
        <ele>587.4</ele>
        <time>2013-03-07T16:52:20Z</time>
      </trkpt>
      <trkpt lat="43.95525" lon="5.13603">
        <ele>586.9</ele>
        <time>2013-03-07T16:52:21Z</time>
      </trkpt>
      <trkpt lat="43.95526" lon="5.13599">
        <ele>586.2</ele>
        <time>2013-03-07T16:52:22Z</time>
      </trkpt>
      <trkpt lat="43.95527" lon="5.13596">
        <ele>586</ele>
        <time>2013-03-07T16:52:23Z</time>
      </trkpt>
      <trkpt lat="43.95529" lon="5.13593">
        <ele>585.6</ele>
        <time>2013-03-07T16:52:24Z</time>
      </trkpt>
      <trkpt lat="43.95532" lon="5.13591">
        <ele>585.6</ele>
        <time>2013-03-07T16:52:25Z</time>
      </trkpt>
      <trkpt lat="43.95534" lon="5.13589">
        <ele>585.5</ele>
        <time>2013-03-07T16:52:26Z</time>
      </trkpt>
      <trkpt lat="43.95537" lon="5.13586">
        <ele>585.6</ele>
        <time>2013-03-07T16:52:27Z</time>
      </trkpt>
      <trkpt lat="43.95539" lon="5.13584">
        <ele>584.9</ele>
        <time>2013-03-07T16:52:28Z</time>
      </trkpt>
      <trkpt lat="43.95541" lon="5.13581">
        <ele>584.3</ele>
        <time>2013-03-07T16:52:29Z</time>
      </trkpt>
      <trkpt lat="43.95543" lon="5.13577">
        <ele>584</ele>
        <time>2013-03-07T16:52:30Z</time>
      </trkpt>
      <trkpt lat="43.95544" lon="5.13574">
        <ele>583.4</ele>
        <time>2013-03-07T16:52:31Z</time>
      </trkpt>
      <trkpt lat="43.95546" lon="5.13571">
        <ele>583</ele>
        <time>2013-03-07T16:52:32Z</time>
      </trkpt>
      <trkpt lat="43.95548" lon="5.13568">
        <ele>582</ele>
        <time>2013-03-07T16:52:33Z</time>
      </trkpt>
      <trkpt lat="43.9555" lon="5.13565">
        <ele>581.7</ele>
        <time>2013-03-07T16:52:34Z</time>
      </trkpt>
      <trkpt lat="43.95551" lon="5.13561">
        <ele>581.1</ele>
        <time>2013-03-07T16:52:35Z</time>
      </trkpt>
      <trkpt lat="43.95552" lon="5.13556">
        <ele>581</ele>
        <time>2013-03-07T16:52:36Z</time>
      </trkpt>
      <trkpt lat="43.95553" lon="5.13551">
        <ele>580.6</ele>
        <time>2013-03-07T16:52:37Z</time>
      </trkpt>
      <trkpt lat="43.95555" lon="5.13547">
        <ele>580.5</ele>
        <time>2013-03-07T16:52:38Z</time>
      </trkpt>
      <trkpt lat="43.95557" lon="5.13542">
        <ele>579.7</ele>
        <time>2013-03-07T16:52:39Z</time>
      </trkpt>
      <trkpt lat="43.95559" lon="5.13537">
        <ele>579.2</ele>
        <time>2013-03-07T16:52:40Z</time>
      </trkpt>
      <trkpt lat="43.9556" lon="5.13532">
        <ele>578.9</ele>
        <time>2013-03-07T16:52:41Z</time>
      </trkpt>
      <trkpt lat="43.95562" lon="5.13526">
        <ele>578.7</ele>
        <time>2013-03-07T16:52:42Z</time>
      </trkpt>
      <trkpt lat="43.95563" lon="5.1352">
        <ele>578.2</ele>
        <time>2013-03-07T16:52:43Z</time>
      </trkpt>
      <trkpt lat="43.95564" lon="5.13514">
        <ele>577.3</ele>
        <time>2013-03-07T16:52:44Z</time>
      </trkpt>
      <trkpt lat="43.95566" lon="5.13508">
        <ele>576.6</ele>
        <time>2013-03-07T16:52:45Z</time>
      </trkpt>
      <trkpt lat="43.95567" lon="5.13503">
        <ele>576.1</ele>
        <time>2013-03-07T16:52:46Z</time>
      </trkpt>
      <trkpt lat="43.95568" lon="5.13498">
        <ele>575.7</ele>
        <time>2013-03-07T16:52:47Z</time>
      </trkpt>
      <trkpt lat="43.95571" lon="5.13493">
        <ele>575.4</ele>
        <time>2013-03-07T16:52:48Z</time>
      </trkpt>
      <trkpt lat="43.95573" lon="5.13488">
        <ele>574.9</ele>
        <time>2013-03-07T16:52:49Z</time>
      </trkpt>
      <trkpt lat="43.95576" lon="5.13484">
        <ele>574.6</ele>
        <time>2013-03-07T16:52:50Z</time>
      </trkpt>
      <trkpt lat="43.95579" lon="5.13479">
        <ele>574.5</ele>
        <time>2013-03-07T16:52:51Z</time>
      </trkpt>
      <trkpt lat="43.95581" lon="5.13474">
        <ele>574</ele>
        <time>2013-03-07T16:52:52Z</time>
      </trkpt>
      <trkpt lat="43.95583" lon="5.1347">
        <ele>573.2</ele>
        <time>2013-03-07T16:52:53Z</time>
      </trkpt>
      <trkpt lat="43.95585" lon="5.13465">
        <ele>572.7</ele>
        <time>2013-03-07T16:52:54Z</time>
      </trkpt>
      <trkpt lat="43.95587" lon="5.13461">
        <ele>572.2</ele>
        <time>2013-03-07T16:52:55Z</time>
      </trkpt>
      <trkpt lat="43.95588" lon="5.13456">
        <ele>571.9</ele>
        <time>2013-03-07T16:52:56Z</time>
      </trkpt>
      <trkpt lat="43.9559" lon="5.13452">
        <ele>571.6</ele>
        <time>2013-03-07T16:52:57Z</time>
      </trkpt>
      <trkpt lat="43.95591" lon="5.13446">
        <ele>570.6</ele>
        <time>2013-03-07T16:52:58Z</time>
      </trkpt>
      <trkpt lat="43.95593" lon="5.13441">
        <ele>570.4</ele>
        <time>2013-03-07T16:52:59Z</time>
      </trkpt>
      <trkpt lat="43.95595" lon="5.13436">
        <ele>570</ele>
        <time>2013-03-07T16:53:00Z</time>
      </trkpt>
      <trkpt lat="43.95597" lon="5.13431">
        <ele>569.7</ele>
        <time>2013-03-07T16:53:01Z</time>
      </trkpt>
      <trkpt lat="43.956" lon="5.13427">
        <ele>570.1</ele>
        <time>2013-03-07T16:53:02Z</time>
      </trkpt>
      <trkpt lat="43.95602" lon="5.13421">
        <ele>569.5</ele>
        <time>2013-03-07T16:53:03Z</time>
      </trkpt>
      <trkpt lat="43.95603" lon="5.13416">
        <ele>569</ele>
        <time>2013-03-07T16:53:04Z</time>
      </trkpt>
      <trkpt lat="43.95605" lon="5.1341">
        <ele>568.3</ele>
        <time>2013-03-07T16:53:05Z</time>
      </trkpt>
      <trkpt lat="43.95606" lon="5.13403">
        <ele>568.1</ele>
        <time>2013-03-07T16:53:06Z</time>
      </trkpt>
      <trkpt lat="43.95609" lon="5.13394">
        <ele>568</ele>
        <time>2013-03-07T16:53:08Z</time>
      </trkpt>
      <trkpt lat="43.95611" lon="5.13388">
        <ele>566.5</ele>
        <time>2013-03-07T16:53:10Z</time>
      </trkpt>
      <trkpt lat="43.95612" lon="5.13385">
        <ele>566</ele>
        <time>2013-03-07T16:53:11Z</time>
      </trkpt>
      <trkpt lat="43.95615" lon="5.13381">
        <ele>565.4</ele>
        <time>2013-03-07T16:53:12Z</time>
      </trkpt>
      <trkpt lat="43.95617" lon="5.13375">
        <ele>564.7</ele>
        <time>2013-03-07T16:53:13Z</time>
      </trkpt>
      <trkpt lat="43.95619" lon="5.13372">
        <ele>564.3</ele>
        <time>2013-03-07T16:53:14Z</time>
      </trkpt>
      <trkpt lat="43.95621" lon="5.13368">
        <ele>564.2</ele>
        <time>2013-03-07T16:53:15Z</time>
      </trkpt>
      <trkpt lat="43.95623" lon="5.13365">
        <ele>564.6</ele>
        <time>2013-03-07T16:53:16Z</time>
      </trkpt>
      <trkpt lat="43.95625" lon="5.13363">
        <ele>564.3</ele>
        <time>2013-03-07T16:53:17Z</time>
      </trkpt>
      <trkpt lat="43.95628" lon="5.13359">
        <ele>565.2</ele>
        <time>2013-03-07T16:53:20Z</time>
      </trkpt>
      <trkpt lat="43.95629" lon="5.13361">
        <ele>565.7</ele>
        <time>2013-03-07T16:53:21Z</time>
      </trkpt>
      <trkpt lat="43.95632" lon="5.13356">
        <ele>566.7</ele>
        <time>2013-03-07T16:53:57Z</time>
      </trkpt>
      <trkpt lat="43.95632" lon="5.13356">
        <ele>566.4</ele>
        <time>2013-03-07T16:53:58Z</time>
      </trkpt>
      <trkpt lat="43.95632" lon="5.13357">
        <ele>565.9</ele>
        <time>2013-03-07T16:54:10Z</time>
      </trkpt>
      <trkpt lat="43.95628" lon="5.13363">
        <ele>563.9</ele>
        <time>2013-03-07T16:54:11Z</time>
      </trkpt>
      <trkpt lat="43.95625" lon="5.13358">
        <ele>565.2</ele>
        <time>2013-03-07T16:54:26Z</time>
      </trkpt>
      <trkpt lat="43.95626" lon="5.13356">
        <ele>565</ele>
        <time>2013-03-07T16:54:27Z</time>
      </trkpt>
      <trkpt lat="43.95627" lon="5.13353">
        <ele>565.6</ele>
        <time>2013-03-07T16:54:28Z</time>
      </trkpt>
      <trkpt lat="43.95628" lon="5.13351">
        <ele>566.1</ele>
        <time>2013-03-07T16:54:29Z</time>
      </trkpt>
      <trkpt lat="43.95628" lon="5.13348">
        <ele>565.2</ele>
        <time>2013-03-07T16:54:30Z</time>
      </trkpt>
      <trkpt lat="43.95628" lon="5.13344">
        <ele>565.8</ele>
        <time>2013-03-07T16:54:31Z</time>
      </trkpt>
      <trkpt lat="43.95628" lon="5.1334">
        <ele>566</ele>
        <time>2013-03-07T16:54:32Z</time>
      </trkpt>
      <trkpt lat="43.95629" lon="5.13337">
        <ele>565.5</ele>
        <time>2013-03-07T16:54:33Z</time>
      </trkpt>
      <trkpt lat="43.9563" lon="5.13333">
        <ele>565.6</ele>
        <time>2013-03-07T16:54:34Z</time>
      </trkpt>
      <trkpt lat="43.95631" lon="5.1333">
        <ele>565.2</ele>
        <time>2013-03-07T16:54:35Z</time>
      </trkpt>
      <trkpt lat="43.95633" lon="5.13325">
        <ele>564.9</ele>
        <time>2013-03-07T16:54:36Z</time>
      </trkpt>
      <trkpt lat="43.95634" lon="5.13321">
        <ele>564.1</ele>
        <time>2013-03-07T16:54:37Z</time>
      </trkpt>
      <trkpt lat="43.95636" lon="5.13318">
        <ele>564.1</ele>
        <time>2013-03-07T16:54:38Z</time>
      </trkpt>
      <trkpt lat="43.95637" lon="5.13314">
        <ele>564.1</ele>
        <time>2013-03-07T16:54:39Z</time>
      </trkpt>
      <trkpt lat="43.95639" lon="5.1331">
        <ele>563.8</ele>
        <time>2013-03-07T16:54:40Z</time>
      </trkpt>
      <trkpt lat="43.9564" lon="5.13306">
        <ele>563.5</ele>
        <time>2013-03-07T16:54:41Z</time>
      </trkpt>
      <trkpt lat="43.95637" lon="5.133">
        <ele>562.3</ele>
        <time>2013-03-07T16:54:42Z</time>
      </trkpt>
      <trkpt lat="43.95637" lon="5.13296">
        <ele>562.2</ele>
        <time>2013-03-07T16:54:43Z</time>
      </trkpt>
      <trkpt lat="43.95637" lon="5.13292">
        <ele>562.1</ele>
        <time>2013-03-07T16:54:44Z</time>
      </trkpt>
      <trkpt lat="43.95636" lon="5.13289">
        <ele>562.3</ele>
        <time>2013-03-07T16:54:45Z</time>
      </trkpt>
      <trkpt lat="43.95637" lon="5.13285">
        <ele>561.9</ele>
        <time>2013-03-07T16:54:46Z</time>
      </trkpt>
      <trkpt lat="43.95639" lon="5.13282">
        <ele>562</ele>
        <time>2013-03-07T16:54:47Z</time>
      </trkpt>
      <trkpt lat="43.95641" lon="5.13279">
        <ele>562</ele>
        <time>2013-03-07T16:54:48Z</time>
      </trkpt>
      <trkpt lat="43.95642" lon="5.13277">
        <ele>561.8</ele>
        <time>2013-03-07T16:54:49Z</time>
      </trkpt>
      <trkpt lat="43.95645" lon="5.13274">
        <ele>561.9</ele>
        <time>2013-03-07T16:54:50Z</time>
      </trkpt>
      <trkpt lat="43.95645" lon="5.13269">
        <ele>560</ele>
        <time>2013-03-07T16:54:51Z</time>
      </trkpt>
      <trkpt lat="43.95647" lon="5.13265">
        <ele>560.2</ele>
        <time>2013-03-07T16:54:52Z</time>
      </trkpt>
      <trkpt lat="43.95646" lon="5.1326">
        <ele>560.2</ele>
        <time>2013-03-07T16:54:53Z</time>
      </trkpt>
      <trkpt lat="43.95645" lon="5.13255">
        <ele>559.6</ele>
        <time>2013-03-07T16:54:54Z</time>
      </trkpt>
      <trkpt lat="43.95645" lon="5.1325">
        <ele>559.4</ele>
        <time>2013-03-07T16:54:55Z</time>
      </trkpt>
      <trkpt lat="43.95644" lon="5.13247">
        <ele>559</ele>
        <time>2013-03-07T16:54:56Z</time>
      </trkpt>
      <trkpt lat="43.95643" lon="5.13242">
        <ele>558.8</ele>
        <time>2013-03-07T16:54:57Z</time>
      </trkpt>
      <trkpt lat="43.95643" lon="5.13239">
        <ele>558.5</ele>
        <time>2013-03-07T16:54:58Z</time>
      </trkpt>
      <trkpt lat="43.95643" lon="5.13234">
        <ele>558</ele>
        <time>2013-03-07T16:54:59Z</time>
      </trkpt>
      <trkpt lat="43.95643" lon="5.1323">
        <ele>557.9</ele>
        <time>2013-03-07T16:55:00Z</time>
      </trkpt>
      <trkpt lat="43.95643" lon="5.13225">
        <ele>557.8</ele>
        <time>2013-03-07T16:55:01Z</time>
      </trkpt>
      <trkpt lat="43.95642" lon="5.13221">
        <ele>557.3</ele>
        <time>2013-03-07T16:55:02Z</time>
      </trkpt>
      <trkpt lat="43.95642" lon="5.13216">
        <ele>557</ele>
        <time>2013-03-07T16:55:03Z</time>
      </trkpt>
      <trkpt lat="43.9564" lon="5.13212">
        <ele>557.3</ele>
        <time>2013-03-07T16:55:04Z</time>
      </trkpt>
      <trkpt lat="43.95639" lon="5.13207">
        <ele>557.4</ele>
        <time>2013-03-07T16:55:05Z</time>
      </trkpt>
      <trkpt lat="43.95639" lon="5.13202">
        <ele>558</ele>
        <time>2013-03-07T16:55:06Z</time>
      </trkpt>
      <trkpt lat="43.95641" lon="5.13192">
        <ele>561.4</ele>
        <time>2013-03-07T16:55:08Z</time>
      </trkpt>
      <trkpt lat="43.95644" lon="5.13184">
        <ele>563.1</ele>
        <time>2013-03-07T16:55:09Z</time>
      </trkpt>
      <trkpt lat="43.95645" lon="5.13178">
        <ele>563.6</ele>
        <time>2013-03-07T16:55:10Z</time>
      </trkpt>
      <trkpt lat="43.95647" lon="5.13174">
        <ele>564</ele>
        <time>2013-03-07T16:55:11Z</time>
      </trkpt>
      <trkpt lat="43.95631" lon="5.13159">
        <ele>568.7</ele>
        <time>2013-03-07T16:55:12Z</time>
      </trkpt>
      <trkpt lat="43.95629" lon="5.13152">
        <ele>569.2</ele>
        <time>2013-03-07T16:55:13Z</time>
      </trkpt>
      <trkpt lat="43.95627" lon="5.13145">
        <ele>569.4</ele>
        <time>2013-03-07T16:55:14Z</time>
      </trkpt>
      <trkpt lat="43.95627" lon="5.13138">
        <ele>568.2</ele>
        <time>2013-03-07T16:55:15Z</time>
      </trkpt>
      <trkpt lat="43.95624" lon="5.13131">
        <ele>568.1</ele>
        <time>2013-03-07T16:55:16Z</time>
      </trkpt>
      <trkpt lat="43.95622" lon="5.13123">
        <ele>567.3</ele>
        <time>2013-03-07T16:55:17Z</time>
      </trkpt>
      <trkpt lat="43.9562" lon="5.13115">
        <ele>566.6</ele>
        <time>2013-03-07T16:55:18Z</time>
      </trkpt>
      <trkpt lat="43.95617" lon="5.13108">
        <ele>566.3</ele>
        <time>2013-03-07T16:55:19Z</time>
      </trkpt>
      <trkpt lat="43.95614" lon="5.13101">
        <ele>566.4</ele>
        <time>2013-03-07T16:55:20Z</time>
      </trkpt>
      <trkpt lat="43.95613" lon="5.13093">
        <ele>566.8</ele>
        <time>2013-03-07T16:55:21Z</time>
      </trkpt>
      <trkpt lat="43.95612" lon="5.13085">
        <ele>567</ele>
        <time>2013-03-07T16:55:22Z</time>
      </trkpt>
      <trkpt lat="43.95612" lon="5.13078">
        <ele>567.2</ele>
        <time>2013-03-07T16:55:23Z</time>
      </trkpt>
      <trkpt lat="43.95609" lon="5.13074">
        <ele>560</ele>
        <time>2013-03-07T16:55:33Z</time>
      </trkpt>
      <trkpt lat="43.95608" lon="5.13074">
        <ele>559.6</ele>
        <time>2013-03-07T16:55:34Z</time>
      </trkpt>
      <trkpt lat="43.95604" lon="5.1307">
        <ele>559.3</ele>
        <time>2013-03-07T16:55:39Z</time>
      </trkpt>
      <trkpt lat="43.95603" lon="5.13069">
        <ele>559</ele>
        <time>2013-03-07T16:55:40Z</time>
      </trkpt>
      <trkpt lat="43.95603" lon="5.13067">
        <ele>560.1</ele>
        <time>2013-03-07T16:55:42Z</time>
      </trkpt>
      <trkpt lat="43.95605" lon="5.13063">
        <ele>559.3</ele>
        <time>2013-03-07T16:55:43Z</time>
      </trkpt>
      <trkpt lat="43.95605" lon="5.13057">
        <ele>558.4</ele>
        <time>2013-03-07T16:55:45Z</time>
      </trkpt>
      <trkpt lat="43.95605" lon="5.13053">
        <ele>557.9</ele>
        <time>2013-03-07T16:55:46Z</time>
      </trkpt>
      <trkpt lat="43.95605" lon="5.13049">
        <ele>557.5</ele>
        <time>2013-03-07T16:55:47Z</time>
      </trkpt>
      <trkpt lat="43.95605" lon="5.13045">
        <ele>557.3</ele>
        <time>2013-03-07T16:55:48Z</time>
      </trkpt>
      <trkpt lat="43.95605" lon="5.13041">
        <ele>557.4</ele>
        <time>2013-03-07T16:55:49Z</time>
      </trkpt>
      <trkpt lat="43.95607" lon="5.13039">
        <ele>557.5</ele>
        <time>2013-03-07T16:55:50Z</time>
      </trkpt>
      <trkpt lat="43.95609" lon="5.13037">
        <ele>557.4</ele>
        <time>2013-03-07T16:55:51Z</time>
      </trkpt>
      <trkpt lat="43.95611" lon="5.13035">
        <ele>557.4</ele>
        <time>2013-03-07T16:55:52Z</time>
      </trkpt>
      <trkpt lat="43.95614" lon="5.13033">
        <ele>554.7</ele>
        <time>2013-03-07T16:55:53Z</time>
      </trkpt>
      <trkpt lat="43.95617" lon="5.13029">
        <ele>553.5</ele>
        <time>2013-03-07T16:55:54Z</time>
      </trkpt>
      <trkpt lat="43.95621" lon="5.13025">
        <ele>553.1</ele>
        <time>2013-03-07T16:55:55Z</time>
      </trkpt>
      <trkpt lat="43.95622" lon="5.13021">
        <ele>553.1</ele>
        <time>2013-03-07T16:55:56Z</time>
      </trkpt>
      <trkpt lat="43.95624" lon="5.13017">
        <ele>552.8</ele>
        <time>2013-03-07T16:55:57Z</time>
      </trkpt>
      <trkpt lat="43.95627" lon="5.13014">
        <ele>552.8</ele>
        <time>2013-03-07T16:55:58Z</time>
      </trkpt>
      <trkpt lat="43.95629" lon="5.1301">
        <ele>552.4</ele>
        <time>2013-03-07T16:55:59Z</time>
      </trkpt>
      <trkpt lat="43.95631" lon="5.13006">
        <ele>552.4</ele>
        <time>2013-03-07T16:56:00Z</time>
      </trkpt>
      <trkpt lat="43.95633" lon="5.13002">
        <ele>551.8</ele>
        <time>2013-03-07T16:56:01Z</time>
      </trkpt>
      <trkpt lat="43.95636" lon="5.12999">
        <ele>551.3</ele>
        <time>2013-03-07T16:56:02Z</time>
      </trkpt>
      <trkpt lat="43.95638" lon="5.12995">
        <ele>551.5</ele>
        <time>2013-03-07T16:56:03Z</time>
      </trkpt>
      <trkpt lat="43.95641" lon="5.12993">
        <ele>551.7</ele>
        <time>2013-03-07T16:56:04Z</time>
      </trkpt>
      <trkpt lat="43.95643" lon="5.1299">
        <ele>551.6</ele>
        <time>2013-03-07T16:56:05Z</time>
      </trkpt>
      <trkpt lat="43.95645" lon="5.12986">
        <ele>551.7</ele>
        <time>2013-03-07T16:56:06Z</time>
      </trkpt>
      <trkpt lat="43.95647" lon="5.12978">
        <ele>550.9</ele>
        <time>2013-03-07T16:56:08Z</time>
      </trkpt>
      <trkpt lat="43.95647" lon="5.12974">
        <ele>550.2</ele>
        <time>2013-03-07T16:56:09Z</time>
      </trkpt>
      <trkpt lat="43.95646" lon="5.12968">
        <ele>549.7</ele>
        <time>2013-03-07T16:56:10Z</time>
      </trkpt>
      <trkpt lat="43.95646" lon="5.12964">
        <ele>549.5</ele>
        <time>2013-03-07T16:56:11Z</time>
      </trkpt>
      <trkpt lat="43.95647" lon="5.1296">
        <ele>549</ele>
        <time>2013-03-07T16:56:12Z</time>
      </trkpt>
      <trkpt lat="43.95649" lon="5.12957">
        <ele>549</ele>
        <time>2013-03-07T16:56:13Z</time>
      </trkpt>
      <trkpt lat="43.95652" lon="5.12954">
        <ele>548.3</ele>
        <time>2013-03-07T16:56:14Z</time>
      </trkpt>
      <trkpt lat="43.95653" lon="5.12951">
        <ele>547.8</ele>
        <time>2013-03-07T16:56:15Z</time>
      </trkpt>
      <trkpt lat="43.95652" lon="5.12946">
        <ele>546.7</ele>
        <time>2013-03-07T16:56:16Z</time>
      </trkpt>
      <trkpt lat="43.95652" lon="5.12943">
        <ele>546.8</ele>
        <time>2013-03-07T16:56:17Z</time>
      </trkpt>
      <trkpt lat="43.95652" lon="5.12939">
        <ele>546.1</ele>
        <time>2013-03-07T16:56:18Z</time>
      </trkpt>
      <trkpt lat="43.95653" lon="5.12933">
        <ele>544.8</ele>
        <time>2013-03-07T16:56:20Z</time>
      </trkpt>
      <trkpt lat="43.95653" lon="5.12931">
        <ele>544.9</ele>
        <time>2013-03-07T16:56:21Z</time>
      </trkpt>
      <trkpt lat="43.95652" lon="5.12927">
        <ele>543.8</ele>
        <time>2013-03-07T16:56:27Z</time>
      </trkpt>
      <trkpt lat="43.95651" lon="5.12925">
        <ele>542.9</ele>
        <time>2013-03-07T16:56:28Z</time>
      </trkpt>
      <trkpt lat="43.95651" lon="5.12921">
        <ele>542.2</ele>
        <time>2013-03-07T16:56:31Z</time>
      </trkpt>
      <trkpt lat="43.9565" lon="5.12919">
        <ele>542.2</ele>
        <time>2013-03-07T16:56:32Z</time>
      </trkpt>
      <trkpt lat="43.95651" lon="5.12913">
        <ele>542.4</ele>
        <time>2013-03-07T16:56:39Z</time>
      </trkpt>
      <trkpt lat="43.95652" lon="5.12911">
        <ele>542.2</ele>
        <time>2013-03-07T16:56:40Z</time>
      </trkpt>
      <trkpt lat="43.9565" lon="5.12908">
        <ele>542.1</ele>
        <time>2013-03-07T16:56:41Z</time>
      </trkpt>
      <trkpt lat="43.95649" lon="5.12906">
        <ele>541.8</ele>
        <time>2013-03-07T16:56:42Z</time>
      </trkpt>
      <trkpt lat="43.95647" lon="5.12902">
        <ele>541.6</ele>
        <time>2013-03-07T16:56:44Z</time>
      </trkpt>
      <trkpt lat="43.95646" lon="5.12899">
        <ele>541.5</ele>
        <time>2013-03-07T16:56:45Z</time>
      </trkpt>
      <trkpt lat="43.95645" lon="5.12897">
        <ele>541.7</ele>
        <time>2013-03-07T16:56:46Z</time>
      </trkpt>
      <trkpt lat="43.95638" lon="5.12894">
        <ele>540.6</ele>
        <time>2013-03-07T16:56:47Z</time>
      </trkpt>
      <trkpt lat="43.95636" lon="5.12892">
        <ele>540.6</ele>
        <time>2013-03-07T16:56:48Z</time>
      </trkpt>
      <trkpt lat="43.95632" lon="5.12888">
        <ele>540.2</ele>
        <time>2013-03-07T16:56:49Z</time>
      </trkpt>
      <trkpt lat="43.9563" lon="5.12885">
        <ele>539.8</ele>
        <time>2013-03-07T16:56:50Z</time>
      </trkpt>
      <trkpt lat="43.95628" lon="5.12882">
        <ele>539.6</ele>
        <time>2013-03-07T16:56:51Z</time>
      </trkpt>
      <trkpt lat="43.95627" lon="5.12878">
        <ele>539.4</ele>
        <time>2013-03-07T16:56:52Z</time>
      </trkpt>
      <trkpt lat="43.95626" lon="5.12874">
        <ele>538.9</ele>
        <time>2013-03-07T16:56:53Z</time>
      </trkpt>
      <trkpt lat="43.95624" lon="5.1287">
        <ele>538.6</ele>
        <time>2013-03-07T16:56:54Z</time>
      </trkpt>
      <trkpt lat="43.95624" lon="5.12866">
        <ele>538.1</ele>
        <time>2013-03-07T16:56:55Z</time>
      </trkpt>
      <trkpt lat="43.95625" lon="5.1286">
        <ele>538.5</ele>
        <time>2013-03-07T16:56:56Z</time>
      </trkpt>
      <trkpt lat="43.95625" lon="5.12856">
        <ele>538.6</ele>
        <time>2013-03-07T16:56:57Z</time>
      </trkpt>
      <trkpt lat="43.95625" lon="5.12852">
        <ele>538.1</ele>
        <time>2013-03-07T16:56:58Z</time>
      </trkpt>
      <trkpt lat="43.95626" lon="5.12846">
        <ele>537.5</ele>
        <time>2013-03-07T16:56:59Z</time>
      </trkpt>
      <trkpt lat="43.95625" lon="5.12842">
        <ele>537.1</ele>
        <time>2013-03-07T16:57:00Z</time>
      </trkpt>
      <trkpt lat="43.95624" lon="5.12836">
        <ele>536.5</ele>
        <time>2013-03-07T16:57:01Z</time>
      </trkpt>
      <trkpt lat="43.9562" lon="5.12833">
        <ele>534.7</ele>
        <time>2013-03-07T16:57:02Z</time>
      </trkpt>
      <trkpt lat="43.95619" lon="5.12829">
        <ele>533.6</ele>
        <time>2013-03-07T16:57:03Z</time>
      </trkpt>
      <trkpt lat="43.95618" lon="5.12826">
        <ele>533.4</ele>
        <time>2013-03-07T16:57:04Z</time>
      </trkpt>
      <trkpt lat="43.95617" lon="5.12821">
        <ele>533.1</ele>
        <time>2013-03-07T16:57:05Z</time>
      </trkpt>
      <trkpt lat="43.95616" lon="5.12817">
        <ele>532</ele>
        <time>2013-03-07T16:57:06Z</time>
      </trkpt>
      <trkpt lat="43.95617" lon="5.12808">
        <ele>531.2</ele>
        <time>2013-03-07T16:57:08Z</time>
      </trkpt>
      <trkpt lat="43.95616" lon="5.12803">
        <ele>530.7</ele>
        <time>2013-03-07T16:57:09Z</time>
      </trkpt>
      <trkpt lat="43.95617" lon="5.12797">
        <ele>530.7</ele>
        <time>2013-03-07T16:57:10Z</time>
      </trkpt>
      <trkpt lat="43.95618" lon="5.12793">
        <ele>530.4</ele>
        <time>2013-03-07T16:57:11Z</time>
      </trkpt>
      <trkpt lat="43.95619" lon="5.12788">
        <ele>530.3</ele>
        <time>2013-03-07T16:57:12Z</time>
      </trkpt>
      <trkpt lat="43.95621" lon="5.12784">
        <ele>529.6</ele>
        <time>2013-03-07T16:57:13Z</time>
      </trkpt>
      <trkpt lat="43.95623" lon="5.12779">
        <ele>528.5</ele>
        <time>2013-03-07T16:57:14Z</time>
      </trkpt>
      <trkpt lat="43.95622" lon="5.12774">
        <ele>527.7</ele>
        <time>2013-03-07T16:57:15Z</time>
      </trkpt>
      <trkpt lat="43.9562" lon="5.1277">
        <ele>526.7</ele>
        <time>2013-03-07T16:57:16Z</time>
      </trkpt>
      <trkpt lat="43.95619" lon="5.12766">
        <ele>525.2</ele>
        <time>2013-03-07T16:57:17Z</time>
      </trkpt>
      <trkpt lat="43.95618" lon="5.12761">
        <ele>524.7</ele>
        <time>2013-03-07T16:57:18Z</time>
      </trkpt>
      <trkpt lat="43.95617" lon="5.12755">
        <ele>523.9</ele>
        <time>2013-03-07T16:57:19Z</time>
      </trkpt>
      <trkpt lat="43.95616" lon="5.12748">
        <ele>523.5</ele>
        <time>2013-03-07T16:57:20Z</time>
      </trkpt>
      <trkpt lat="43.95614" lon="5.1274">
        <ele>522.6</ele>
        <time>2013-03-07T16:57:21Z</time>
      </trkpt>
      <trkpt lat="43.95613" lon="5.12729">
        <ele>522</ele>
        <time>2013-03-07T16:57:22Z</time>
      </trkpt>
      <trkpt lat="43.95611" lon="5.1272">
        <ele>521.5</ele>
        <time>2013-03-07T16:57:23Z</time>
      </trkpt>
      <trkpt lat="43.9561" lon="5.12711">
        <ele>519.9</ele>
        <time>2013-03-07T16:57:24Z</time>
      </trkpt>
      <trkpt lat="43.95609" lon="5.12701">
        <ele>519.4</ele>
        <time>2013-03-07T16:57:25Z</time>
      </trkpt>
      <trkpt lat="43.95608" lon="5.12691">
        <ele>518.2</ele>
        <time>2013-03-07T16:57:26Z</time>
      </trkpt>
      <trkpt lat="43.95605" lon="5.12682">
        <ele>516.5</ele>
        <time>2013-03-07T16:57:27Z</time>
      </trkpt>
      <trkpt lat="43.95605" lon="5.12675">
        <ele>516.2</ele>
        <time>2013-03-07T16:57:28Z</time>
      </trkpt>
      <trkpt lat="43.95605" lon="5.12667">
        <ele>515.4</ele>
        <time>2013-03-07T16:57:29Z</time>
      </trkpt>
      <trkpt lat="43.95604" lon="5.12659">
        <ele>515.3</ele>
        <time>2013-03-07T16:57:30Z</time>
      </trkpt>
      <trkpt lat="43.95602" lon="5.12653">
        <ele>514.2</ele>
        <time>2013-03-07T16:57:31Z</time>
      </trkpt>
      <trkpt lat="43.95601" lon="5.12647">
        <ele>514</ele>
        <time>2013-03-07T16:57:32Z</time>
      </trkpt>
      <trkpt lat="43.95602" lon="5.12643">
        <ele>513.6</ele>
        <time>2013-03-07T16:57:33Z</time>
      </trkpt>
      <trkpt lat="43.95603" lon="5.12638">
        <ele>513.1</ele>
        <time>2013-03-07T16:57:34Z</time>
      </trkpt>
      <trkpt lat="43.95605" lon="5.12637">
        <ele>512.6</ele>
        <time>2013-03-07T16:57:35Z</time>
      </trkpt>
      <trkpt lat="43.95609" lon="5.12635">
        <ele>510.4</ele>
        <time>2013-03-07T16:57:37Z</time>
      </trkpt>
      <trkpt lat="43.95611" lon="5.1264">
        <ele>510.8</ele>
        <time>2013-03-07T16:57:38Z</time>
      </trkpt>
      <trkpt lat="43.95612" lon="5.12642">
        <ele>510.2</ele>
        <time>2013-03-07T16:57:39Z</time>
      </trkpt>
      <trkpt lat="43.95616" lon="5.12644">
        <ele>510</ele>
        <time>2013-03-07T16:57:40Z</time>
      </trkpt>
      <trkpt lat="43.95618" lon="5.12647">
        <ele>509.3</ele>
        <time>2013-03-07T16:57:41Z</time>
      </trkpt>
      <trkpt lat="43.95622" lon="5.12648">
        <ele>509.5</ele>
        <time>2013-03-07T16:57:42Z</time>
      </trkpt>
      <trkpt lat="43.95626" lon="5.12651">
        <ele>509.7</ele>
        <time>2013-03-07T16:57:43Z</time>
      </trkpt>
      <trkpt lat="43.95631" lon="5.12651">
        <ele>509.9</ele>
        <time>2013-03-07T16:57:44Z</time>
      </trkpt>
      <trkpt lat="43.95637" lon="5.12651">
        <ele>510</ele>
        <time>2013-03-07T16:57:45Z</time>
      </trkpt>
      <trkpt lat="43.95642" lon="5.12651">
        <ele>509.7</ele>
        <time>2013-03-07T16:57:46Z</time>
      </trkpt>
      <trkpt lat="43.95647" lon="5.1265">
        <ele>509.6</ele>
        <time>2013-03-07T16:57:47Z</time>
      </trkpt>
      <trkpt lat="43.9565" lon="5.12649">
        <ele>509.6</ele>
        <time>2013-03-07T16:57:48Z</time>
      </trkpt>
      <trkpt lat="43.95655" lon="5.12649">
        <ele>509.6</ele>
        <time>2013-03-07T16:57:49Z</time>
      </trkpt>
      <trkpt lat="43.9566" lon="5.1265">
        <ele>509.2</ele>
        <time>2013-03-07T16:57:50Z</time>
      </trkpt>
      <trkpt lat="43.95664" lon="5.1265">
        <ele>509.8</ele>
        <time>2013-03-07T16:57:51Z</time>
      </trkpt>
      <trkpt lat="43.95669" lon="5.12649">
        <ele>510.4</ele>
        <time>2013-03-07T16:57:52Z</time>
      </trkpt>
      <trkpt lat="43.95674" lon="5.12649">
        <ele>510.4</ele>
        <time>2013-03-07T16:57:53Z</time>
      </trkpt>
      <trkpt lat="43.95678" lon="5.1265">
        <ele>511.2</ele>
        <time>2013-03-07T16:57:54Z</time>
      </trkpt>
      <trkpt lat="43.95681" lon="5.12651">
        <ele>511.8</ele>
        <time>2013-03-07T16:57:55Z</time>
      </trkpt>
      <trkpt lat="43.95685" lon="5.12652">
        <ele>512.4</ele>
        <time>2013-03-07T16:57:56Z</time>
      </trkpt>
      <trkpt lat="43.95688" lon="5.12652">
        <ele>511.3</ele>
        <time>2013-03-07T16:57:57Z</time>
      </trkpt>
      <trkpt lat="43.95692" lon="5.12654">
        <ele>511</ele>
        <time>2013-03-07T16:57:58Z</time>
      </trkpt>
      <trkpt lat="43.95696" lon="5.12656">
        <ele>510.5</ele>
        <time>2013-03-07T16:57:59Z</time>
      </trkpt>
      <trkpt lat="43.957" lon="5.12658">
        <ele>509.8</ele>
        <time>2013-03-07T16:58:00Z</time>
      </trkpt>
      <trkpt lat="43.95704" lon="5.1266">
        <ele>510.2</ele>
        <time>2013-03-07T16:58:01Z</time>
      </trkpt>
      <trkpt lat="43.95708" lon="5.12661">
        <ele>510.6</ele>
        <time>2013-03-07T16:58:02Z</time>
      </trkpt>
      <trkpt lat="43.95712" lon="5.12662">
        <ele>510.6</ele>
        <time>2013-03-07T16:58:03Z</time>
      </trkpt>
      <trkpt lat="43.95716" lon="5.12664">
        <ele>510.7</ele>
        <time>2013-03-07T16:58:04Z</time>
      </trkpt>
      <trkpt lat="43.9572" lon="5.12667">
        <ele>512.6</ele>
        <time>2013-03-07T16:58:05Z</time>
      </trkpt>
      <trkpt lat="43.95724" lon="5.12669">
        <ele>512.4</ele>
        <time>2013-03-07T16:58:06Z</time>
      </trkpt>
      <trkpt lat="43.95733" lon="5.12675">
        <ele>512.6</ele>
        <time>2013-03-07T16:58:08Z</time>
      </trkpt>
      <trkpt lat="43.95737" lon="5.12677">
        <ele>512.6</ele>
        <time>2013-03-07T16:58:09Z</time>
      </trkpt>
      <trkpt lat="43.95742" lon="5.12678">
        <ele>512.2</ele>
        <time>2013-03-07T16:58:10Z</time>
      </trkpt>
      <trkpt lat="43.95746" lon="5.12679">
        <ele>512.2</ele>
        <time>2013-03-07T16:58:11Z</time>
      </trkpt>
      <trkpt lat="43.95751" lon="5.1268">
        <ele>511.4</ele>
        <time>2013-03-07T16:58:12Z</time>
      </trkpt>
      <trkpt lat="43.95755" lon="5.12681">
        <ele>511</ele>
        <time>2013-03-07T16:58:13Z</time>
      </trkpt>
      <trkpt lat="43.9576" lon="5.12682">
        <ele>510.5</ele>
        <time>2013-03-07T16:58:14Z</time>
      </trkpt>
      <trkpt lat="43.95764" lon="5.12681">
        <ele>510.3</ele>
        <time>2013-03-07T16:58:15Z</time>
      </trkpt>
      <trkpt lat="43.95769" lon="5.12682">
        <ele>510.1</ele>
        <time>2013-03-07T16:58:16Z</time>
      </trkpt>
      <trkpt lat="43.95775" lon="5.1268">
        <ele>509.4</ele>
        <time>2013-03-07T16:58:17Z</time>
      </trkpt>
      <trkpt lat="43.95779" lon="5.1268">
        <ele>509.5</ele>
        <time>2013-03-07T16:58:18Z</time>
      </trkpt>
      <trkpt lat="43.95783" lon="5.1268">
        <ele>509.5</ele>
        <time>2013-03-07T16:58:19Z</time>
      </trkpt>
      <trkpt lat="43.95787" lon="5.12681">
        <ele>509.6</ele>
        <time>2013-03-07T16:58:20Z</time>
      </trkpt>
      <trkpt lat="43.95791" lon="5.12683">
        <ele>509.7</ele>
        <time>2013-03-07T16:58:21Z</time>
      </trkpt>
      <trkpt lat="43.95796" lon="5.12683">
        <ele>509.2</ele>
        <time>2013-03-07T16:58:22Z</time>
      </trkpt>
      <trkpt lat="43.958" lon="5.12685">
        <ele>511</ele>
        <time>2013-03-07T16:58:23Z</time>
      </trkpt>
      <trkpt lat="43.95804" lon="5.12685">
        <ele>511.5</ele>
        <time>2013-03-07T16:58:24Z</time>
      </trkpt>
      <trkpt lat="43.95808" lon="5.12686">
        <ele>511.8</ele>
        <time>2013-03-07T16:58:25Z</time>
      </trkpt>
      <trkpt lat="43.95811" lon="5.12687">
        <ele>511.9</ele>
        <time>2013-03-07T16:58:26Z</time>
      </trkpt>
      <trkpt lat="43.95815" lon="5.12688">
        <ele>511.8</ele>
        <time>2013-03-07T16:58:27Z</time>
      </trkpt>
      <trkpt lat="43.95818" lon="5.12689">
        <ele>511.6</ele>
        <time>2013-03-07T16:58:28Z</time>
      </trkpt>
      <trkpt lat="43.95822" lon="5.12689">
        <ele>512.1</ele>
        <time>2013-03-07T16:58:29Z</time>
      </trkpt>
      <trkpt lat="43.95825" lon="5.12689">
        <ele>512.3</ele>
        <time>2013-03-07T16:58:30Z</time>
      </trkpt>
      <trkpt lat="43.95828" lon="5.12689">
        <ele>512.4</ele>
        <time>2013-03-07T16:58:31Z</time>
      </trkpt>
      <trkpt lat="43.95831" lon="5.12688">
        <ele>512.1</ele>
        <time>2013-03-07T16:58:32Z</time>
      </trkpt>
      <trkpt lat="43.95835" lon="5.12688">
        <ele>511.8</ele>
        <time>2013-03-07T16:58:33Z</time>
      </trkpt>
      <trkpt lat="43.95839" lon="5.12687">
        <ele>511.8</ele>
        <time>2013-03-07T16:58:34Z</time>
      </trkpt>
      <trkpt lat="43.95842" lon="5.1269">
        <ele>512</ele>
        <time>2013-03-07T16:58:35Z</time>
      </trkpt>
      <trkpt lat="43.95845" lon="5.1269">
        <ele>512.3</ele>
        <time>2013-03-07T16:58:36Z</time>
      </trkpt>
      <trkpt lat="43.95849" lon="5.12691">
        <ele>512.9</ele>
        <time>2013-03-07T16:58:37Z</time>
      </trkpt>
      <trkpt lat="43.95852" lon="5.12692">
        <ele>512.7</ele>
        <time>2013-03-07T16:58:38Z</time>
      </trkpt>
      <trkpt lat="43.95856" lon="5.12693">
        <ele>513.7</ele>
        <time>2013-03-07T16:58:39Z</time>
      </trkpt>
      <trkpt lat="43.95858" lon="5.12694">
        <ele>514.2</ele>
        <time>2013-03-07T16:58:40Z</time>
      </trkpt>
      <trkpt lat="43.95861" lon="5.12694">
        <ele>514.5</ele>
        <time>2013-03-07T16:58:41Z</time>
      </trkpt>
      <trkpt lat="43.95864" lon="5.12694">
        <ele>514.6</ele>
        <time>2013-03-07T16:58:42Z</time>
      </trkpt>
      <trkpt lat="43.95867" lon="5.12694">
        <ele>514.7</ele>
        <time>2013-03-07T16:58:43Z</time>
      </trkpt>
      <trkpt lat="43.95871" lon="5.12696">
        <ele>516.2</ele>
        <time>2013-03-07T16:58:44Z</time>
      </trkpt>
      <trkpt lat="43.95874" lon="5.12695">
        <ele>516.1</ele>
        <time>2013-03-07T16:58:45Z</time>
      </trkpt>
      <trkpt lat="43.95878" lon="5.12696">
        <ele>516.8</ele>
        <time>2013-03-07T16:58:46Z</time>
      </trkpt>
      <trkpt lat="43.95881" lon="5.12696">
        <ele>517.1</ele>
        <time>2013-03-07T16:58:47Z</time>
      </trkpt>
      <trkpt lat="43.95885" lon="5.12696">
        <ele>517</ele>
        <time>2013-03-07T16:58:48Z</time>
      </trkpt>
      <trkpt lat="43.95888" lon="5.12696">
        <ele>517.2</ele>
        <time>2013-03-07T16:58:49Z</time>
      </trkpt>
      <trkpt lat="43.95892" lon="5.12697">
        <ele>517.2</ele>
        <time>2013-03-07T16:58:50Z</time>
      </trkpt>
      <trkpt lat="43.95895" lon="5.12697">
        <ele>517.2</ele>
        <time>2013-03-07T16:58:51Z</time>
      </trkpt>
      <trkpt lat="43.95899" lon="5.12696">
        <ele>517.2</ele>
        <time>2013-03-07T16:58:52Z</time>
      </trkpt>
      <trkpt lat="43.95902" lon="5.12696">
        <ele>517.4</ele>
        <time>2013-03-07T16:58:53Z</time>
      </trkpt>
      <trkpt lat="43.95906" lon="5.12695">
        <ele>517.3</ele>
        <time>2013-03-07T16:58:54Z</time>
      </trkpt>
      <trkpt lat="43.95909" lon="5.12695">
        <ele>517.5</ele>
        <time>2013-03-07T16:58:55Z</time>
      </trkpt>
      <trkpt lat="43.95912" lon="5.12695">
        <ele>517.7</ele>
        <time>2013-03-07T16:58:56Z</time>
      </trkpt>
      <trkpt lat="43.95915" lon="5.12695">
        <ele>517.9</ele>
        <time>2013-03-07T16:58:57Z</time>
      </trkpt>
      <trkpt lat="43.95918" lon="5.12696">
        <ele>517.8</ele>
        <time>2013-03-07T16:58:58Z</time>
      </trkpt>
      <trkpt lat="43.95921" lon="5.12697">
        <ele>517.7</ele>
        <time>2013-03-07T16:58:59Z</time>
      </trkpt>
      <trkpt lat="43.95924" lon="5.12699">
        <ele>517.3</ele>
        <time>2013-03-07T16:59:00Z</time>
      </trkpt>
      <trkpt lat="43.95928" lon="5.12699">
        <ele>516.9</ele>
        <time>2013-03-07T16:59:01Z</time>
      </trkpt>
      <trkpt lat="43.95932" lon="5.127">
        <ele>516.8</ele>
        <time>2013-03-07T16:59:02Z</time>
      </trkpt>
      <trkpt lat="43.95936" lon="5.12701">
        <ele>516.4</ele>
        <time>2013-03-07T16:59:03Z</time>
      </trkpt>
      <trkpt lat="43.95941" lon="5.12702">
        <ele>516.6</ele>
        <time>2013-03-07T16:59:04Z</time>
      </trkpt>
      <trkpt lat="43.95945" lon="5.12703">
        <ele>517</ele>
        <time>2013-03-07T16:59:05Z</time>
      </trkpt>
      <trkpt lat="43.9595" lon="5.12704">
        <ele>517.1</ele>
        <time>2013-03-07T16:59:06Z</time>
      </trkpt>
      <trkpt lat="43.95958" lon="5.12706">
        <ele>516.7</ele>
        <time>2013-03-07T16:59:08Z</time>
      </trkpt>
      <trkpt lat="43.95962" lon="5.12707">
        <ele>517.1</ele>
        <time>2013-03-07T16:59:09Z</time>
      </trkpt>
      <trkpt lat="43.95966" lon="5.12708">
        <ele>516.8</ele>
        <time>2013-03-07T16:59:10Z</time>
      </trkpt>
      <trkpt lat="43.9597" lon="5.12709">
        <ele>517</ele>
        <time>2013-03-07T16:59:11Z</time>
      </trkpt>
      <trkpt lat="43.95974" lon="5.1271">
        <ele>517.7</ele>
        <time>2013-03-07T16:59:12Z</time>
      </trkpt>
      <trkpt lat="43.95977" lon="5.12712">
        <ele>517.8</ele>
        <time>2013-03-07T16:59:13Z</time>
      </trkpt>
      <trkpt lat="43.95981" lon="5.12713">
        <ele>518</ele>
        <time>2013-03-07T16:59:14Z</time>
      </trkpt>
      <trkpt lat="43.95985" lon="5.12715">
        <ele>518.4</ele>
        <time>2013-03-07T16:59:15Z</time>
      </trkpt>
      <trkpt lat="43.95989" lon="5.12716">
        <ele>518.2</ele>
        <time>2013-03-07T16:59:16Z</time>
      </trkpt>
      <trkpt lat="43.95992" lon="5.12718">
        <ele>518.1</ele>
        <time>2013-03-07T16:59:17Z</time>
      </trkpt>
      <trkpt lat="43.95996" lon="5.1272">
        <ele>518</ele>
        <time>2013-03-07T16:59:18Z</time>
      </trkpt>
      <trkpt lat="43.95999" lon="5.12722">
        <ele>517.7</ele>
        <time>2013-03-07T16:59:19Z</time>
      </trkpt>
      <trkpt lat="43.96003" lon="5.12726">
        <ele>517.8</ele>
        <time>2013-03-07T16:59:20Z</time>
      </trkpt>
      <trkpt lat="43.96006" lon="5.1273">
        <ele>517.9</ele>
        <time>2013-03-07T16:59:21Z</time>
      </trkpt>
      <trkpt lat="43.96012" lon="5.12732">
        <ele>517.2</ele>
        <time>2013-03-07T16:59:22Z</time>
      </trkpt>
      <trkpt lat="43.96019" lon="5.12737">
        <ele>516.5</ele>
        <time>2013-03-07T16:59:23Z</time>
      </trkpt>
      <trkpt lat="43.96023" lon="5.1274">
        <ele>516.3</ele>
        <time>2013-03-07T16:59:24Z</time>
      </trkpt>
      <trkpt lat="43.96028" lon="5.12742">
        <ele>516.4</ele>
        <time>2013-03-07T16:59:25Z</time>
      </trkpt>
      <trkpt lat="43.96033" lon="5.12747">
        <ele>516.4</ele>
        <time>2013-03-07T16:59:26Z</time>
      </trkpt>
      <trkpt lat="43.96038" lon="5.12752">
        <ele>516.1</ele>
        <time>2013-03-07T16:59:27Z</time>
      </trkpt>
      <trkpt lat="43.96045" lon="5.12757">
        <ele>515.7</ele>
        <time>2013-03-07T16:59:28Z</time>
      </trkpt>
      <trkpt lat="43.96049" lon="5.1276">
        <ele>515.8</ele>
        <time>2013-03-07T16:59:29Z</time>
      </trkpt>
      <trkpt lat="43.96053" lon="5.12762">
        <ele>515.7</ele>
        <time>2013-03-07T16:59:30Z</time>
      </trkpt>
      <trkpt lat="43.96055" lon="5.12764">
        <ele>515.4</ele>
        <time>2013-03-07T16:59:31Z</time>
      </trkpt>
      <trkpt lat="43.9606" lon="5.12766">
        <ele>515.6</ele>
        <time>2013-03-07T16:59:32Z</time>
      </trkpt>
      <trkpt lat="43.96064" lon="5.12767">
        <ele>516.2</ele>
        <time>2013-03-07T16:59:33Z</time>
      </trkpt>
      <trkpt lat="43.96067" lon="5.1277">
        <ele>516.1</ele>
        <time>2013-03-07T16:59:34Z</time>
      </trkpt>
      <trkpt lat="43.96073" lon="5.12772">
        <ele>515.9</ele>
        <time>2013-03-07T16:59:35Z</time>
      </trkpt>
      <trkpt lat="43.96078" lon="5.12776">
        <ele>515.3</ele>
        <time>2013-03-07T16:59:36Z</time>
      </trkpt>
      <trkpt lat="43.96081" lon="5.12778">
        <ele>515.2</ele>
        <time>2013-03-07T16:59:37Z</time>
      </trkpt>
      <trkpt lat="43.96084" lon="5.12781">
        <ele>515.3</ele>
        <time>2013-03-07T16:59:38Z</time>
      </trkpt>
      <trkpt lat="43.96087" lon="5.12783">
        <ele>515.6</ele>
        <time>2013-03-07T16:59:39Z</time>
      </trkpt>
      <trkpt lat="43.9609" lon="5.12785">
        <ele>515.6</ele>
        <time>2013-03-07T16:59:40Z</time>
      </trkpt>
      <trkpt lat="43.96092" lon="5.12785">
        <ele>515.8</ele>
        <time>2013-03-07T16:59:41Z</time>
      </trkpt>
      <trkpt lat="43.96096" lon="5.12787">
        <ele>515.7</ele>
        <time>2013-03-07T16:59:42Z</time>
      </trkpt>
      <trkpt lat="43.96099" lon="5.1279">
        <ele>515.8</ele>
        <time>2013-03-07T16:59:43Z</time>
      </trkpt>
      <trkpt lat="43.96101" lon="5.12792">
        <ele>515.9</ele>
        <time>2013-03-07T16:59:44Z</time>
      </trkpt>
      <trkpt lat="43.96103" lon="5.12794">
        <ele>515.8</ele>
        <time>2013-03-07T16:59:45Z</time>
      </trkpt>
      <trkpt lat="43.96107" lon="5.12797">
        <ele>516</ele>
        <time>2013-03-07T16:59:46Z</time>
      </trkpt>
      <trkpt lat="43.9611" lon="5.12799">
        <ele>516.3</ele>
        <time>2013-03-07T16:59:47Z</time>
      </trkpt>
      <trkpt lat="43.96111" lon="5.128">
        <ele>516.2</ele>
        <time>2013-03-07T16:59:48Z</time>
      </trkpt>
      <trkpt lat="43.96115" lon="5.12803">
        <ele>515.9</ele>
        <time>2013-03-07T16:59:49Z</time>
      </trkpt>
      <trkpt lat="43.96119" lon="5.12805">
        <ele>516.3</ele>
        <time>2013-03-07T16:59:50Z</time>
      </trkpt>
      <trkpt lat="43.96122" lon="5.12805">
        <ele>516.2</ele>
        <time>2013-03-07T16:59:51Z</time>
      </trkpt>
      <trkpt lat="43.96127" lon="5.12807">
        <ele>516.3</ele>
        <time>2013-03-07T16:59:52Z</time>
      </trkpt>
      <trkpt lat="43.9613" lon="5.12809">
        <ele>516.6</ele>
        <time>2013-03-07T16:59:53Z</time>
      </trkpt>
      <trkpt lat="43.96134" lon="5.12812">
        <ele>516.7</ele>
        <time>2013-03-07T16:59:54Z</time>
      </trkpt>
      <trkpt lat="43.96139" lon="5.12817">
        <ele>516.5</ele>
        <time>2013-03-07T16:59:55Z</time>
      </trkpt>
      <trkpt lat="43.96144" lon="5.12818">
        <ele>516.3</ele>
        <time>2013-03-07T16:59:56Z</time>
      </trkpt>
      <trkpt lat="43.96148" lon="5.1282">
        <ele>516.1</ele>
        <time>2013-03-07T16:59:57Z</time>
      </trkpt>
      <trkpt lat="43.96153" lon="5.12824">
        <ele>515.9</ele>
        <time>2013-03-07T16:59:58Z</time>
      </trkpt>
      <trkpt lat="43.96157" lon="5.12825">
        <ele>515.6</ele>
        <time>2013-03-07T16:59:59Z</time>
      </trkpt>
      <trkpt lat="43.96162" lon="5.12828">
        <ele>515.3</ele>
        <time>2013-03-07T17:00:00Z</time>
      </trkpt>
      <trkpt lat="43.96165" lon="5.1283">
        <ele>515.5</ele>
        <time>2013-03-07T17:00:01Z</time>
      </trkpt>
      <trkpt lat="43.9617" lon="5.12834">
        <ele>515</ele>
        <time>2013-03-07T17:00:02Z</time>
      </trkpt>
      <trkpt lat="43.96175" lon="5.12838">
        <ele>513.8</ele>
        <time>2013-03-07T17:00:03Z</time>
      </trkpt>
      <trkpt lat="43.9618" lon="5.12842">
        <ele>513.4</ele>
        <time>2013-03-07T17:00:04Z</time>
      </trkpt>
      <trkpt lat="43.96185" lon="5.12845">
        <ele>513.4</ele>
        <time>2013-03-07T17:00:05Z</time>
      </trkpt>
      <trkpt lat="43.9619" lon="5.12848">
        <ele>512.9</ele>
        <time>2013-03-07T17:00:06Z</time>
      </trkpt>
      <trkpt lat="43.96202" lon="5.12854">
        <ele>512.9</ele>
        <time>2013-03-07T17:00:08Z</time>
      </trkpt>
      <trkpt lat="43.96208" lon="5.12858">
        <ele>512.7</ele>
        <time>2013-03-07T17:00:09Z</time>
      </trkpt>
      <trkpt lat="43.96215" lon="5.1286">
        <ele>512.5</ele>
        <time>2013-03-07T17:00:10Z</time>
      </trkpt>
      <trkpt lat="43.96221" lon="5.12862">
        <ele>512.5</ele>
        <time>2013-03-07T17:00:11Z</time>
      </trkpt>
      <trkpt lat="43.96226" lon="5.12867">
        <ele>512.6</ele>
        <time>2013-03-07T17:00:12Z</time>
      </trkpt>
      <trkpt lat="43.96232" lon="5.1287">
        <ele>512.8</ele>
        <time>2013-03-07T17:00:13Z</time>
      </trkpt>
      <trkpt lat="43.96238" lon="5.12873">
        <ele>512.7</ele>
        <time>2013-03-07T17:00:14Z</time>
      </trkpt>
      <trkpt lat="43.96245" lon="5.12874">
        <ele>512.6</ele>
        <time>2013-03-07T17:00:15Z</time>
      </trkpt>
      <trkpt lat="43.96251" lon="5.12877">
        <ele>512.7</ele>
        <time>2013-03-07T17:00:16Z</time>
      </trkpt>
      <trkpt lat="43.96259" lon="5.12882">
        <ele>512.7</ele>
        <time>2013-03-07T17:00:17Z</time>
      </trkpt>
      <trkpt lat="43.96266" lon="5.12883">
        <ele>511.7</ele>
        <time>2013-03-07T17:00:18Z</time>
      </trkpt>
      <trkpt lat="43.96274" lon="5.12886">
        <ele>511.7</ele>
        <time>2013-03-07T17:00:19Z</time>
      </trkpt>
      <trkpt lat="43.96279" lon="5.12891">
        <ele>511.9</ele>
        <time>2013-03-07T17:00:20Z</time>
      </trkpt>
      <trkpt lat="43.96285" lon="5.12895">
        <ele>511.8</ele>
        <time>2013-03-07T17:00:21Z</time>
      </trkpt>
      <trkpt lat="43.96291" lon="5.12895">
        <ele>512</ele>
        <time>2013-03-07T17:00:22Z</time>
      </trkpt>
      <trkpt lat="43.96296" lon="5.129">
        <ele>511.5</ele>
        <time>2013-03-07T17:00:23Z</time>
      </trkpt>
      <trkpt lat="43.963" lon="5.12906">
        <ele>511</ele>
        <time>2013-03-07T17:00:24Z</time>
      </trkpt>
      <trkpt lat="43.96304" lon="5.12909">
        <ele>510.4</ele>
        <time>2013-03-07T17:00:25Z</time>
      </trkpt>
      <trkpt lat="43.96308" lon="5.12912">
        <ele>510.2</ele>
        <time>2013-03-07T17:00:26Z</time>
      </trkpt>
      <trkpt lat="43.96312" lon="5.12916">
        <ele>509.9</ele>
        <time>2013-03-07T17:00:27Z</time>
      </trkpt>
      <trkpt lat="43.96317" lon="5.12919">
        <ele>509.7</ele>
        <time>2013-03-07T17:00:28Z</time>
      </trkpt>
      <trkpt lat="43.96321" lon="5.12922">
        <ele>509.3</ele>
        <time>2013-03-07T17:00:29Z</time>
      </trkpt>
      <trkpt lat="43.96326" lon="5.12923">
        <ele>508.4</ele>
        <time>2013-03-07T17:00:30Z</time>
      </trkpt>
      <trkpt lat="43.96332" lon="5.12926">
        <ele>508.2</ele>
        <time>2013-03-07T17:00:31Z</time>
      </trkpt>
      <trkpt lat="43.96335" lon="5.12929">
        <ele>508.1</ele>
        <time>2013-03-07T17:00:32Z</time>
      </trkpt>
      <trkpt lat="43.9634" lon="5.12931">
        <ele>507.8</ele>
        <time>2013-03-07T17:00:33Z</time>
      </trkpt>
      <trkpt lat="43.96344" lon="5.12931">
        <ele>507.3</ele>
        <time>2013-03-07T17:00:34Z</time>
      </trkpt>
      <trkpt lat="43.96348" lon="5.12933">
        <ele>507.1</ele>
        <time>2013-03-07T17:00:35Z</time>
      </trkpt>
      <trkpt lat="43.96352" lon="5.12934">
        <ele>506.7</ele>
        <time>2013-03-07T17:00:36Z</time>
      </trkpt>
      <trkpt lat="43.96357" lon="5.12936">
        <ele>506.7</ele>
        <time>2013-03-07T17:00:37Z</time>
      </trkpt>
      <trkpt lat="43.96362" lon="5.12937">
        <ele>506.3</ele>
        <time>2013-03-07T17:00:38Z</time>
      </trkpt>
      <trkpt lat="43.96365" lon="5.12935">
        <ele>501.9</ele>
        <time>2013-03-07T17:00:39Z</time>
      </trkpt>
      <trkpt lat="43.96368" lon="5.12939">
        <ele>500</ele>
        <time>2013-03-07T17:00:40Z</time>
      </trkpt>
      <trkpt lat="43.96371" lon="5.12944">
        <ele>499</ele>
        <time>2013-03-07T17:00:41Z</time>
      </trkpt>
      <trkpt lat="43.96377" lon="5.1295">
        <ele>499.9</ele>
        <time>2013-03-07T17:00:42Z</time>
      </trkpt>
      <trkpt lat="43.96381" lon="5.12951">
        <ele>499.1</ele>
        <time>2013-03-07T17:00:43Z</time>
      </trkpt>
      <trkpt lat="43.96386" lon="5.12952">
        <ele>498.7</ele>
        <time>2013-03-07T17:00:44Z</time>
      </trkpt>
      <trkpt lat="43.9639" lon="5.12952">
        <ele>498.4</ele>
        <time>2013-03-07T17:00:45Z</time>
      </trkpt>
      <trkpt lat="43.96395" lon="5.12953">
        <ele>497.6</ele>
        <time>2013-03-07T17:00:46Z</time>
      </trkpt>
      <trkpt lat="43.964" lon="5.12953">
        <ele>497.1</ele>
        <time>2013-03-07T17:00:47Z</time>
      </trkpt>
      <trkpt lat="43.96405" lon="5.12952">
        <ele>494.8</ele>
        <time>2013-03-07T17:00:48Z</time>
      </trkpt>
      <trkpt lat="43.9641" lon="5.12951">
        <ele>493.9</ele>
        <time>2013-03-07T17:00:49Z</time>
      </trkpt>
      <trkpt lat="43.96415" lon="5.12948">
        <ele>492.6</ele>
        <time>2013-03-07T17:00:50Z</time>
      </trkpt>
      <trkpt lat="43.9642" lon="5.12946">
        <ele>492.2</ele>
        <time>2013-03-07T17:00:51Z</time>
      </trkpt>
      <trkpt lat="43.96425" lon="5.12946">
        <ele>492.1</ele>
        <time>2013-03-07T17:00:52Z</time>
      </trkpt>
      <trkpt lat="43.9643" lon="5.12946">
        <ele>492.4</ele>
        <time>2013-03-07T17:00:53Z</time>
      </trkpt>
      <trkpt lat="43.96439" lon="5.12944">
        <ele>492.3</ele>
        <time>2013-03-07T17:00:54Z</time>
      </trkpt>
      <trkpt lat="43.96438" lon="5.1295">
        <ele>490.6</ele>
        <time>2013-03-07T17:00:55Z</time>
      </trkpt>
      <trkpt lat="43.96435" lon="5.12953">
        <ele>490.3</ele>
        <time>2013-03-07T17:00:56Z</time>
      </trkpt>
      <trkpt lat="43.96432" lon="5.12959">
        <ele>490.3</ele>
        <time>2013-03-07T17:00:57Z</time>
      </trkpt>
      <trkpt lat="43.96427" lon="5.12966">
        <ele>489.6</ele>
        <time>2013-03-07T17:00:58Z</time>
      </trkpt>
      <trkpt lat="43.96422" lon="5.12967">
        <ele>490</ele>
        <time>2013-03-07T17:00:59Z</time>
      </trkpt>
      <trkpt lat="43.96412" lon="5.12965">
        <ele>489.4</ele>
        <time>2013-03-07T17:01:00Z</time>
      </trkpt>
      <trkpt lat="43.96409" lon="5.12967">
        <ele>488.8</ele>
        <time>2013-03-07T17:01:01Z</time>
      </trkpt>
      <trkpt lat="43.96405" lon="5.12969">
        <ele>489.2</ele>
        <time>2013-03-07T17:01:02Z</time>
      </trkpt>
      <trkpt lat="43.96409" lon="5.12973">
        <ele>489.7</ele>
        <time>2013-03-07T17:01:03Z</time>
      </trkpt>
      <trkpt lat="43.96418" lon="5.12978">
        <ele>489.6</ele>
        <time>2013-03-07T17:01:04Z</time>
      </trkpt>
      <trkpt lat="43.96424" lon="5.12978">
        <ele>489.7</ele>
        <time>2013-03-07T17:01:05Z</time>
      </trkpt>
      <trkpt lat="43.96427" lon="5.12975">
        <ele>489.2</ele>
        <time>2013-03-07T17:01:07Z</time>
      </trkpt>
      <trkpt lat="43.96428" lon="5.12975">
        <ele>489</ele>
        <time>2013-03-07T17:01:08Z</time>
      </trkpt>
      <trkpt lat="43.9643" lon="5.12971">
        <ele>488.2</ele>
        <time>2013-03-07T17:01:11Z</time>
      </trkpt>
      <trkpt lat="43.96431" lon="5.1297">
        <ele>488.4</ele>
        <time>2013-03-07T17:01:12Z</time>
      </trkpt>
      <trkpt lat="43.96437" lon="5.12967">
        <ele>487.2</ele>
        <time>2013-03-07T17:01:13Z</time>
      </trkpt>
      <trkpt lat="43.9644" lon="5.12964">
        <ele>487.2</ele>
        <time>2013-03-07T17:01:14Z</time>
      </trkpt>
      <trkpt lat="43.96442" lon="5.12959">
        <ele>486.3</ele>
        <time>2013-03-07T17:01:15Z</time>
      </trkpt>
      <trkpt lat="43.96444" lon="5.12951">
        <ele>485.4</ele>
        <time>2013-03-07T17:01:16Z</time>
      </trkpt>
      <trkpt lat="43.96447" lon="5.12946">
        <ele>484.2</ele>
        <time>2013-03-07T17:01:17Z</time>
      </trkpt>
      <trkpt lat="43.96447" lon="5.1294">
        <ele>483.1</ele>
        <time>2013-03-07T17:01:18Z</time>
      </trkpt>
      <trkpt lat="43.9645" lon="5.12936">
        <ele>481.9</ele>
        <time>2013-03-07T17:01:19Z</time>
      </trkpt>
      <trkpt lat="43.96451" lon="5.12931">
        <ele>480.6</ele>
        <time>2013-03-07T17:01:20Z</time>
      </trkpt>
      <trkpt lat="43.96454" lon="5.12927">
        <ele>480.6</ele>
        <time>2013-03-07T17:01:21Z</time>
      </trkpt>
      <trkpt lat="43.96452" lon="5.12921">
        <ele>480.3</ele>
        <time>2013-03-07T17:01:22Z</time>
      </trkpt>
      <trkpt lat="43.96454" lon="5.12917">
        <ele>480.3</ele>
        <time>2013-03-07T17:01:23Z</time>
      </trkpt>
      <trkpt lat="43.96455" lon="5.12914">
        <ele>480.2</ele>
        <time>2013-03-07T17:01:24Z</time>
      </trkpt>
      <trkpt lat="43.96456" lon="5.12911">
        <ele>479.6</ele>
        <time>2013-03-07T17:01:25Z</time>
      </trkpt>
      <trkpt lat="43.96457" lon="5.12907">
        <ele>479</ele>
        <time>2013-03-07T17:01:26Z</time>
      </trkpt>
      <trkpt lat="43.96458" lon="5.12903">
        <ele>478.9</ele>
        <time>2013-03-07T17:01:27Z</time>
      </trkpt>
      <trkpt lat="43.96459" lon="5.12899">
        <ele>478.8</ele>
        <time>2013-03-07T17:01:28Z</time>
      </trkpt>
      <trkpt lat="43.96461" lon="5.12896">
        <ele>479.6</ele>
        <time>2013-03-07T17:01:29Z</time>
      </trkpt>
      <trkpt lat="43.96463" lon="5.12892">
        <ele>480</ele>
        <time>2013-03-07T17:01:30Z</time>
      </trkpt>
      <trkpt lat="43.96465" lon="5.12886">
        <ele>480.4</ele>
        <time>2013-03-07T17:01:31Z</time>
      </trkpt>
      <trkpt lat="43.96464" lon="5.12882">
        <ele>480</ele>
        <time>2013-03-07T17:01:32Z</time>
      </trkpt>
      <trkpt lat="43.96463" lon="5.12875">
        <ele>479.2</ele>
        <time>2013-03-07T17:01:33Z</time>
      </trkpt>
      <trkpt lat="43.96464" lon="5.1287">
        <ele>479.5</ele>
        <time>2013-03-07T17:01:34Z</time>
      </trkpt>
      <trkpt lat="43.96464" lon="5.12865">
        <ele>479.4</ele>
        <time>2013-03-07T17:01:35Z</time>
      </trkpt>
      <trkpt lat="43.96464" lon="5.12861">
        <ele>479.7</ele>
        <time>2013-03-07T17:01:36Z</time>
      </trkpt>
      <trkpt lat="43.96463" lon="5.12856">
        <ele>479.5</ele>
        <time>2013-03-07T17:01:37Z</time>
      </trkpt>
      <trkpt lat="43.96462" lon="5.12851">
        <ele>479.4</ele>
        <time>2013-03-07T17:01:38Z</time>
      </trkpt>
      <trkpt lat="43.96464" lon="5.12848">
        <ele>479.1</ele>
        <time>2013-03-07T17:01:39Z</time>
      </trkpt>
      <trkpt lat="43.96463" lon="5.12842">
        <ele>479.7</ele>
        <time>2013-03-07T17:01:40Z</time>
      </trkpt>
      <trkpt lat="43.96463" lon="5.1284">
        <ele>479.8</ele>
        <time>2013-03-07T17:01:41Z</time>
      </trkpt>
      <trkpt lat="43.96461" lon="5.12834">
        <ele>479.5</ele>
        <time>2013-03-07T17:01:42Z</time>
      </trkpt>
      <trkpt lat="43.96459" lon="5.12836">
        <ele>479.5</ele>
        <time>2013-03-07T17:01:43Z</time>
      </trkpt>
      <trkpt lat="43.96456" lon="5.12839">
        <ele>477.8</ele>
        <time>2013-03-07T17:01:44Z</time>
      </trkpt>
      <trkpt lat="43.96453" lon="5.12841">
        <ele>477.2</ele>
        <time>2013-03-07T17:01:45Z</time>
      </trkpt>
      <trkpt lat="43.96448" lon="5.12839">
        <ele>476.3</ele>
        <time>2013-03-07T17:01:46Z</time>
      </trkpt>
      <trkpt lat="43.96447" lon="5.12837">
        <ele>474.8</ele>
        <time>2013-03-07T17:01:47Z</time>
      </trkpt>
      <trkpt lat="43.96445" lon="5.12835">
        <ele>474.8</ele>
        <time>2013-03-07T17:01:48Z</time>
      </trkpt>
      <trkpt lat="43.96442" lon="5.12832">
        <ele>474.7</ele>
        <time>2013-03-07T17:01:49Z</time>
      </trkpt>
      <trkpt lat="43.96439" lon="5.1283">
        <ele>474.8</ele>
        <time>2013-03-07T17:01:50Z</time>
      </trkpt>
      <trkpt lat="43.96437" lon="5.12828">
        <ele>476.1</ele>
        <time>2013-03-07T17:01:51Z</time>
      </trkpt>
      <trkpt lat="43.96434" lon="5.12825">
        <ele>476.5</ele>
        <time>2013-03-07T17:01:52Z</time>
      </trkpt>
      <trkpt lat="43.96429" lon="5.12819">
        <ele>477</ele>
        <time>2013-03-07T17:01:53Z</time>
      </trkpt>
      <trkpt lat="43.96429" lon="5.12816">
        <ele>477.4</ele>
        <time>2013-03-07T17:01:54Z</time>
      </trkpt>
      <trkpt lat="43.96425" lon="5.12814">
        <ele>477.1</ele>
        <time>2013-03-07T17:01:55Z</time>
      </trkpt>
      <trkpt lat="43.96423" lon="5.12811">
        <ele>474.4</ele>
        <time>2013-03-07T17:01:58Z</time>
      </trkpt>
      <trkpt lat="43.96421" lon="5.1281">
        <ele>474.1</ele>
        <time>2013-03-07T17:01:59Z</time>
      </trkpt>
      <trkpt lat="43.96418" lon="5.12807">
        <ele>474.5</ele>
        <time>2013-03-07T17:02:01Z</time>
      </trkpt>
      <trkpt lat="43.96416" lon="5.12803">
        <ele>475</ele>
        <time>2013-03-07T17:02:02Z</time>
      </trkpt>
      <trkpt lat="43.96412" lon="5.12804">
        <ele>474.6</ele>
        <time>2013-03-07T17:02:03Z</time>
      </trkpt>
      <trkpt lat="43.96407" lon="5.128">
        <ele>474</ele>
        <time>2013-03-07T17:02:04Z</time>
      </trkpt>
      <trkpt lat="43.96407" lon="5.12795">
        <ele>472.8</ele>
        <time>2013-03-07T17:02:09Z</time>
      </trkpt>
      <trkpt lat="43.96405" lon="5.12793">
        <ele>472.3</ele>
        <time>2013-03-07T17:02:10Z</time>
      </trkpt>
      <trkpt lat="43.96402" lon="5.1279">
        <ele>472.9</ele>
        <time>2013-03-07T17:02:12Z</time>
      </trkpt>
      <trkpt lat="43.964" lon="5.12789">
        <ele>473.2</ele>
        <time>2013-03-07T17:02:13Z</time>
      </trkpt>
      <trkpt lat="43.96396" lon="5.12789">
        <ele>472</ele>
        <time>2013-03-07T17:02:14Z</time>
      </trkpt>
      <trkpt lat="43.96394" lon="5.12787">
        <ele>472</ele>
        <time>2013-03-07T17:02:15Z</time>
      </trkpt>
      <trkpt lat="43.96392" lon="5.12784">
        <ele>471.6</ele>
        <time>2013-03-07T17:02:16Z</time>
      </trkpt>
      <trkpt lat="43.96389" lon="5.12782">
        <ele>471.4</ele>
        <time>2013-03-07T17:02:17Z</time>
      </trkpt>
      <trkpt lat="43.96388" lon="5.1278">
        <ele>471.9</ele>
        <time>2013-03-07T17:02:18Z</time>
      </trkpt>
      <trkpt lat="43.96383" lon="5.12778">
        <ele>470.9</ele>
        <time>2013-03-07T17:02:19Z</time>
      </trkpt>
      <trkpt lat="43.96378" lon="5.12777">
        <ele>470.1</ele>
        <time>2013-03-07T17:02:20Z</time>
      </trkpt>
      <trkpt lat="43.96375" lon="5.12777">
        <ele>469.3</ele>
        <time>2013-03-07T17:02:21Z</time>
      </trkpt>
      <trkpt lat="43.96371" lon="5.12773">
        <ele>469.7</ele>
        <time>2013-03-07T17:02:22Z</time>
      </trkpt>
      <trkpt lat="43.96365" lon="5.12774">
        <ele>468.8</ele>
        <time>2013-03-07T17:02:23Z</time>
      </trkpt>
      <trkpt lat="43.96361" lon="5.12771">
        <ele>470.3</ele>
        <time>2013-03-07T17:02:24Z</time>
      </trkpt>
      <trkpt lat="43.96359" lon="5.1277">
        <ele>469.2</ele>
        <time>2013-03-07T17:02:25Z</time>
      </trkpt>
      <trkpt lat="43.96355" lon="5.12767">
        <ele>469.3</ele>
        <time>2013-03-07T17:02:26Z</time>
      </trkpt>
      <trkpt lat="43.96352" lon="5.12766">
        <ele>468.9</ele>
        <time>2013-03-07T17:02:27Z</time>
      </trkpt>
      <trkpt lat="43.96348" lon="5.12764">
        <ele>467.7</ele>
        <time>2013-03-07T17:02:28Z</time>
      </trkpt>
      <trkpt lat="43.96345" lon="5.12763">
        <ele>467.5</ele>
        <time>2013-03-07T17:02:29Z</time>
      </trkpt>
      <trkpt lat="43.96342" lon="5.12763">
        <ele>467.2</ele>
        <time>2013-03-07T17:02:30Z</time>
      </trkpt>
      <trkpt lat="43.96338" lon="5.12764">
        <ele>467.8</ele>
        <time>2013-03-07T17:02:32Z</time>
      </trkpt>
      <trkpt lat="43.96335" lon="5.12764">
        <ele>467.8</ele>
        <time>2013-03-07T17:02:33Z</time>
      </trkpt>
      <trkpt lat="43.96331" lon="5.12763">
        <ele>468.4</ele>
        <time>2013-03-07T17:02:34Z</time>
      </trkpt>
      <trkpt lat="43.96328" lon="5.12761">
        <ele>468.9</ele>
        <time>2013-03-07T17:02:35Z</time>
      </trkpt>
      <trkpt lat="43.96325" lon="5.1276">
        <ele>468.9</ele>
        <time>2013-03-07T17:02:36Z</time>
      </trkpt>
      <trkpt lat="43.96323" lon="5.12756">
        <ele>468.6</ele>
        <time>2013-03-07T17:02:37Z</time>
      </trkpt>
      <trkpt lat="43.96318" lon="5.12755">
        <ele>468.6</ele>
        <time>2013-03-07T17:02:38Z</time>
      </trkpt>
      <trkpt lat="43.96316" lon="5.12754">
        <ele>468.9</ele>
        <time>2013-03-07T17:02:39Z</time>
      </trkpt>
      <trkpt lat="43.96311" lon="5.12754">
        <ele>469</ele>
        <time>2013-03-07T17:02:41Z</time>
      </trkpt>
      <trkpt lat="43.96308" lon="5.12755">
        <ele>468.5</ele>
        <time>2013-03-07T17:02:42Z</time>
      </trkpt>
      <trkpt lat="43.96305" lon="5.12754">
        <ele>468.3</ele>
        <time>2013-03-07T17:02:44Z</time>
      </trkpt>
      <trkpt lat="43.96302" lon="5.12753">
        <ele>468.2</ele>
        <time>2013-03-07T17:02:45Z</time>
      </trkpt>
      <trkpt lat="43.963" lon="5.12753">
        <ele>468</ele>
        <time>2013-03-07T17:02:46Z</time>
      </trkpt>
      <trkpt lat="43.96297" lon="5.12753">
        <ele>468.4</ele>
        <time>2013-03-07T17:02:47Z</time>
      </trkpt>
      <trkpt lat="43.96293" lon="5.12753">
        <ele>468.7</ele>
        <time>2013-03-07T17:02:49Z</time>
      </trkpt>
      <trkpt lat="43.96291" lon="5.12756">
        <ele>468.7</ele>
        <time>2013-03-07T17:02:50Z</time>
      </trkpt>
      <trkpt lat="43.96287" lon="5.12754">
        <ele>470.1</ele>
        <time>2013-03-07T17:02:52Z</time>
      </trkpt>
      <trkpt lat="43.96285" lon="5.12754">
        <ele>470.6</ele>
        <time>2013-03-07T17:02:53Z</time>
      </trkpt>
      <trkpt lat="43.96282" lon="5.12751">
        <ele>469.9</ele>
        <time>2013-03-07T17:02:54Z</time>
      </trkpt>
      <trkpt lat="43.9628" lon="5.1275">
        <ele>469.3</ele>
        <time>2013-03-07T17:02:55Z</time>
      </trkpt>
      <trkpt lat="43.96278" lon="5.12749">
        <ele>468.8</ele>
        <time>2013-03-07T17:02:56Z</time>
      </trkpt>
      <trkpt lat="43.96275" lon="5.12747">
        <ele>469.3</ele>
        <time>2013-03-07T17:02:57Z</time>
      </trkpt>
      <trkpt lat="43.96273" lon="5.12746">
        <ele>468.8</ele>
        <time>2013-03-07T17:02:58Z</time>
      </trkpt>
      <trkpt lat="43.96268" lon="5.12741">
        <ele>470.2</ele>
        <time>2013-03-07T17:02:59Z</time>
      </trkpt>
      <trkpt lat="43.96266" lon="5.1274">
        <ele>469.2</ele>
        <time>2013-03-07T17:03:00Z</time>
      </trkpt>
      <trkpt lat="43.96263" lon="5.12739">
        <ele>469.3</ele>
        <time>2013-03-07T17:03:01Z</time>
      </trkpt>
      <trkpt lat="43.9626" lon="5.12738">
        <ele>469.8</ele>
        <time>2013-03-07T17:03:02Z</time>
      </trkpt>
      <trkpt lat="43.96258" lon="5.12737">
        <ele>469.1</ele>
        <time>2013-03-07T17:03:03Z</time>
      </trkpt>
      <trkpt lat="43.96255" lon="5.12736">
        <ele>469.5</ele>
        <time>2013-03-07T17:03:04Z</time>
      </trkpt>
      <trkpt lat="43.96253" lon="5.12736">
        <ele>470</ele>
        <time>2013-03-07T17:03:05Z</time>
      </trkpt>
      <trkpt lat="43.9625" lon="5.12735">
        <ele>469.9</ele>
        <time>2013-03-07T17:03:06Z</time>
      </trkpt>
      <trkpt lat="43.96248" lon="5.12734">
        <ele>469.8</ele>
        <time>2013-03-07T17:03:07Z</time>
      </trkpt>
      <trkpt lat="43.96246" lon="5.12733">
        <ele>469.8</ele>
        <time>2013-03-07T17:03:08Z</time>
      </trkpt>
      <trkpt lat="43.96244" lon="5.12732">
        <ele>469.9</ele>
        <time>2013-03-07T17:03:09Z</time>
      </trkpt>
      <trkpt lat="43.96239" lon="5.12732">
        <ele>469.6</ele>
        <time>2013-03-07T17:03:11Z</time>
      </trkpt>
      <trkpt lat="43.96237" lon="5.12731">
        <ele>469.2</ele>
        <time>2013-03-07T17:03:12Z</time>
      </trkpt>
      <trkpt lat="43.96234" lon="5.12731">
        <ele>469.4</ele>
        <time>2013-03-07T17:03:13Z</time>
      </trkpt>
      <trkpt lat="43.96231" lon="5.12729">
        <ele>469.6</ele>
        <time>2013-03-07T17:03:14Z</time>
      </trkpt>
      <trkpt lat="43.9623" lon="5.12728">
        <ele>469.4</ele>
        <time>2013-03-07T17:03:15Z</time>
      </trkpt>
      <trkpt lat="43.96227" lon="5.12724">
        <ele>469</ele>
        <time>2013-03-07T17:03:16Z</time>
      </trkpt>
      <trkpt lat="43.96223" lon="5.1272">
        <ele>468.6</ele>
        <time>2013-03-07T17:03:18Z</time>
      </trkpt>
      <trkpt lat="43.96222" lon="5.12718">
        <ele>468.6</ele>
        <time>2013-03-07T17:03:19Z</time>
      </trkpt>
      <trkpt lat="43.9622" lon="5.12714">
        <ele>468.9</ele>
        <time>2013-03-07T17:03:20Z</time>
      </trkpt>
      <trkpt lat="43.96217" lon="5.1271">
        <ele>468.9</ele>
        <time>2013-03-07T17:03:21Z</time>
      </trkpt>
      <trkpt lat="43.96215" lon="5.12707">
        <ele>468.7</ele>
        <time>2013-03-07T17:03:22Z</time>
      </trkpt>
      <trkpt lat="43.96214" lon="5.12703">
        <ele>468.8</ele>
        <time>2013-03-07T17:03:23Z</time>
      </trkpt>
      <trkpt lat="43.96215" lon="5.127">
        <ele>469.3</ele>
        <time>2013-03-07T17:03:24Z</time>
      </trkpt>
      <trkpt lat="43.96218" lon="5.12698">
        <ele>469.7</ele>
        <time>2013-03-07T17:03:25Z</time>
      </trkpt>
      <trkpt lat="43.96221" lon="5.12697">
        <ele>470.5</ele>
        <time>2013-03-07T17:03:27Z</time>
      </trkpt>
      <trkpt lat="43.96224" lon="5.12694">
        <ele>470.3</ele>
        <time>2013-03-07T17:03:28Z</time>
      </trkpt>
      <trkpt lat="43.96226" lon="5.12689">
        <ele>470</ele>
        <time>2013-03-07T17:03:30Z</time>
      </trkpt>
      <trkpt lat="43.96227" lon="5.12687">
        <ele>470</ele>
        <time>2013-03-07T17:03:31Z</time>
      </trkpt>
      <trkpt lat="43.96231" lon="5.12685">
        <ele>469.3</ele>
        <time>2013-03-07T17:03:33Z</time>
      </trkpt>
      <trkpt lat="43.96233" lon="5.12682">
        <ele>469.4</ele>
        <time>2013-03-07T17:03:34Z</time>
      </trkpt>
      <trkpt lat="43.96236" lon="5.12679">
        <ele>468.7</ele>
        <time>2013-03-07T17:03:35Z</time>
      </trkpt>
      <trkpt lat="43.96237" lon="5.12676">
        <ele>468.4</ele>
        <time>2013-03-07T17:03:36Z</time>
      </trkpt>
      <trkpt lat="43.96238" lon="5.12673">
        <ele>467.7</ele>
        <time>2013-03-07T17:03:37Z</time>
      </trkpt>
      <trkpt lat="43.96239" lon="5.1267">
        <ele>466.9</ele>
        <time>2013-03-07T17:03:38Z</time>
      </trkpt>
      <trkpt lat="43.9624" lon="5.12663">
        <ele>465.8</ele>
        <time>2013-03-07T17:03:39Z</time>
      </trkpt>
      <trkpt lat="43.96243" lon="5.12661">
        <ele>465.3</ele>
        <time>2013-03-07T17:03:40Z</time>
      </trkpt>
      <trkpt lat="43.96245" lon="5.12659">
        <ele>464.9</ele>
        <time>2013-03-07T17:03:41Z</time>
      </trkpt>
      <trkpt lat="43.96248" lon="5.12659">
        <ele>464.6</ele>
        <time>2013-03-07T17:03:42Z</time>
      </trkpt>
      <trkpt lat="43.9625" lon="5.12657">
        <ele>465.2</ele>
        <time>2013-03-07T17:03:43Z</time>
      </trkpt>
      <trkpt lat="43.96254" lon="5.1266">
        <ele>464.5</ele>
        <time>2013-03-07T17:03:45Z</time>
      </trkpt>
      <trkpt lat="43.96254" lon="5.12661">
        <ele>463.8</ele>
        <time>2013-03-07T17:03:46Z</time>
      </trkpt>
      <trkpt lat="43.96258" lon="5.12665">
        <ele>462.5</ele>
        <time>2013-03-07T17:03:48Z</time>
      </trkpt>
      <trkpt lat="43.9626" lon="5.12667">
        <ele>461.9</ele>
        <time>2013-03-07T17:03:49Z</time>
      </trkpt>
      <trkpt lat="43.96264" lon="5.1267">
        <ele>462.2</ele>
        <time>2013-03-07T17:03:50Z</time>
      </trkpt>
      <trkpt lat="43.96266" lon="5.12671">
        <ele>462.1</ele>
        <time>2013-03-07T17:03:51Z</time>
      </trkpt>
      <trkpt lat="43.96269" lon="5.12673">
        <ele>461.8</ele>
        <time>2013-03-07T17:03:52Z</time>
      </trkpt>
      <trkpt lat="43.96272" lon="5.12675">
        <ele>461.5</ele>
        <time>2013-03-07T17:03:53Z</time>
      </trkpt>
      <trkpt lat="43.96277" lon="5.12677">
        <ele>461.6</ele>
        <time>2013-03-07T17:03:54Z</time>
      </trkpt>
      <trkpt lat="43.9628" lon="5.12678">
        <ele>461.7</ele>
        <time>2013-03-07T17:03:55Z</time>
      </trkpt>
      <trkpt lat="43.96283" lon="5.12677">
        <ele>461</ele>
        <time>2013-03-07T17:03:56Z</time>
      </trkpt>
      <trkpt lat="43.96285" lon="5.12674">
        <ele>460.4</ele>
        <time>2013-03-07T17:03:57Z</time>
      </trkpt>
      <trkpt lat="43.96286" lon="5.12669">
        <ele>459.3</ele>
        <time>2013-03-07T17:03:58Z</time>
      </trkpt>
      <trkpt lat="43.96273" lon="5.1266">
        <ele>455.9</ele>
        <time>2013-03-07T17:03:59Z</time>
      </trkpt>
      <trkpt lat="43.96272" lon="5.12657">
        <ele>454.6</ele>
        <time>2013-03-07T17:04:00Z</time>
      </trkpt>
      <trkpt lat="43.96272" lon="5.12653">
        <ele>453.5</ele>
        <time>2013-03-07T17:04:01Z</time>
      </trkpt>
      <trkpt lat="43.96271" lon="5.12647">
        <ele>453.3</ele>
        <time>2013-03-07T17:04:03Z</time>
      </trkpt>
      <trkpt lat="43.96273" lon="5.12644">
        <ele>453.6</ele>
        <time>2013-03-07T17:04:04Z</time>
      </trkpt>
      <trkpt lat="43.96274" lon="5.1264">
        <ele>453</ele>
        <time>2013-03-07T17:04:05Z</time>
      </trkpt>
      <trkpt lat="43.96276" lon="5.12636">
        <ele>452.6</ele>
        <time>2013-03-07T17:04:06Z</time>
      </trkpt>
      <trkpt lat="43.96278" lon="5.12635">
        <ele>451.6</ele>
        <time>2013-03-07T17:04:08Z</time>
      </trkpt>
      <trkpt lat="43.96279" lon="5.12632">
        <ele>451.9</ele>
        <time>2013-03-07T17:04:09Z</time>
      </trkpt>
      <trkpt lat="43.96281" lon="5.12629">
        <ele>452.2</ele>
        <time>2013-03-07T17:04:10Z</time>
      </trkpt>
      <trkpt lat="43.96283" lon="5.12626">
        <ele>452.6</ele>
        <time>2013-03-07T17:04:11Z</time>
      </trkpt>
      <trkpt lat="43.96287" lon="5.12623">
        <ele>452.3</ele>
        <time>2013-03-07T17:04:13Z</time>
      </trkpt>
      <trkpt lat="43.9629" lon="5.1262">
        <ele>452.1</ele>
        <time>2013-03-07T17:04:14Z</time>
      </trkpt>
      <trkpt lat="43.96292" lon="5.12615">
        <ele>451.8</ele>
        <time>2013-03-07T17:04:15Z</time>
      </trkpt>
      <trkpt lat="43.96294" lon="5.12612">
        <ele>452.9</ele>
        <time>2013-03-07T17:04:16Z</time>
      </trkpt>
      <trkpt lat="43.96294" lon="5.12609">
        <ele>452.4</ele>
        <time>2013-03-07T17:04:17Z</time>
      </trkpt>
      <trkpt lat="43.96295" lon="5.12606">
        <ele>451.2</ele>
        <time>2013-03-07T17:04:18Z</time>
      </trkpt>
      <trkpt lat="43.96296" lon="5.12602">
        <ele>451</ele>
        <time>2013-03-07T17:04:19Z</time>
      </trkpt>
      <trkpt lat="43.96299" lon="5.12601">
        <ele>449.8</ele>
        <time>2013-03-07T17:04:20Z</time>
      </trkpt>
      <trkpt lat="43.96302" lon="5.12598">
        <ele>449</ele>
        <time>2013-03-07T17:04:21Z</time>
      </trkpt>
      <trkpt lat="43.96304" lon="5.12597">
        <ele>448.6</ele>
        <time>2013-03-07T17:04:22Z</time>
      </trkpt>
      <trkpt lat="43.96306" lon="5.12595">
        <ele>448.1</ele>
        <time>2013-03-07T17:04:23Z</time>
      </trkpt>
      <trkpt lat="43.96308" lon="5.12591">
        <ele>447.5</ele>
        <time>2013-03-07T17:04:24Z</time>
      </trkpt>
      <trkpt lat="43.96311" lon="5.12588">
        <ele>447.5</ele>
        <time>2013-03-07T17:04:25Z</time>
      </trkpt>
      <trkpt lat="43.96314" lon="5.12585">
        <ele>447.4</ele>
        <time>2013-03-07T17:04:26Z</time>
      </trkpt>
      <trkpt lat="43.96317" lon="5.12583">
        <ele>447.1</ele>
        <time>2013-03-07T17:04:27Z</time>
      </trkpt>
      <trkpt lat="43.9632" lon="5.12582">
        <ele>446.7</ele>
        <time>2013-03-07T17:04:28Z</time>
      </trkpt>
      <trkpt lat="43.96324" lon="5.12579">
        <ele>446.4</ele>
        <time>2013-03-07T17:04:29Z</time>
      </trkpt>
      <trkpt lat="43.96326" lon="5.12576">
        <ele>446.9</ele>
        <time>2013-03-07T17:04:30Z</time>
      </trkpt>
      <trkpt lat="43.9633" lon="5.12575">
        <ele>447.2</ele>
        <time>2013-03-07T17:04:31Z</time>
      </trkpt>
      <trkpt lat="43.96334" lon="5.12574">
        <ele>447.3</ele>
        <time>2013-03-07T17:04:32Z</time>
      </trkpt>
      <trkpt lat="43.96337" lon="5.12572">
        <ele>447.6</ele>
        <time>2013-03-07T17:04:33Z</time>
      </trkpt>
      <trkpt lat="43.96343" lon="5.12572">
        <ele>447.5</ele>
        <time>2013-03-07T17:04:34Z</time>
      </trkpt>
      <trkpt lat="43.96346" lon="5.12572">
        <ele>447.3</ele>
        <time>2013-03-07T17:04:35Z</time>
      </trkpt>
      <trkpt lat="43.9635" lon="5.1257">
        <ele>447</ele>
        <time>2013-03-07T17:04:36Z</time>
      </trkpt>
      <trkpt lat="43.96354" lon="5.12568">
        <ele>446.8</ele>
        <time>2013-03-07T17:04:37Z</time>
      </trkpt>
      <trkpt lat="43.96358" lon="5.12566">
        <ele>446.5</ele>
        <time>2013-03-07T17:04:38Z</time>
      </trkpt>
      <trkpt lat="43.96363" lon="5.12565">
        <ele>446.1</ele>
        <time>2013-03-07T17:04:39Z</time>
      </trkpt>
      <trkpt lat="43.96367" lon="5.12565">
        <ele>446.3</ele>
        <time>2013-03-07T17:04:40Z</time>
      </trkpt>
      <trkpt lat="43.96371" lon="5.12565">
        <ele>446.6</ele>
        <time>2013-03-07T17:04:41Z</time>
      </trkpt>
      <trkpt lat="43.96374" lon="5.12566">
        <ele>446</ele>
        <time>2013-03-07T17:04:42Z</time>
      </trkpt>
      <trkpt lat="43.96378" lon="5.12564">
        <ele>441.3</ele>
        <time>2013-03-07T17:04:44Z</time>
      </trkpt>
      <trkpt lat="43.9638" lon="5.1256">
        <ele>439.9</ele>
        <time>2013-03-07T17:04:45Z</time>
      </trkpt>
      <trkpt lat="43.96383" lon="5.12557">
        <ele>439.4</ele>
        <time>2013-03-07T17:04:46Z</time>
      </trkpt>
      <trkpt lat="43.96385" lon="5.12553">
        <ele>437.6</ele>
        <time>2013-03-07T17:04:47Z</time>
      </trkpt>
      <trkpt lat="43.96387" lon="5.12548">
        <ele>436.9</ele>
        <time>2013-03-07T17:04:48Z</time>
      </trkpt>
      <trkpt lat="43.9639" lon="5.12544">
        <ele>436.3</ele>
        <time>2013-03-07T17:04:49Z</time>
      </trkpt>
      <trkpt lat="43.96392" lon="5.12542">
        <ele>435.5</ele>
        <time>2013-03-07T17:04:50Z</time>
      </trkpt>
      <trkpt lat="43.96395" lon="5.12539">
        <ele>435.2</ele>
        <time>2013-03-07T17:04:51Z</time>
      </trkpt>
      <trkpt lat="43.96398" lon="5.12536">
        <ele>434.5</ele>
        <time>2013-03-07T17:04:52Z</time>
      </trkpt>
      <trkpt lat="43.96402" lon="5.12536">
        <ele>434</ele>
        <time>2013-03-07T17:04:53Z</time>
      </trkpt>
      <trkpt lat="43.9641" lon="5.12537">
        <ele>434.9</ele>
        <time>2013-03-07T17:04:54Z</time>
      </trkpt>
      <trkpt lat="43.96414" lon="5.12535">
        <ele>434.9</ele>
        <time>2013-03-07T17:04:55Z</time>
      </trkpt>
      <trkpt lat="43.96418" lon="5.12535">
        <ele>434.8</ele>
        <time>2013-03-07T17:04:56Z</time>
      </trkpt>
      <trkpt lat="43.96422" lon="5.12535">
        <ele>434.8</ele>
        <time>2013-03-07T17:04:57Z</time>
      </trkpt>
      <trkpt lat="43.96426" lon="5.12534">
        <ele>435</ele>
        <time>2013-03-07T17:04:58Z</time>
      </trkpt>
      <trkpt lat="43.96431" lon="5.12534">
        <ele>434.9</ele>
        <time>2013-03-07T17:04:59Z</time>
      </trkpt>
      <trkpt lat="43.96435" lon="5.12533">
        <ele>434.7</ele>
        <time>2013-03-07T17:05:00Z</time>
      </trkpt>
      <trkpt lat="43.96441" lon="5.12533">
        <ele>434.2</ele>
        <time>2013-03-07T17:05:01Z</time>
      </trkpt>
      <trkpt lat="43.96446" lon="5.1253">
        <ele>434.2</ele>
        <time>2013-03-07T17:05:02Z</time>
      </trkpt>
      <trkpt lat="43.96453" lon="5.12527">
        <ele>435.1</ele>
        <time>2013-03-07T17:05:03Z</time>
      </trkpt>
      <trkpt lat="43.96459" lon="5.12526">
        <ele>434.9</ele>
        <time>2013-03-07T17:05:04Z</time>
      </trkpt>
      <trkpt lat="43.96464" lon="5.12524">
        <ele>435</ele>
        <time>2013-03-07T17:05:05Z</time>
      </trkpt>
      <trkpt lat="43.9647" lon="5.12521">
        <ele>435.2</ele>
        <time>2013-03-07T17:05:06Z</time>
      </trkpt>
      <trkpt lat="43.96474" lon="5.12519">
        <ele>435.6</ele>
        <time>2013-03-07T17:05:07Z</time>
      </trkpt>
      <trkpt lat="43.96478" lon="5.12519">
        <ele>436.4</ele>
        <time>2013-03-07T17:05:08Z</time>
      </trkpt>
      <trkpt lat="43.9648" lon="5.12521">
        <ele>436.2</ele>
        <time>2013-03-07T17:05:09Z</time>
      </trkpt>
      <trkpt lat="43.96484" lon="5.12522">
        <ele>436</ele>
        <time>2013-03-07T17:05:10Z</time>
      </trkpt>
      <trkpt lat="43.96486" lon="5.12521">
        <ele>436.5</ele>
        <time>2013-03-07T17:05:11Z</time>
      </trkpt>
      <trkpt lat="43.9649" lon="5.1252">
        <ele>434.3</ele>
        <time>2013-03-07T17:05:13Z</time>
      </trkpt>
      <trkpt lat="43.96492" lon="5.1252">
        <ele>433.6</ele>
        <time>2013-03-07T17:05:14Z</time>
      </trkpt>
      <trkpt lat="43.96496" lon="5.12519">
        <ele>433.2</ele>
        <time>2013-03-07T17:05:15Z</time>
      </trkpt>
      <trkpt lat="43.965" lon="5.12518">
        <ele>432.6</ele>
        <time>2013-03-07T17:05:16Z</time>
      </trkpt>
      <trkpt lat="43.96503" lon="5.12516">
        <ele>430.7</ele>
        <time>2013-03-07T17:05:17Z</time>
      </trkpt>
      <trkpt lat="43.96507" lon="5.12516">
        <ele>430.4</ele>
        <time>2013-03-07T17:05:18Z</time>
      </trkpt>
      <trkpt lat="43.96512" lon="5.12514">
        <ele>430.1</ele>
        <time>2013-03-07T17:05:19Z</time>
      </trkpt>
      <trkpt lat="43.96516" lon="5.12514">
        <ele>430.2</ele>
        <time>2013-03-07T17:05:20Z</time>
      </trkpt>
      <trkpt lat="43.96522" lon="5.12514">
        <ele>429.9</ele>
        <time>2013-03-07T17:05:21Z</time>
      </trkpt>
      <trkpt lat="43.96526" lon="5.12514">
        <ele>430</ele>
        <time>2013-03-07T17:05:22Z</time>
      </trkpt>
      <trkpt lat="43.96531" lon="5.12515">
        <ele>429.8</ele>
        <time>2013-03-07T17:05:23Z</time>
      </trkpt>
      <trkpt lat="43.96535" lon="5.12515">
        <ele>429.1</ele>
        <time>2013-03-07T17:05:24Z</time>
      </trkpt>
      <trkpt lat="43.9654" lon="5.12516">
        <ele>428.9</ele>
        <time>2013-03-07T17:05:25Z</time>
      </trkpt>
      <trkpt lat="43.96545" lon="5.12517">
        <ele>428.4</ele>
        <time>2013-03-07T17:05:26Z</time>
      </trkpt>
      <trkpt lat="43.96549" lon="5.12517">
        <ele>428.1</ele>
        <time>2013-03-07T17:05:27Z</time>
      </trkpt>
      <trkpt lat="43.96554" lon="5.12517">
        <ele>427.8</ele>
        <time>2013-03-07T17:05:28Z</time>
      </trkpt>
      <trkpt lat="43.96558" lon="5.12518">
        <ele>426.6</ele>
        <time>2013-03-07T17:05:29Z</time>
      </trkpt>
      <trkpt lat="43.96562" lon="5.12518">
        <ele>425.1</ele>
        <time>2013-03-07T17:05:30Z</time>
      </trkpt>
      <trkpt lat="43.96566" lon="5.12517">
        <ele>423.6</ele>
        <time>2013-03-07T17:05:31Z</time>
      </trkpt>
      <trkpt lat="43.96571" lon="5.12518">
        <ele>423.9</ele>
        <time>2013-03-07T17:05:32Z</time>
      </trkpt>
      <trkpt lat="43.96575" lon="5.12517">
        <ele>424.1</ele>
        <time>2013-03-07T17:05:33Z</time>
      </trkpt>
      <trkpt lat="43.9658" lon="5.12517">
        <ele>423.4</ele>
        <time>2013-03-07T17:05:34Z</time>
      </trkpt>
      <trkpt lat="43.96584" lon="5.12517">
        <ele>423.6</ele>
        <time>2013-03-07T17:05:35Z</time>
      </trkpt>
      <trkpt lat="43.96589" lon="5.12516">
        <ele>423.7</ele>
        <time>2013-03-07T17:05:36Z</time>
      </trkpt>
      <trkpt lat="43.96594" lon="5.12515">
        <ele>423.1</ele>
        <time>2013-03-07T17:05:37Z</time>
      </trkpt>
      <trkpt lat="43.96597" lon="5.12517">
        <ele>423.7</ele>
        <time>2013-03-07T17:05:38Z</time>
      </trkpt>
      <trkpt lat="43.96602" lon="5.12516">
        <ele>424</ele>
        <time>2013-03-07T17:05:39Z</time>
      </trkpt>
      <trkpt lat="43.96606" lon="5.12516">
        <ele>423.3</ele>
        <time>2013-03-07T17:05:40Z</time>
      </trkpt>
      <trkpt lat="43.96611" lon="5.12514">
        <ele>421.8</ele>
        <time>2013-03-07T17:05:41Z</time>
      </trkpt>
      <trkpt lat="43.96615" lon="5.12514">
        <ele>421.3</ele>
        <time>2013-03-07T17:05:42Z</time>
      </trkpt>
      <trkpt lat="43.9662" lon="5.12514">
        <ele>421.3</ele>
        <time>2013-03-07T17:05:43Z</time>
      </trkpt>
      <trkpt lat="43.96624" lon="5.12513">
        <ele>421.5</ele>
        <time>2013-03-07T17:05:44Z</time>
      </trkpt>
      <trkpt lat="43.96628" lon="5.12513">
        <ele>421.9</ele>
        <time>2013-03-07T17:05:45Z</time>
      </trkpt>
      <trkpt lat="43.96633" lon="5.12513">
        <ele>422.2</ele>
        <time>2013-03-07T17:05:46Z</time>
      </trkpt>
      <trkpt lat="43.96637" lon="5.12512">
        <ele>422.2</ele>
        <time>2013-03-07T17:05:47Z</time>
      </trkpt>
      <trkpt lat="43.96641" lon="5.1251">
        <ele>420.9</ele>
        <time>2013-03-07T17:05:48Z</time>
      </trkpt>
      <trkpt lat="43.96645" lon="5.1251">
        <ele>420.5</ele>
        <time>2013-03-07T17:05:49Z</time>
      </trkpt>
      <trkpt lat="43.96649" lon="5.12508">
        <ele>419.2</ele>
        <time>2013-03-07T17:05:50Z</time>
      </trkpt>
      <trkpt lat="43.96653" lon="5.12508">
        <ele>419.7</ele>
        <time>2013-03-07T17:05:51Z</time>
      </trkpt>
      <trkpt lat="43.96658" lon="5.12506">
        <ele>419.5</ele>
        <time>2013-03-07T17:05:52Z</time>
      </trkpt>
      <trkpt lat="43.96662" lon="5.12505">
        <ele>419.1</ele>
        <time>2013-03-07T17:05:53Z</time>
      </trkpt>
      <trkpt lat="43.96666" lon="5.12504">
        <ele>418.1</ele>
        <time>2013-03-07T17:05:54Z</time>
      </trkpt>
      <trkpt lat="43.9667" lon="5.12501">
        <ele>418.3</ele>
        <time>2013-03-07T17:05:55Z</time>
      </trkpt>
      <trkpt lat="43.96675" lon="5.12501">
        <ele>418.6</ele>
        <time>2013-03-07T17:05:56Z</time>
      </trkpt>
      <trkpt lat="43.9668" lon="5.12499">
        <ele>417.8</ele>
        <time>2013-03-07T17:05:57Z</time>
      </trkpt>
      <trkpt lat="43.96684" lon="5.12497">
        <ele>418</ele>
        <time>2013-03-07T17:05:58Z</time>
      </trkpt>
      <trkpt lat="43.96689" lon="5.12496">
        <ele>418.1</ele>
        <time>2013-03-07T17:05:59Z</time>
      </trkpt>
      <trkpt lat="43.96693" lon="5.12493">
        <ele>417.7</ele>
        <time>2013-03-07T17:06:00Z</time>
      </trkpt>
      <trkpt lat="43.96698" lon="5.1249">
        <ele>417.2</ele>
        <time>2013-03-07T17:06:01Z</time>
      </trkpt>
      <trkpt lat="43.96702" lon="5.12486">
        <ele>417.2</ele>
        <time>2013-03-07T17:06:02Z</time>
      </trkpt>
      <trkpt lat="43.96706" lon="5.12483">
        <ele>417</ele>
        <time>2013-03-07T17:06:03Z</time>
      </trkpt>
      <trkpt lat="43.9671" lon="5.12481">
        <ele>417.2</ele>
        <time>2013-03-07T17:06:04Z</time>
      </trkpt>
      <trkpt lat="43.96714" lon="5.12478">
        <ele>416.6</ele>
        <time>2013-03-07T17:06:05Z</time>
      </trkpt>
      <trkpt lat="43.96718" lon="5.12475">
        <ele>416.1</ele>
        <time>2013-03-07T17:06:06Z</time>
      </trkpt>
      <trkpt lat="43.96722" lon="5.12472">
        <ele>416.8</ele>
        <time>2013-03-07T17:06:07Z</time>
      </trkpt>
      <trkpt lat="43.96726" lon="5.1247">
        <ele>417.2</ele>
        <time>2013-03-07T17:06:08Z</time>
      </trkpt>
      <trkpt lat="43.9673" lon="5.12466">
        <ele>417.1</ele>
        <time>2013-03-07T17:06:09Z</time>
      </trkpt>
      <trkpt lat="43.96734" lon="5.12463">
        <ele>417.5</ele>
        <time>2013-03-07T17:06:10Z</time>
      </trkpt>
      <trkpt lat="43.96737" lon="5.12459">
        <ele>417.4</ele>
        <time>2013-03-07T17:06:11Z</time>
      </trkpt>
      <trkpt lat="43.9674" lon="5.12455">
        <ele>417.5</ele>
        <time>2013-03-07T17:06:12Z</time>
      </trkpt>
      <trkpt lat="43.96744" lon="5.12452">
        <ele>418.1</ele>
        <time>2013-03-07T17:06:13Z</time>
      </trkpt>
      <trkpt lat="43.96747" lon="5.12448">
        <ele>418</ele>
        <time>2013-03-07T17:06:14Z</time>
      </trkpt>
      <trkpt lat="43.96751" lon="5.12443">
        <ele>417.7</ele>
        <time>2013-03-07T17:06:15Z</time>
      </trkpt>
      <trkpt lat="43.96755" lon="5.12438">
        <ele>417.8</ele>
        <time>2013-03-07T17:06:16Z</time>
      </trkpt>
      <trkpt lat="43.96759" lon="5.12433">
        <ele>418.2</ele>
        <time>2013-03-07T17:06:17Z</time>
      </trkpt>
      <trkpt lat="43.96763" lon="5.12429">
        <ele>417.8</ele>
        <time>2013-03-07T17:06:18Z</time>
      </trkpt>
      <trkpt lat="43.96767" lon="5.12426">
        <ele>417.7</ele>
        <time>2013-03-07T17:06:19Z</time>
      </trkpt>
      <trkpt lat="43.96772" lon="5.12426">
        <ele>417.6</ele>
        <time>2013-03-07T17:06:20Z</time>
      </trkpt>
      <trkpt lat="43.96779" lon="5.12428">
        <ele>417.6</ele>
        <time>2013-03-07T17:06:21Z</time>
      </trkpt>
      <trkpt lat="43.96785" lon="5.12432">
        <ele>417.4</ele>
        <time>2013-03-07T17:06:22Z</time>
      </trkpt>
      <trkpt lat="43.96794" lon="5.12436">
        <ele>416.6</ele>
        <time>2013-03-07T17:06:23Z</time>
      </trkpt>
      <trkpt lat="43.96801" lon="5.12438">
        <ele>415.9</ele>
        <time>2013-03-07T17:06:24Z</time>
      </trkpt>
      <trkpt lat="43.96808" lon="5.12441">
        <ele>415.7</ele>
        <time>2013-03-07T17:06:25Z</time>
      </trkpt>
      <trkpt lat="43.96814" lon="5.12444">
        <ele>415.4</ele>
        <time>2013-03-07T17:06:26Z</time>
      </trkpt>
      <trkpt lat="43.96819" lon="5.12446">
        <ele>415.1</ele>
        <time>2013-03-07T17:06:27Z</time>
      </trkpt>
      <trkpt lat="43.96825" lon="5.12449">
        <ele>415.1</ele>
        <time>2013-03-07T17:06:28Z</time>
      </trkpt>
      <trkpt lat="43.9683" lon="5.12449">
        <ele>414.9</ele>
        <time>2013-03-07T17:06:29Z</time>
      </trkpt>
      <trkpt lat="43.96834" lon="5.12449">
        <ele>414.9</ele>
        <time>2013-03-07T17:06:30Z</time>
      </trkpt>
      <trkpt lat="43.96838" lon="5.12446">
        <ele>414.6</ele>
        <time>2013-03-07T17:06:31Z</time>
      </trkpt>
      <trkpt lat="43.96838" lon="5.12437">
        <ele>410.6</ele>
        <time>2013-03-07T17:06:32Z</time>
      </trkpt>
      <trkpt lat="43.96842" lon="5.12432">
        <ele>409.8</ele>
        <time>2013-03-07T17:06:33Z</time>
      </trkpt>
      <trkpt lat="43.96845" lon="5.12427">
        <ele>408.8</ele>
        <time>2013-03-07T17:06:34Z</time>
      </trkpt>
      <trkpt lat="43.96849" lon="5.12422">
        <ele>409.7</ele>
        <time>2013-03-07T17:06:35Z</time>
      </trkpt>
      <trkpt lat="43.9685" lon="5.12419">
        <ele>409</ele>
        <time>2013-03-07T17:06:36Z</time>
      </trkpt>
      <trkpt lat="43.96854" lon="5.12419">
        <ele>408.9</ele>
        <time>2013-03-07T17:06:37Z</time>
      </trkpt>
      <trkpt lat="43.96855" lon="5.12422">
        <ele>408.7</ele>
        <time>2013-03-07T17:06:38Z</time>
      </trkpt>
      <trkpt lat="43.96857" lon="5.12426">
        <ele>408.7</ele>
        <time>2013-03-07T17:06:39Z</time>
      </trkpt>
      <trkpt lat="43.96856" lon="5.1243">
        <ele>408.7</ele>
        <time>2013-03-07T17:06:40Z</time>
      </trkpt>
      <trkpt lat="43.96855" lon="5.12434">
        <ele>408.6</ele>
        <time>2013-03-07T17:06:41Z</time>
      </trkpt>
      <trkpt lat="43.96854" lon="5.12439">
        <ele>408.5</ele>
        <time>2013-03-07T17:06:42Z</time>
      </trkpt>
      <trkpt lat="43.96854" lon="5.12443">
        <ele>408.8</ele>
        <time>2013-03-07T17:06:43Z</time>
      </trkpt>
      <trkpt lat="43.96853" lon="5.12449">
        <ele>408.9</ele>
        <time>2013-03-07T17:06:45Z</time>
      </trkpt>
      <trkpt lat="43.96853" lon="5.12452">
        <ele>408.9</ele>
        <time>2013-03-07T17:06:46Z</time>
      </trkpt>
      <trkpt lat="43.96854" lon="5.12456">
        <ele>408.2</ele>
        <time>2013-03-07T17:06:49Z</time>
      </trkpt>
      <trkpt lat="43.96855" lon="5.12457">
        <ele>408</ele>
        <time>2013-03-07T17:06:50Z</time>
      </trkpt>
      <trkpt lat="43.96857" lon="5.12459">
        <ele>407.9</ele>
        <time>2013-03-07T17:06:51Z</time>
      </trkpt>
      <trkpt lat="43.9686" lon="5.1246">
        <ele>407.3</ele>
        <time>2013-03-07T17:06:52Z</time>
      </trkpt>
      <trkpt lat="43.96863" lon="5.1246">
        <ele>407.5</ele>
        <time>2013-03-07T17:06:53Z</time>
      </trkpt>
      <trkpt lat="43.96866" lon="5.12459">
        <ele>407.6</ele>
        <time>2013-03-07T17:06:54Z</time>
      </trkpt>
      <trkpt lat="43.96869" lon="5.12458">
        <ele>407.5</ele>
        <time>2013-03-07T17:06:55Z</time>
      </trkpt>
      <trkpt lat="43.96872" lon="5.12458">
        <ele>407.6</ele>
        <time>2013-03-07T17:06:56Z</time>
      </trkpt>
      <trkpt lat="43.96875" lon="5.12455">
        <ele>407.7</ele>
        <time>2013-03-07T17:06:58Z</time>
      </trkpt>
      <trkpt lat="43.96878" lon="5.12452">
        <ele>407.8</ele>
        <time>2013-03-07T17:06:59Z</time>
      </trkpt>
      <trkpt lat="43.9688" lon="5.1245">
        <ele>407.7</ele>
        <time>2013-03-07T17:07:00Z</time>
      </trkpt>
      <trkpt lat="43.96881" lon="5.12446">
        <ele>407.4</ele>
        <time>2013-03-07T17:07:01Z</time>
      </trkpt>
      <trkpt lat="43.96884" lon="5.12443">
        <ele>407.4</ele>
        <time>2013-03-07T17:07:02Z</time>
      </trkpt>
      <trkpt lat="43.96887" lon="5.12442">
        <ele>407.5</ele>
        <time>2013-03-07T17:07:03Z</time>
      </trkpt>
      <trkpt lat="43.96889" lon="5.12438">
        <ele>406.9</ele>
        <time>2013-03-07T17:07:04Z</time>
      </trkpt>
      <trkpt lat="43.9689" lon="5.12435">
        <ele>406.7</ele>
        <time>2013-03-07T17:07:05Z</time>
      </trkpt>
      <trkpt lat="43.9689" lon="5.12431">
        <ele>405.8</ele>
        <time>2013-03-07T17:07:06Z</time>
      </trkpt>
      <trkpt lat="43.9689" lon="5.12425">
        <ele>405.5</ele>
        <time>2013-03-07T17:07:07Z</time>
      </trkpt>
      <trkpt lat="43.96893" lon="5.1242">
        <ele>405</ele>
        <time>2013-03-07T17:07:08Z</time>
      </trkpt>
      <trkpt lat="43.96895" lon="5.12417">
        <ele>404.8</ele>
        <time>2013-03-07T17:07:09Z</time>
      </trkpt>
      <trkpt lat="43.96898" lon="5.12416">
        <ele>404.4</ele>
        <time>2013-03-07T17:07:10Z</time>
      </trkpt>
      <trkpt lat="43.969" lon="5.12416">
        <ele>404</ele>
        <time>2013-03-07T17:07:11Z</time>
      </trkpt>
      <trkpt lat="43.96903" lon="5.12413">
        <ele>403.2</ele>
        <time>2013-03-07T17:07:12Z</time>
      </trkpt>
      <trkpt lat="43.96906" lon="5.12408">
        <ele>401.7</ele>
        <time>2013-03-07T17:07:13Z</time>
      </trkpt>
      <trkpt lat="43.96908" lon="5.12405">
        <ele>401.3</ele>
        <time>2013-03-07T17:07:14Z</time>
      </trkpt>
      <trkpt lat="43.96909" lon="5.12398">
        <ele>400.6</ele>
        <time>2013-03-07T17:07:15Z</time>
      </trkpt>
      <trkpt lat="43.96912" lon="5.12393">
        <ele>399.7</ele>
        <time>2013-03-07T17:07:16Z</time>
      </trkpt>
      <trkpt lat="43.96914" lon="5.12388">
        <ele>398.8</ele>
        <time>2013-03-07T17:07:17Z</time>
      </trkpt>
      <trkpt lat="43.96914" lon="5.12383">
        <ele>398.4</ele>
        <time>2013-03-07T17:07:18Z</time>
      </trkpt>
      <trkpt lat="43.96917" lon="5.12378">
        <ele>397.6</ele>
        <time>2013-03-07T17:07:19Z</time>
      </trkpt>
      <trkpt lat="43.96918" lon="5.12375">
        <ele>397.4</ele>
        <time>2013-03-07T17:07:20Z</time>
      </trkpt>
      <trkpt lat="43.96922" lon="5.12372">
        <ele>397.4</ele>
        <time>2013-03-07T17:07:21Z</time>
      </trkpt>
      <trkpt lat="43.96924" lon="5.1237">
        <ele>397.2</ele>
        <time>2013-03-07T17:07:22Z</time>
      </trkpt>
      <trkpt lat="43.96926" lon="5.12366">
        <ele>397</ele>
        <time>2013-03-07T17:07:23Z</time>
      </trkpt>
      <trkpt lat="43.96928" lon="5.12363">
        <ele>396.7</ele>
        <time>2013-03-07T17:07:24Z</time>
      </trkpt>
      <trkpt lat="43.9693" lon="5.12361">
        <ele>396.6</ele>
        <time>2013-03-07T17:07:25Z</time>
      </trkpt>
      <trkpt lat="43.96931" lon="5.12359">
        <ele>396.1</ele>
        <time>2013-03-07T17:07:26Z</time>
      </trkpt>
      <trkpt lat="43.96939" lon="5.12349">
        <ele>394.6</ele>
        <time>2013-03-07T17:07:28Z</time>
      </trkpt>
      <trkpt lat="43.96938" lon="5.12343">
        <ele>394.3</ele>
        <time>2013-03-07T17:07:29Z</time>
      </trkpt>
      <trkpt lat="43.96942" lon="5.12339">
        <ele>394.2</ele>
        <time>2013-03-07T17:07:30Z</time>
      </trkpt>
      <trkpt lat="43.96943" lon="5.12336">
        <ele>394.3</ele>
        <time>2013-03-07T17:07:31Z</time>
      </trkpt>
      <trkpt lat="43.96945" lon="5.12331">
        <ele>394.2</ele>
        <time>2013-03-07T17:07:32Z</time>
      </trkpt>
      <trkpt lat="43.96948" lon="5.12325">
        <ele>394</ele>
        <time>2013-03-07T17:07:33Z</time>
      </trkpt>
      <trkpt lat="43.96951" lon="5.12321">
        <ele>393.2</ele>
        <time>2013-03-07T17:07:34Z</time>
      </trkpt>
      <trkpt lat="43.96954" lon="5.12315">
        <ele>393</ele>
        <time>2013-03-07T17:07:35Z</time>
      </trkpt>
      <trkpt lat="43.96958" lon="5.1231">
        <ele>392.6</ele>
        <time>2013-03-07T17:07:36Z</time>
      </trkpt>
      <trkpt lat="43.96962" lon="5.12305">
        <ele>393</ele>
        <time>2013-03-07T17:07:37Z</time>
      </trkpt>
      <trkpt lat="43.96964" lon="5.12302">
        <ele>392.8</ele>
        <time>2013-03-07T17:07:38Z</time>
      </trkpt>
      <trkpt lat="43.96964" lon="5.12298">
        <ele>392.5</ele>
        <time>2013-03-07T17:07:39Z</time>
      </trkpt>
      <trkpt lat="43.96965" lon="5.12296">
        <ele>392.2</ele>
        <time>2013-03-07T17:07:40Z</time>
      </trkpt>
      <trkpt lat="43.96968" lon="5.12291">
        <ele>391.9</ele>
        <time>2013-03-07T17:07:41Z</time>
      </trkpt>
      <trkpt lat="43.96966" lon="5.12284">
        <ele>391.4</ele>
        <time>2013-03-07T17:07:42Z</time>
      </trkpt>
      <trkpt lat="43.96965" lon="5.1228">
        <ele>391</ele>
        <time>2013-03-07T17:07:43Z</time>
      </trkpt>
      <trkpt lat="43.96963" lon="5.12276">
        <ele>391</ele>
        <time>2013-03-07T17:07:44Z</time>
      </trkpt>
      <trkpt lat="43.96966" lon="5.12273">
        <ele>390.6</ele>
        <time>2013-03-07T17:07:46Z</time>
      </trkpt>
      <trkpt lat="43.96965" lon="5.1227">
        <ele>390.3</ele>
        <time>2013-03-07T17:07:47Z</time>
      </trkpt>
      <trkpt lat="43.96963" lon="5.12268">
        <ele>389.2</ele>
        <time>2013-03-07T17:07:48Z</time>
      </trkpt>
      <trkpt lat="43.9696" lon="5.12263">
        <ele>390.1</ele>
        <time>2013-03-07T17:07:49Z</time>
      </trkpt>
      <trkpt lat="43.96959" lon="5.12261">
        <ele>390.2</ele>
        <time>2013-03-07T17:07:50Z</time>
      </trkpt>
      <trkpt lat="43.96957" lon="5.12257">
        <ele>390.2</ele>
        <time>2013-03-07T17:07:51Z</time>
      </trkpt>
      <trkpt lat="43.96954" lon="5.12252">
        <ele>390.3</ele>
        <time>2013-03-07T17:07:53Z</time>
      </trkpt>
      <trkpt lat="43.96953" lon="5.1225">
        <ele>390.1</ele>
        <time>2013-03-07T17:07:54Z</time>
      </trkpt>
      <trkpt lat="43.9695" lon="5.12246">
        <ele>390</ele>
        <time>2013-03-07T17:07:56Z</time>
      </trkpt>
      <trkpt lat="43.96949" lon="5.12245">
        <ele>390.1</ele>
        <time>2013-03-07T17:07:57Z</time>
      </trkpt>
      <trkpt lat="43.96946" lon="5.12242">
        <ele>389.8</ele>
        <time>2013-03-07T17:08:01Z</time>
      </trkpt>
      <trkpt lat="43.96943" lon="5.1224">
        <ele>390.3</ele>
        <time>2013-03-07T17:08:02Z</time>
      </trkpt>
      <trkpt lat="43.96947" lon="5.12237">
        <ele>392.2</ele>
        <time>2013-03-07T17:08:29Z</time>
      </trkpt>
      <trkpt lat="43.96945" lon="5.1223">
        <ele>392.8</ele>
        <time>2013-03-07T17:08:30Z</time>
      </trkpt>
      <trkpt lat="43.96943" lon="5.12225">
        <ele>392.2</ele>
        <time>2013-03-07T17:08:31Z</time>
      </trkpt>
      <trkpt lat="43.96942" lon="5.12221">
        <ele>392</ele>
        <time>2013-03-07T17:08:32Z</time>
      </trkpt>
      <trkpt lat="43.96939" lon="5.12217">
        <ele>392</ele>
        <time>2013-03-07T17:08:33Z</time>
      </trkpt>
      <trkpt lat="43.96937" lon="5.12212">
        <ele>391.6</ele>
        <time>2013-03-07T17:08:34Z</time>
      </trkpt>
      <trkpt lat="43.96937" lon="5.1221">
        <ele>392.6</ele>
        <time>2013-03-07T17:08:35Z</time>
      </trkpt>
      <trkpt lat="43.96937" lon="5.12205">
        <ele>391.5</ele>
        <time>2013-03-07T17:08:36Z</time>
      </trkpt>
      <trkpt lat="43.96938" lon="5.122">
        <ele>391.2</ele>
        <time>2013-03-07T17:08:37Z</time>
      </trkpt>
      <trkpt lat="43.96939" lon="5.12197">
        <ele>391.6</ele>
        <time>2013-03-07T17:08:38Z</time>
      </trkpt>
      <trkpt lat="43.96941" lon="5.12192">
        <ele>392</ele>
        <time>2013-03-07T17:08:39Z</time>
      </trkpt>
      <trkpt lat="43.96943" lon="5.12186">
        <ele>391.5</ele>
        <time>2013-03-07T17:08:40Z</time>
      </trkpt>
      <trkpt lat="43.96945" lon="5.1218">
        <ele>392.3</ele>
        <time>2013-03-07T17:08:41Z</time>
      </trkpt>
      <trkpt lat="43.96945" lon="5.12173">
        <ele>392.3</ele>
        <time>2013-03-07T17:08:42Z</time>
      </trkpt>
      <trkpt lat="43.96948" lon="5.12168">
        <ele>392.2</ele>
        <time>2013-03-07T17:08:43Z</time>
      </trkpt>
      <trkpt lat="43.96949" lon="5.12164">
        <ele>392.3</ele>
        <time>2013-03-07T17:08:44Z</time>
      </trkpt>
      <trkpt lat="43.9695" lon="5.12158">
        <ele>392.9</ele>
        <time>2013-03-07T17:08:45Z</time>
      </trkpt>
      <trkpt lat="43.96953" lon="5.12152">
        <ele>393.1</ele>
        <time>2013-03-07T17:08:46Z</time>
      </trkpt>
      <trkpt lat="43.96955" lon="5.12149">
        <ele>392.2</ele>
        <time>2013-03-07T17:08:47Z</time>
      </trkpt>
      <trkpt lat="43.96957" lon="5.12144">
        <ele>391</ele>
        <time>2013-03-07T17:08:48Z</time>
      </trkpt>
      <trkpt lat="43.96958" lon="5.12141">
        <ele>391</ele>
        <time>2013-03-07T17:08:49Z</time>
      </trkpt>
      <trkpt lat="43.96959" lon="5.12136">
        <ele>389.9</ele>
        <time>2013-03-07T17:08:50Z</time>
      </trkpt>
      <trkpt lat="43.96959" lon="5.12131">
        <ele>390.7</ele>
        <time>2013-03-07T17:08:51Z</time>
      </trkpt>
      <trkpt lat="43.96961" lon="5.12127">
        <ele>390.4</ele>
        <time>2013-03-07T17:08:52Z</time>
      </trkpt>
      <trkpt lat="43.96962" lon="5.12124">
        <ele>390.3</ele>
        <time>2013-03-07T17:08:53Z</time>
      </trkpt>
      <trkpt lat="43.96963" lon="5.12121">
        <ele>389.9</ele>
        <time>2013-03-07T17:08:54Z</time>
      </trkpt>
      <trkpt lat="43.96963" lon="5.12116">
        <ele>388.4</ele>
        <time>2013-03-07T17:08:55Z</time>
      </trkpt>
      <trkpt lat="43.96964" lon="5.12112">
        <ele>386.9</ele>
        <time>2013-03-07T17:08:56Z</time>
      </trkpt>
      <trkpt lat="43.96964" lon="5.12109">
        <ele>386.3</ele>
        <time>2013-03-07T17:08:57Z</time>
      </trkpt>
      <trkpt lat="43.96966" lon="5.12106">
        <ele>386.4</ele>
        <time>2013-03-07T17:08:58Z</time>
      </trkpt>
      <trkpt lat="43.96967" lon="5.12102">
        <ele>386.6</ele>
        <time>2013-03-07T17:08:59Z</time>
      </trkpt>
      <trkpt lat="43.96969" lon="5.12097">
        <ele>386.3</ele>
        <time>2013-03-07T17:09:00Z</time>
      </trkpt>
      <trkpt lat="43.96971" lon="5.12091">
        <ele>385.8</ele>
        <time>2013-03-07T17:09:01Z</time>
      </trkpt>
      <trkpt lat="43.96972" lon="5.12086">
        <ele>385.7</ele>
        <time>2013-03-07T17:09:02Z</time>
      </trkpt>
      <trkpt lat="43.96976" lon="5.12083">
        <ele>385.7</ele>
        <time>2013-03-07T17:09:03Z</time>
      </trkpt>
      <trkpt lat="43.96977" lon="5.12079">
        <ele>386.3</ele>
        <time>2013-03-07T17:09:04Z</time>
      </trkpt>
      <trkpt lat="43.96981" lon="5.12075">
        <ele>386.2</ele>
        <time>2013-03-07T17:09:05Z</time>
      </trkpt>
      <trkpt lat="43.96984" lon="5.12073">
        <ele>386.7</ele>
        <time>2013-03-07T17:09:06Z</time>
      </trkpt>
      <trkpt lat="43.96988" lon="5.1207">
        <ele>387</ele>
        <time>2013-03-07T17:09:07Z</time>
      </trkpt>
      <trkpt lat="43.9699" lon="5.12066">
        <ele>387</ele>
        <time>2013-03-07T17:09:08Z</time>
      </trkpt>
      <trkpt lat="43.96994" lon="5.12063">
        <ele>387.2</ele>
        <time>2013-03-07T17:09:09Z</time>
      </trkpt>
      <trkpt lat="43.96997" lon="5.1206">
        <ele>387.5</ele>
        <time>2013-03-07T17:09:10Z</time>
      </trkpt>
      <trkpt lat="43.96999" lon="5.12056">
        <ele>387.5</ele>
        <time>2013-03-07T17:09:11Z</time>
      </trkpt>
      <trkpt lat="43.97002" lon="5.12052">
        <ele>387.9</ele>
        <time>2013-03-07T17:09:12Z</time>
      </trkpt>
      <trkpt lat="43.97005" lon="5.12047">
        <ele>387</ele>
        <time>2013-03-07T17:09:13Z</time>
      </trkpt>
      <trkpt lat="43.97007" lon="5.12043">
        <ele>386.6</ele>
        <time>2013-03-07T17:09:14Z</time>
      </trkpt>
      <trkpt lat="43.97011" lon="5.12037">
        <ele>386.5</ele>
        <time>2013-03-07T17:09:15Z</time>
      </trkpt>
      <trkpt lat="43.97013" lon="5.12032">
        <ele>386</ele>
        <time>2013-03-07T17:09:16Z</time>
      </trkpt>
      <trkpt lat="43.97015" lon="5.12028">
        <ele>386.6</ele>
        <time>2013-03-07T17:09:17Z</time>
      </trkpt>
      <trkpt lat="43.97018" lon="5.12025">
        <ele>386.9</ele>
        <time>2013-03-07T17:09:18Z</time>
      </trkpt>
      <trkpt lat="43.97019" lon="5.12021">
        <ele>386.8</ele>
        <time>2013-03-07T17:09:19Z</time>
      </trkpt>
      <trkpt lat="43.97022" lon="5.1202">
        <ele>387.3</ele>
        <time>2013-03-07T17:09:20Z</time>
      </trkpt>
      <trkpt lat="43.97026" lon="5.12018">
        <ele>387.4</ele>
        <time>2013-03-07T17:09:21Z</time>
      </trkpt>
      <trkpt lat="43.97029" lon="5.12015">
        <ele>387.6</ele>
        <time>2013-03-07T17:09:22Z</time>
      </trkpt>
      <trkpt lat="43.97031" lon="5.12012">
        <ele>388.1</ele>
        <time>2013-03-07T17:09:23Z</time>
      </trkpt>
      <trkpt lat="43.97033" lon="5.12009">
        <ele>387.9</ele>
        <time>2013-03-07T17:09:24Z</time>
      </trkpt>
      <trkpt lat="43.97034" lon="5.12007">
        <ele>387.6</ele>
        <time>2013-03-07T17:09:25Z</time>
      </trkpt>
      <trkpt lat="43.97035" lon="5.12004">
        <ele>387</ele>
        <time>2013-03-07T17:09:26Z</time>
      </trkpt>
      <trkpt lat="43.97036" lon="5.12001">
        <ele>386.2</ele>
        <time>2013-03-07T17:09:27Z</time>
      </trkpt>
      <trkpt lat="43.97038" lon="5.11996">
        <ele>384.3</ele>
        <time>2013-03-07T17:09:28Z</time>
      </trkpt>
      <trkpt lat="43.9704" lon="5.11992">
        <ele>383.9</ele>
        <time>2013-03-07T17:09:29Z</time>
      </trkpt>
      <trkpt lat="43.97037" lon="5.11987">
        <ele>383.1</ele>
        <time>2013-03-07T17:09:30Z</time>
      </trkpt>
      <trkpt lat="43.97038" lon="5.11982">
        <ele>383</ele>
        <time>2013-03-07T17:09:31Z</time>
      </trkpt>
      <trkpt lat="43.9704" lon="5.1198">
        <ele>383</ele>
        <time>2013-03-07T17:09:32Z</time>
      </trkpt>
      <trkpt lat="43.97043" lon="5.11978">
        <ele>382.7</ele>
        <time>2013-03-07T17:09:34Z</time>
      </trkpt>
      <trkpt lat="43.97045" lon="5.11976">
        <ele>382.8</ele>
        <time>2013-03-07T17:09:35Z</time>
      </trkpt>
      <trkpt lat="43.97049" lon="5.11973">
        <ele>382.6</ele>
        <time>2013-03-07T17:09:36Z</time>
      </trkpt>
      <trkpt lat="43.97052" lon="5.11967">
        <ele>381.5</ele>
        <time>2013-03-07T17:09:37Z</time>
      </trkpt>
      <trkpt lat="43.97054" lon="5.11961">
        <ele>380.5</ele>
        <time>2013-03-07T17:09:38Z</time>
      </trkpt>
      <trkpt lat="43.97055" lon="5.11956">
        <ele>380</ele>
        <time>2013-03-07T17:09:39Z</time>
      </trkpt>
      <trkpt lat="43.97055" lon="5.11952">
        <ele>379</ele>
        <time>2013-03-07T17:09:40Z</time>
      </trkpt>
      <trkpt lat="43.97056" lon="5.11946">
        <ele>378.6</ele>
        <time>2013-03-07T17:09:41Z</time>
      </trkpt>
      <trkpt lat="43.97055" lon="5.11939">
        <ele>377.7</ele>
        <time>2013-03-07T17:09:42Z</time>
      </trkpt>
      <trkpt lat="43.97056" lon="5.11932">
        <ele>376.1</ele>
        <time>2013-03-07T17:09:43Z</time>
      </trkpt>
      <trkpt lat="43.97057" lon="5.11923">
        <ele>374.8</ele>
        <time>2013-03-07T17:09:44Z</time>
      </trkpt>
      <trkpt lat="43.97059" lon="5.11915">
        <ele>374.4</ele>
        <time>2013-03-07T17:09:45Z</time>
      </trkpt>
      <trkpt lat="43.97062" lon="5.11909">
        <ele>373.5</ele>
        <time>2013-03-07T17:09:46Z</time>
      </trkpt>
      <trkpt lat="43.97063" lon="5.11901">
        <ele>373.2</ele>
        <time>2013-03-07T17:09:47Z</time>
      </trkpt>
      <trkpt lat="43.97063" lon="5.11891">
        <ele>372.3</ele>
        <time>2013-03-07T17:09:48Z</time>
      </trkpt>
      <trkpt lat="43.97063" lon="5.11881">
        <ele>372.2</ele>
        <time>2013-03-07T17:09:49Z</time>
      </trkpt>
      <trkpt lat="43.97062" lon="5.11871">
        <ele>371.8</ele>
        <time>2013-03-07T17:09:50Z</time>
      </trkpt>
      <trkpt lat="43.97061" lon="5.11862">
        <ele>371.2</ele>
        <time>2013-03-07T17:09:51Z</time>
      </trkpt>
      <trkpt lat="43.97059" lon="5.11855">
        <ele>370.9</ele>
        <time>2013-03-07T17:09:52Z</time>
      </trkpt>
      <trkpt lat="43.9706" lon="5.11846">
        <ele>370.6</ele>
        <time>2013-03-07T17:09:53Z</time>
      </trkpt>
      <trkpt lat="43.97062" lon="5.11839">
        <ele>371.4</ele>
        <time>2013-03-07T17:09:54Z</time>
      </trkpt>
      <trkpt lat="43.97066" lon="5.11838">
        <ele>371.7</ele>
        <time>2013-03-07T17:09:55Z</time>
      </trkpt>
      <trkpt lat="43.97071" lon="5.11837">
        <ele>371.8</ele>
        <time>2013-03-07T17:09:56Z</time>
      </trkpt>
      <trkpt lat="43.97077" lon="5.11837">
        <ele>373</ele>
        <time>2013-03-07T17:09:57Z</time>
      </trkpt>
      <trkpt lat="43.97083" lon="5.11837">
        <ele>372.6</ele>
        <time>2013-03-07T17:09:58Z</time>
      </trkpt>
      <trkpt lat="43.97089" lon="5.11836">
        <ele>372.5</ele>
        <time>2013-03-07T17:09:59Z</time>
      </trkpt>
      <trkpt lat="43.97095" lon="5.11837">
        <ele>373</ele>
        <time>2013-03-07T17:10:00Z</time>
      </trkpt>
      <trkpt lat="43.97101" lon="5.11837">
        <ele>372.9</ele>
        <time>2013-03-07T17:10:01Z</time>
      </trkpt>
      <trkpt lat="43.97109" lon="5.11839">
        <ele>373.1</ele>
        <time>2013-03-07T17:10:02Z</time>
      </trkpt>
      <trkpt lat="43.97115" lon="5.11837">
        <ele>373.5</ele>
        <time>2013-03-07T17:10:03Z</time>
      </trkpt>
      <trkpt lat="43.97121" lon="5.11838">
        <ele>373.6</ele>
        <time>2013-03-07T17:10:04Z</time>
      </trkpt>
      <trkpt lat="43.97125" lon="5.11833">
        <ele>374.3</ele>
        <time>2013-03-07T17:10:05Z</time>
      </trkpt>
      <trkpt lat="43.97129" lon="5.1183">
        <ele>374.1</ele>
        <time>2013-03-07T17:10:06Z</time>
      </trkpt>
      <trkpt lat="43.97132" lon="5.11827">
        <ele>374.2</ele>
        <time>2013-03-07T17:10:07Z</time>
      </trkpt>
      <trkpt lat="43.97133" lon="5.11824">
        <ele>374.6</ele>
        <time>2013-03-07T17:10:08Z</time>
      </trkpt>
      <trkpt lat="43.97134" lon="5.1182">
        <ele>374</ele>
        <time>2013-03-07T17:10:09Z</time>
      </trkpt>
      <trkpt lat="43.97135" lon="5.11815">
        <ele>373.4</ele>
        <time>2013-03-07T17:10:10Z</time>
      </trkpt>
      <trkpt lat="43.97136" lon="5.1181">
        <ele>373.4</ele>
        <time>2013-03-07T17:10:11Z</time>
      </trkpt>
      <trkpt lat="43.97138" lon="5.11804">
        <ele>372.3</ele>
        <time>2013-03-07T17:10:12Z</time>
      </trkpt>
      <trkpt lat="43.97141" lon="5.118">
        <ele>371.9</ele>
        <time>2013-03-07T17:10:13Z</time>
      </trkpt>
      <trkpt lat="43.97143" lon="5.11794">
        <ele>371</ele>
        <time>2013-03-07T17:10:14Z</time>
      </trkpt>
      <trkpt lat="43.97143" lon="5.1179">
        <ele>370.5</ele>
        <time>2013-03-07T17:10:15Z</time>
      </trkpt>
      <trkpt lat="43.97145" lon="5.11787">
        <ele>369.9</ele>
        <time>2013-03-07T17:10:16Z</time>
      </trkpt>
      <trkpt lat="43.97146" lon="5.11783">
        <ele>369.8</ele>
        <time>2013-03-07T17:10:17Z</time>
      </trkpt>
      <trkpt lat="43.97149" lon="5.1178">
        <ele>370.1</ele>
        <time>2013-03-07T17:10:18Z</time>
      </trkpt>
      <trkpt lat="43.97153" lon="5.11778">
        <ele>370.2</ele>
        <time>2013-03-07T17:10:19Z</time>
      </trkpt>
      <trkpt lat="43.97159" lon="5.11776">
        <ele>370.6</ele>
        <time>2013-03-07T17:10:20Z</time>
      </trkpt>
      <trkpt lat="43.97165" lon="5.11774">
        <ele>370.1</ele>
        <time>2013-03-07T17:10:21Z</time>
      </trkpt>
      <trkpt lat="43.9717" lon="5.11773">
        <ele>370.1</ele>
        <time>2013-03-07T17:10:22Z</time>
      </trkpt>
      <trkpt lat="43.97178" lon="5.11771">
        <ele>370.8</ele>
        <time>2013-03-07T17:10:23Z</time>
      </trkpt>
      <trkpt lat="43.97184" lon="5.1177">
        <ele>370.4</ele>
        <time>2013-03-07T17:10:24Z</time>
      </trkpt>
      <trkpt lat="43.97189" lon="5.11768">
        <ele>371.2</ele>
        <time>2013-03-07T17:10:25Z</time>
      </trkpt>
      <trkpt lat="43.97196" lon="5.11767">
        <ele>371.6</ele>
        <time>2013-03-07T17:10:26Z</time>
      </trkpt>
      <trkpt lat="43.97203" lon="5.11762">
        <ele>371.9</ele>
        <time>2013-03-07T17:10:27Z</time>
      </trkpt>
      <trkpt lat="43.97211" lon="5.11757">
        <ele>371.4</ele>
        <time>2013-03-07T17:10:28Z</time>
      </trkpt>
      <trkpt lat="43.97218" lon="5.11751">
        <ele>371.9</ele>
        <time>2013-03-07T17:10:29Z</time>
      </trkpt>
      <trkpt lat="43.97225" lon="5.11746">
        <ele>371.7</ele>
        <time>2013-03-07T17:10:30Z</time>
      </trkpt>
      <trkpt lat="43.97232" lon="5.1174">
        <ele>371.3</ele>
        <time>2013-03-07T17:10:31Z</time>
      </trkpt>
      <trkpt lat="43.9724" lon="5.11735">
        <ele>371</ele>
        <time>2013-03-07T17:10:32Z</time>
      </trkpt>
      <trkpt lat="43.97247" lon="5.1173">
        <ele>370.8</ele>
        <time>2013-03-07T17:10:33Z</time>
      </trkpt>
      <trkpt lat="43.97251" lon="5.11725">
        <ele>370.4</ele>
        <time>2013-03-07T17:10:34Z</time>
      </trkpt>
      <trkpt lat="43.97255" lon="5.11719">
        <ele>370.4</ele>
        <time>2013-03-07T17:10:35Z</time>
      </trkpt>
      <trkpt lat="43.97258" lon="5.1171">
        <ele>369.4</ele>
        <time>2013-03-07T17:10:36Z</time>
      </trkpt>
      <trkpt lat="43.97261" lon="5.11702">
        <ele>367.7</ele>
        <time>2013-03-07T17:10:37Z</time>
      </trkpt>
      <trkpt lat="43.97264" lon="5.11696">
        <ele>367.1</ele>
        <time>2013-03-07T17:10:38Z</time>
      </trkpt>
      <trkpt lat="43.97267" lon="5.11691">
        <ele>367.1</ele>
        <time>2013-03-07T17:10:39Z</time>
      </trkpt>
      <trkpt lat="43.97272" lon="5.11686">
        <ele>367</ele>
        <time>2013-03-07T17:10:40Z</time>
      </trkpt>
      <trkpt lat="43.97278" lon="5.11684">
        <ele>366.6</ele>
        <time>2013-03-07T17:10:41Z</time>
      </trkpt>
      <trkpt lat="43.97284" lon="5.11679">
        <ele>366.1</ele>
        <time>2013-03-07T17:10:42Z</time>
      </trkpt>
      <trkpt lat="43.97291" lon="5.11674">
        <ele>365.2</ele>
        <time>2013-03-07T17:10:43Z</time>
      </trkpt>
      <trkpt lat="43.97299" lon="5.11668">
        <ele>364.9</ele>
        <time>2013-03-07T17:10:44Z</time>
      </trkpt>
      <trkpt lat="43.97308" lon="5.11662">
        <ele>364.9</ele>
        <time>2013-03-07T17:10:45Z</time>
      </trkpt>
      <trkpt lat="43.97316" lon="5.11654">
        <ele>363.6</ele>
        <time>2013-03-07T17:10:46Z</time>
      </trkpt>
      <trkpt lat="43.97322" lon="5.11646">
        <ele>363.3</ele>
        <time>2013-03-07T17:10:47Z</time>
      </trkpt>
      <trkpt lat="43.97329" lon="5.11641">
        <ele>363.3</ele>
        <time>2013-03-07T17:10:48Z</time>
      </trkpt>
      <trkpt lat="43.97337" lon="5.11635">
        <ele>362.6</ele>
        <time>2013-03-07T17:10:49Z</time>
      </trkpt>
      <trkpt lat="43.97342" lon="5.1163">
        <ele>362.3</ele>
        <time>2013-03-07T17:10:50Z</time>
      </trkpt>
      <trkpt lat="43.97351" lon="5.11625">
        <ele>362.6</ele>
        <time>2013-03-07T17:10:51Z</time>
      </trkpt>
      <trkpt lat="43.9736" lon="5.11617">
        <ele>361.9</ele>
        <time>2013-03-07T17:10:52Z</time>
      </trkpt>
      <trkpt lat="43.97369" lon="5.1161">
        <ele>360.8</ele>
        <time>2013-03-07T17:10:53Z</time>
      </trkpt>
      <trkpt lat="43.97378" lon="5.11604">
        <ele>360.8</ele>
        <time>2013-03-07T17:10:54Z</time>
      </trkpt>
      <trkpt lat="43.97384" lon="5.11597">
        <ele>360.3</ele>
        <time>2013-03-07T17:10:55Z</time>
      </trkpt>
      <trkpt lat="43.97393" lon="5.11594">
        <ele>360</ele>
        <time>2013-03-07T17:10:56Z</time>
      </trkpt>
      <trkpt lat="43.974" lon="5.11593">
        <ele>359.3</ele>
        <time>2013-03-07T17:10:57Z</time>
      </trkpt>
      <trkpt lat="43.97409" lon="5.1159">
        <ele>358.9</ele>
        <time>2013-03-07T17:10:58Z</time>
      </trkpt>
      <trkpt lat="43.97417" lon="5.11587">
        <ele>358.7</ele>
        <time>2013-03-07T17:10:59Z</time>
      </trkpt>
      <trkpt lat="43.97427" lon="5.11584">
        <ele>358.5</ele>
        <time>2013-03-07T17:11:00Z</time>
      </trkpt>
      <trkpt lat="43.97437" lon="5.11584">
        <ele>357.9</ele>
        <time>2013-03-07T17:11:01Z</time>
      </trkpt>
      <trkpt lat="43.97447" lon="5.11585">
        <ele>356.6</ele>
        <time>2013-03-07T17:11:02Z</time>
      </trkpt>
      <trkpt lat="43.97458" lon="5.11585">
        <ele>356.9</ele>
        <time>2013-03-07T17:11:03Z</time>
      </trkpt>
      <trkpt lat="43.97469" lon="5.11583">
        <ele>356.4</ele>
        <time>2013-03-07T17:11:04Z</time>
      </trkpt>
      <trkpt lat="43.97478" lon="5.11582">
        <ele>356.1</ele>
        <time>2013-03-07T17:11:05Z</time>
      </trkpt>
      <trkpt lat="43.97486" lon="5.11586">
        <ele>355.1</ele>
        <time>2013-03-07T17:11:06Z</time>
      </trkpt>
      <trkpt lat="43.97496" lon="5.11588">
        <ele>355</ele>
        <time>2013-03-07T17:11:07Z</time>
      </trkpt>
      <trkpt lat="43.97505" lon="5.11591">
        <ele>354.2</ele>
        <time>2013-03-07T17:11:08Z</time>
      </trkpt>
      <trkpt lat="43.97513" lon="5.11594">
        <ele>352.6</ele>
        <time>2013-03-07T17:11:09Z</time>
      </trkpt>
      <trkpt lat="43.97522" lon="5.11595">
        <ele>352</ele>
        <time>2013-03-07T17:11:10Z</time>
      </trkpt>
      <trkpt lat="43.97529" lon="5.11594">
        <ele>350.8</ele>
        <time>2013-03-07T17:11:11Z</time>
      </trkpt>
      <trkpt lat="43.97539" lon="5.11591">
        <ele>350.3</ele>
        <time>2013-03-07T17:11:12Z</time>
      </trkpt>
      <trkpt lat="43.9755" lon="5.11592">
        <ele>350.8</ele>
        <time>2013-03-07T17:11:13Z</time>
      </trkpt>
      <trkpt lat="43.97559" lon="5.11591">
        <ele>350.4</ele>
        <time>2013-03-07T17:11:14Z</time>
      </trkpt>
      <trkpt lat="43.97568" lon="5.11587">
        <ele>350.1</ele>
        <time>2013-03-07T17:11:15Z</time>
      </trkpt>
      <trkpt lat="43.97578" lon="5.11588">
        <ele>349.5</ele>
        <time>2013-03-07T17:11:16Z</time>
      </trkpt>
      <trkpt lat="43.97589" lon="5.11588">
        <ele>349.1</ele>
        <time>2013-03-07T17:11:17Z</time>
      </trkpt>
      <trkpt lat="43.97599" lon="5.11581">
        <ele>346.5</ele>
        <time>2013-03-07T17:11:18Z</time>
      </trkpt>
      <trkpt lat="43.97608" lon="5.11579">
        <ele>346.4</ele>
        <time>2013-03-07T17:11:19Z</time>
      </trkpt>
      <trkpt lat="43.97619" lon="5.11578">
        <ele>346.7</ele>
        <time>2013-03-07T17:11:20Z</time>
      </trkpt>
      <trkpt lat="43.9763" lon="5.11575">
        <ele>346</ele>
        <time>2013-03-07T17:11:21Z</time>
      </trkpt>
      <trkpt lat="43.97639" lon="5.1157">
        <ele>345.7</ele>
        <time>2013-03-07T17:11:22Z</time>
      </trkpt>
      <trkpt lat="43.97647" lon="5.11565">
        <ele>344.8</ele>
        <time>2013-03-07T17:11:23Z</time>
      </trkpt>
      <trkpt lat="43.97656" lon="5.11563">
        <ele>344.5</ele>
        <time>2013-03-07T17:11:24Z</time>
      </trkpt>
      <trkpt lat="43.97666" lon="5.1156">
        <ele>344.2</ele>
        <time>2013-03-07T17:11:25Z</time>
      </trkpt>
      <trkpt lat="43.97675" lon="5.11557">
        <ele>343.6</ele>
        <time>2013-03-07T17:11:26Z</time>
      </trkpt>
      <trkpt lat="43.97682" lon="5.11551">
        <ele>341.9</ele>
        <time>2013-03-07T17:11:27Z</time>
      </trkpt>
      <trkpt lat="43.9769" lon="5.11547">
        <ele>339.9</ele>
        <time>2013-03-07T17:11:28Z</time>
      </trkpt>
      <trkpt lat="43.97698" lon="5.11545">
        <ele>339.2</ele>
        <time>2013-03-07T17:11:29Z</time>
      </trkpt>
      <trkpt lat="43.97706" lon="5.1154">
        <ele>335.6</ele>
        <time>2013-03-07T17:11:30Z</time>
      </trkpt>
      <trkpt lat="43.97714" lon="5.11537">
        <ele>334.8</ele>
        <time>2013-03-07T17:11:31Z</time>
      </trkpt>
      <trkpt lat="43.97722" lon="5.11536">
        <ele>334.1</ele>
        <time>2013-03-07T17:11:32Z</time>
      </trkpt>
      <trkpt lat="43.9773" lon="5.11534">
        <ele>333.4</ele>
        <time>2013-03-07T17:11:33Z</time>
      </trkpt>
      <trkpt lat="43.97737" lon="5.11531">
        <ele>332.6</ele>
        <time>2013-03-07T17:11:34Z</time>
      </trkpt>
      <trkpt lat="43.97744" lon="5.11528">
        <ele>332.5</ele>
        <time>2013-03-07T17:11:35Z</time>
      </trkpt>
      <trkpt lat="43.97752" lon="5.11527">
        <ele>332.5</ele>
        <time>2013-03-07T17:11:36Z</time>
      </trkpt>
      <trkpt lat="43.97759" lon="5.11525">
        <ele>332.2</ele>
        <time>2013-03-07T17:11:37Z</time>
      </trkpt>
      <trkpt lat="43.97765" lon="5.11527">
        <ele>332.1</ele>
        <time>2013-03-07T17:11:38Z</time>
      </trkpt>
      <trkpt lat="43.97771" lon="5.11528">
        <ele>331.8</ele>
        <time>2013-03-07T17:11:39Z</time>
      </trkpt>
      <trkpt lat="43.97778" lon="5.11529">
        <ele>331.6</ele>
        <time>2013-03-07T17:11:40Z</time>
      </trkpt>
      <trkpt lat="43.97786" lon="5.11531">
        <ele>331.8</ele>
        <time>2013-03-07T17:11:41Z</time>
      </trkpt>
      <trkpt lat="43.97793" lon="5.11537">
        <ele>331.7</ele>
        <time>2013-03-07T17:11:42Z</time>
      </trkpt>
      <trkpt lat="43.97806" lon="5.11548">
        <ele>332</ele>
        <time>2013-03-07T17:11:43Z</time>
      </trkpt>
      <trkpt lat="43.97819" lon="5.11567">
        <ele>332.9</ele>
        <time>2013-03-07T17:11:44Z</time>
      </trkpt>
      <trkpt lat="43.97842" lon="5.11601">
        <ele>334</ele>
        <time>2013-03-07T17:11:45Z</time>
      </trkpt>
      <trkpt lat="43.97853" lon="5.11612">
        <ele>335.9</ele>
        <time>2013-03-07T17:11:46Z</time>
      </trkpt>
      <trkpt lat="43.97863" lon="5.11608">
        <ele>336.4</ele>
        <time>2013-03-07T17:11:47Z</time>
      </trkpt>
      <trkpt lat="43.97869" lon="5.11603">
        <ele>336.7</ele>
        <time>2013-03-07T17:11:48Z</time>
      </trkpt>
      <trkpt lat="43.9788" lon="5.11598">
        <ele>334.9</ele>
        <time>2013-03-07T17:11:49Z</time>
      </trkpt>
      <trkpt lat="43.9789" lon="5.11601">
        <ele>334.4</ele>
        <time>2013-03-07T17:11:50Z</time>
      </trkpt>
      <trkpt lat="43.97894" lon="5.11604">
        <ele>334.6</ele>
        <time>2013-03-07T17:11:51Z</time>
      </trkpt>
      <trkpt lat="43.97903" lon="5.11608">
        <ele>334.8</ele>
        <time>2013-03-07T17:11:52Z</time>
      </trkpt>
      <trkpt lat="43.97908" lon="5.11613">
        <ele>335.3</ele>
        <time>2013-03-07T17:11:53Z</time>
      </trkpt>
      <trkpt lat="43.97915" lon="5.11617">
        <ele>335.7</ele>
        <time>2013-03-07T17:11:54Z</time>
      </trkpt>
      <trkpt lat="43.97914" lon="5.11607">
        <ele>336.3</ele>
        <time>2013-03-07T17:11:55Z</time>
      </trkpt>
      <trkpt lat="43.97905" lon="5.11603">
        <ele>336.3</ele>
        <time>2013-03-07T17:11:56Z</time>
      </trkpt>
      <trkpt lat="43.97905" lon="5.11578">
        <ele>336.7</ele>
        <time>2013-03-07T17:11:57Z</time>
      </trkpt>
      <trkpt lat="43.97921" lon="5.11562">
        <ele>336.4</ele>
        <time>2013-03-07T17:11:58Z</time>
      </trkpt>
      <trkpt lat="43.97929" lon="5.11549">
        <ele>336.8</ele>
        <time>2013-03-07T17:11:59Z</time>
      </trkpt>
      <trkpt lat="43.97937" lon="5.11538">
        <ele>336.8</ele>
        <time>2013-03-07T17:12:00Z</time>
      </trkpt>
      <trkpt lat="43.97943" lon="5.11528">
        <ele>336.8</ele>
        <time>2013-03-07T17:12:01Z</time>
      </trkpt>
      <trkpt lat="43.97952" lon="5.11522">
        <ele>336.4</ele>
        <time>2013-03-07T17:12:02Z</time>
      </trkpt>
      <trkpt lat="43.97957" lon="5.11517">
        <ele>335</ele>
        <time>2013-03-07T17:12:03Z</time>
      </trkpt>
      <trkpt lat="43.97961" lon="5.11513">
        <ele>334.3</ele>
        <time>2013-03-07T17:12:04Z</time>
      </trkpt>
      <trkpt lat="43.97969" lon="5.1151">
        <ele>333.4</ele>
        <time>2013-03-07T17:12:05Z</time>
      </trkpt>
      <trkpt lat="43.97977" lon="5.1151">
        <ele>332.8</ele>
        <time>2013-03-07T17:12:06Z</time>
      </trkpt>
      <trkpt lat="43.97982" lon="5.1151">
        <ele>330.6</ele>
        <time>2013-03-07T17:12:07Z</time>
      </trkpt>
      <trkpt lat="43.97989" lon="5.11511">
        <ele>329.3</ele>
        <time>2013-03-07T17:12:08Z</time>
      </trkpt>
      <trkpt lat="43.97998" lon="5.1151">
        <ele>327.6</ele>
        <time>2013-03-07T17:12:09Z</time>
      </trkpt>
      <trkpt lat="43.98006" lon="5.11509">
        <ele>326.9</ele>
        <time>2013-03-07T17:12:10Z</time>
      </trkpt>
      <trkpt lat="43.98012" lon="5.11509">
        <ele>325.2</ele>
        <time>2013-03-07T17:12:11Z</time>
      </trkpt>
      <trkpt lat="43.9802" lon="5.11506">
        <ele>324.4</ele>
        <time>2013-03-07T17:12:12Z</time>
      </trkpt>
      <trkpt lat="43.98029" lon="5.11503">
        <ele>324.1</ele>
        <time>2013-03-07T17:12:13Z</time>
      </trkpt>
      <trkpt lat="43.98038" lon="5.11501">
        <ele>323</ele>
        <time>2013-03-07T17:12:14Z</time>
      </trkpt>
      <trkpt lat="43.98048" lon="5.115">
        <ele>321.5</ele>
        <time>2013-03-07T17:12:15Z</time>
      </trkpt>
      <trkpt lat="43.98057" lon="5.11498">
        <ele>321.4</ele>
        <time>2013-03-07T17:12:16Z</time>
      </trkpt>
      <trkpt lat="43.98067" lon="5.11498">
        <ele>321</ele>
        <time>2013-03-07T17:12:17Z</time>
      </trkpt>
      <trkpt lat="43.98077" lon="5.11498">
        <ele>320.7</ele>
        <time>2013-03-07T17:12:18Z</time>
      </trkpt>
      <trkpt lat="43.98086" lon="5.11497">
        <ele>320.2</ele>
        <time>2013-03-07T17:12:19Z</time>
      </trkpt>
      <trkpt lat="43.98098" lon="5.11496">
        <ele>319.9</ele>
        <time>2013-03-07T17:12:20Z</time>
      </trkpt>
      <trkpt lat="43.98112" lon="5.11496">
        <ele>319.3</ele>
        <time>2013-03-07T17:12:21Z</time>
      </trkpt>
      <trkpt lat="43.98121" lon="5.11493">
        <ele>319.6</ele>
        <time>2013-03-07T17:12:22Z</time>
      </trkpt>
      <trkpt lat="43.98132" lon="5.11495">
        <ele>319.3</ele>
        <time>2013-03-07T17:12:23Z</time>
      </trkpt>
      <trkpt lat="43.98141" lon="5.11498">
        <ele>319.1</ele>
        <time>2013-03-07T17:12:24Z</time>
      </trkpt>
      <trkpt lat="43.98149" lon="5.11497">
        <ele>319.3</ele>
        <time>2013-03-07T17:12:25Z</time>
      </trkpt>
      <trkpt lat="43.98157" lon="5.11503">
        <ele>319.1</ele>
        <time>2013-03-07T17:12:26Z</time>
      </trkpt>
      <trkpt lat="43.98166" lon="5.11507">
        <ele>319.2</ele>
        <time>2013-03-07T17:12:27Z</time>
      </trkpt>
      <trkpt lat="43.98173" lon="5.11516">
        <ele>319.1</ele>
        <time>2013-03-07T17:12:28Z</time>
      </trkpt>
      <trkpt lat="43.98178" lon="5.11521">
        <ele>319.1</ele>
        <time>2013-03-07T17:12:29Z</time>
      </trkpt>
      <trkpt lat="43.98185" lon="5.11526">
        <ele>318.9</ele>
        <time>2013-03-07T17:12:30Z</time>
      </trkpt>
      <trkpt lat="43.98193" lon="5.11531">
        <ele>318.7</ele>
        <time>2013-03-07T17:12:31Z</time>
      </trkpt>
      <trkpt lat="43.98202" lon="5.11533">
        <ele>318.6</ele>
        <time>2013-03-07T17:12:32Z</time>
      </trkpt>
      <trkpt lat="43.9821" lon="5.11536">
        <ele>318.4</ele>
        <time>2013-03-07T17:12:33Z</time>
      </trkpt>
      <trkpt lat="43.98219" lon="5.11539">
        <ele>318.3</ele>
        <time>2013-03-07T17:12:34Z</time>
      </trkpt>
      <trkpt lat="43.98226" lon="5.1154">
        <ele>317.8</ele>
        <time>2013-03-07T17:12:35Z</time>
      </trkpt>
      <trkpt lat="43.98232" lon="5.11541">
        <ele>317.9</ele>
        <time>2013-03-07T17:12:36Z</time>
      </trkpt>
      <trkpt lat="43.98239" lon="5.11543">
        <ele>317.6</ele>
        <time>2013-03-07T17:12:37Z</time>
      </trkpt>
      <trkpt lat="43.98246" lon="5.11548">
        <ele>317.3</ele>
        <time>2013-03-07T17:12:38Z</time>
      </trkpt>
      <trkpt lat="43.98253" lon="5.11552">
        <ele>316.9</ele>
        <time>2013-03-07T17:12:39Z</time>
      </trkpt>
      <trkpt lat="43.98257" lon="5.11559">
        <ele>316.6</ele>
        <time>2013-03-07T17:12:40Z</time>
      </trkpt>
      <trkpt lat="43.9826" lon="5.11565">
        <ele>316.6</ele>
        <time>2013-03-07T17:12:41Z</time>
      </trkpt>
      <trkpt lat="43.98262" lon="5.11571">
        <ele>316.1</ele>
        <time>2013-03-07T17:12:42Z</time>
      </trkpt>
      <trkpt lat="43.98263" lon="5.11576">
        <ele>315.5</ele>
        <time>2013-03-07T17:12:43Z</time>
      </trkpt>
      <trkpt lat="43.98265" lon="5.1158">
        <ele>315</ele>
        <time>2013-03-07T17:12:44Z</time>
      </trkpt>
      <trkpt lat="43.98268" lon="5.11585">
        <ele>314.7</ele>
        <time>2013-03-07T17:12:45Z</time>
      </trkpt>
      <trkpt lat="43.9827" lon="5.11589">
        <ele>313.8</ele>
        <time>2013-03-07T17:12:46Z</time>
      </trkpt>
      <trkpt lat="43.98273" lon="5.11593">
        <ele>313.3</ele>
        <time>2013-03-07T17:12:47Z</time>
      </trkpt>
      <trkpt lat="43.98275" lon="5.11596">
        <ele>310.3</ele>
        <time>2013-03-07T17:12:49Z</time>
      </trkpt>
      <trkpt lat="43.98279" lon="5.11599">
        <ele>308.9</ele>
        <time>2013-03-07T17:12:50Z</time>
      </trkpt>
      <trkpt lat="43.98283" lon="5.11602">
        <ele>308.1</ele>
        <time>2013-03-07T17:12:51Z</time>
      </trkpt>
      <trkpt lat="43.98288" lon="5.11605">
        <ele>307.8</ele>
        <time>2013-03-07T17:12:52Z</time>
      </trkpt>
      <trkpt lat="43.98291" lon="5.11607">
        <ele>307.6</ele>
        <time>2013-03-07T17:12:53Z</time>
      </trkpt>
      <trkpt lat="43.98294" lon="5.11611">
        <ele>307.4</ele>
        <time>2013-03-07T17:12:54Z</time>
      </trkpt>
      <trkpt lat="43.983" lon="5.11616">
        <ele>307.3</ele>
        <time>2013-03-07T17:12:55Z</time>
      </trkpt>
      <trkpt lat="43.98304" lon="5.1162">
        <ele>307</ele>
        <time>2013-03-07T17:12:56Z</time>
      </trkpt>
      <trkpt lat="43.98308" lon="5.11627">
        <ele>306.5</ele>
        <time>2013-03-07T17:12:57Z</time>
      </trkpt>
      <trkpt lat="43.98315" lon="5.11632">
        <ele>306.2</ele>
        <time>2013-03-07T17:12:58Z</time>
      </trkpt>
      <trkpt lat="43.98319" lon="5.11638">
        <ele>306.2</ele>
        <time>2013-03-07T17:12:59Z</time>
      </trkpt>
      <trkpt lat="43.98324" lon="5.11644">
        <ele>305.9</ele>
        <time>2013-03-07T17:13:00Z</time>
      </trkpt>
      <trkpt lat="43.98329" lon="5.11651">
        <ele>304.8</ele>
        <time>2013-03-07T17:13:01Z</time>
      </trkpt>
      <trkpt lat="43.98332" lon="5.11658">
        <ele>304.4</ele>
        <time>2013-03-07T17:13:02Z</time>
      </trkpt>
      <trkpt lat="43.98336" lon="5.11663">
        <ele>304.2</ele>
        <time>2013-03-07T17:13:03Z</time>
      </trkpt>
      <trkpt lat="43.9834" lon="5.11668">
        <ele>303.6</ele>
        <time>2013-03-07T17:13:04Z</time>
      </trkpt>
      <trkpt lat="43.98344" lon="5.11674">
        <ele>302.9</ele>
        <time>2013-03-07T17:13:05Z</time>
      </trkpt>
      <trkpt lat="43.98348" lon="5.11682">
        <ele>302.2</ele>
        <time>2013-03-07T17:13:06Z</time>
      </trkpt>
      <trkpt lat="43.98353" lon="5.11686">
        <ele>300.4</ele>
        <time>2013-03-07T17:13:07Z</time>
      </trkpt>
      <trkpt lat="43.98356" lon="5.11691">
        <ele>299.3</ele>
        <time>2013-03-07T17:13:08Z</time>
      </trkpt>
      <trkpt lat="43.98361" lon="5.11697">
        <ele>298.1</ele>
        <time>2013-03-07T17:13:09Z</time>
      </trkpt>
      <trkpt lat="43.98365" lon="5.11702">
        <ele>296.8</ele>
        <time>2013-03-07T17:13:10Z</time>
      </trkpt>
      <trkpt lat="43.98369" lon="5.1171">
        <ele>295.4</ele>
        <time>2013-03-07T17:13:11Z</time>
      </trkpt>
      <trkpt lat="43.98375" lon="5.11713">
        <ele>294.2</ele>
        <time>2013-03-07T17:13:12Z</time>
      </trkpt>
      <trkpt lat="43.9838" lon="5.11716">
        <ele>293</ele>
        <time>2013-03-07T17:13:13Z</time>
      </trkpt>
      <trkpt lat="43.98383" lon="5.11721">
        <ele>292.7</ele>
        <time>2013-03-07T17:13:14Z</time>
      </trkpt>
      <trkpt lat="43.98387" lon="5.11725">
        <ele>292.3</ele>
        <time>2013-03-07T17:13:15Z</time>
      </trkpt>
      <trkpt lat="43.98393" lon="5.1173">
        <ele>291.8</ele>
        <time>2013-03-07T17:13:16Z</time>
      </trkpt>
      <trkpt lat="43.98397" lon="5.11735">
        <ele>291.6</ele>
        <time>2013-03-07T17:13:17Z</time>
      </trkpt>
      <trkpt lat="43.98401" lon="5.1174">
        <ele>291.6</ele>
        <time>2013-03-07T17:13:18Z</time>
      </trkpt>
      <trkpt lat="43.98404" lon="5.11745">
        <ele>290.8</ele>
        <time>2013-03-07T17:13:19Z</time>
      </trkpt>
      <trkpt lat="43.98408" lon="5.11751">
        <ele>290.6</ele>
        <time>2013-03-07T17:13:20Z</time>
      </trkpt>
      <trkpt lat="43.9841" lon="5.11758">
        <ele>290.1</ele>
        <time>2013-03-07T17:13:21Z</time>
      </trkpt>
      <trkpt lat="43.98411" lon="5.11763">
        <ele>289.9</ele>
        <time>2013-03-07T17:13:22Z</time>
      </trkpt>
      <trkpt lat="43.98413" lon="5.11771">
        <ele>289.6</ele>
        <time>2013-03-07T17:13:23Z</time>
      </trkpt>
      <trkpt lat="43.98413" lon="5.11777">
        <ele>289</ele>
        <time>2013-03-07T17:13:24Z</time>
      </trkpt>
      <trkpt lat="43.98413" lon="5.11779">
        <ele>289.2</ele>
        <time>2013-03-07T17:13:25Z</time>
      </trkpt>
      <trkpt lat="43.98411" lon="5.11784">
        <ele>289.4</ele>
        <time>2013-03-07T17:13:26Z</time>
      </trkpt>
      <trkpt lat="43.9841" lon="5.11788">
        <ele>288.8</ele>
        <time>2013-03-07T17:13:27Z</time>
      </trkpt>
      <trkpt lat="43.98408" lon="5.11792">
        <ele>288.4</ele>
        <time>2013-03-07T17:13:28Z</time>
      </trkpt>
      <trkpt lat="43.98408" lon="5.11796">
        <ele>287.8</ele>
        <time>2013-03-07T17:13:29Z</time>
      </trkpt>
      <trkpt lat="43.98405" lon="5.11798">
        <ele>287.5</ele>
        <time>2013-03-07T17:13:30Z</time>
      </trkpt>
      <trkpt lat="43.98402" lon="5.118">
        <ele>287.6</ele>
        <time>2013-03-07T17:13:31Z</time>
      </trkpt>
      <trkpt lat="43.98401" lon="5.11803">
        <ele>287.4</ele>
        <time>2013-03-07T17:13:32Z</time>
      </trkpt>
      <trkpt lat="43.98399" lon="5.11806">
        <ele>286.9</ele>
        <time>2013-03-07T17:13:33Z</time>
      </trkpt>
      <trkpt lat="43.98397" lon="5.1181">
        <ele>286</ele>
        <time>2013-03-07T17:13:35Z</time>
      </trkpt>
      <trkpt lat="43.98395" lon="5.11811">
        <ele>286.1</ele>
        <time>2013-03-07T17:13:36Z</time>
      </trkpt>
      <trkpt lat="43.98391" lon="5.11812">
        <ele>285.7</ele>
        <time>2013-03-07T17:13:37Z</time>
      </trkpt>
      <trkpt lat="43.98389" lon="5.11814">
        <ele>285.3</ele>
        <time>2013-03-07T17:13:38Z</time>
      </trkpt>
      <trkpt lat="43.98388" lon="5.11816">
        <ele>285.5</ele>
        <time>2013-03-07T17:13:39Z</time>
      </trkpt>
      <trkpt lat="43.98384" lon="5.11817">
        <ele>286.1</ele>
        <time>2013-03-07T17:13:40Z</time>
      </trkpt>
      <trkpt lat="43.98381" lon="5.11819">
        <ele>286.3</ele>
        <time>2013-03-07T17:13:41Z</time>
      </trkpt>
      <trkpt lat="43.98379" lon="5.11822">
        <ele>286.5</ele>
        <time>2013-03-07T17:13:42Z</time>
      </trkpt>
      <trkpt lat="43.98375" lon="5.11825">
        <ele>286.8</ele>
        <time>2013-03-07T17:13:44Z</time>
      </trkpt>
      <trkpt lat="43.98374" lon="5.11826">
        <ele>287.1</ele>
        <time>2013-03-07T17:13:45Z</time>
      </trkpt>
      <trkpt lat="43.98372" lon="5.11829">
        <ele>287.7</ele>
        <time>2013-03-07T17:13:46Z</time>
      </trkpt>
      <trkpt lat="43.9837" lon="5.11831">
        <ele>288.2</ele>
        <time>2013-03-07T17:13:47Z</time>
      </trkpt>
      <trkpt lat="43.98368" lon="5.11833">
        <ele>288.5</ele>
        <time>2013-03-07T17:13:48Z</time>
      </trkpt>
      <trkpt lat="43.98366" lon="5.11835">
        <ele>288.8</ele>
        <time>2013-03-07T17:13:49Z</time>
      </trkpt>
      <trkpt lat="43.98362" lon="5.11839">
        <ele>288.5</ele>
        <time>2013-03-07T17:13:51Z</time>
      </trkpt>
      <trkpt lat="43.9836" lon="5.11841">
        <ele>288.3</ele>
        <time>2013-03-07T17:13:52Z</time>
      </trkpt>
      <trkpt lat="43.98358" lon="5.11845">
        <ele>288</ele>
        <time>2013-03-07T17:13:54Z</time>
      </trkpt>
      <trkpt lat="43.98356" lon="5.11845">
        <ele>288.1</ele>
        <time>2013-03-07T17:13:55Z</time>
      </trkpt>
      <trkpt lat="43.98353" lon="5.11849">
        <ele>288.7</ele>
        <time>2013-03-07T17:13:57Z</time>
      </trkpt>
      <trkpt lat="43.9835" lon="5.11849">
        <ele>288.6</ele>
        <time>2013-03-07T17:13:58Z</time>
      </trkpt>
      <trkpt lat="43.98348" lon="5.11852">
        <ele>288.6</ele>
        <time>2013-03-07T17:14:00Z</time>
      </trkpt>
      <trkpt lat="43.98347" lon="5.11855">
        <ele>288.3</ele>
        <time>2013-03-07T17:14:01Z</time>
      </trkpt>
      <trkpt lat="43.98343" lon="5.11857">
        <ele>287.6</ele>
        <time>2013-03-07T17:14:03Z</time>
      </trkpt>
      <trkpt lat="43.98341" lon="5.11858">
        <ele>286.9</ele>
        <time>2013-03-07T17:14:04Z</time>
      </trkpt>
      <trkpt lat="43.98338" lon="5.11861">
        <ele>287.5</ele>
        <time>2013-03-07T17:14:07Z</time>
      </trkpt>
      <trkpt lat="43.98337" lon="5.11864">
        <ele>287.9</ele>
        <time>2013-03-07T17:14:08Z</time>
      </trkpt>
      <trkpt lat="43.98335" lon="5.11868">
        <ele>287.1</ele>
        <time>2013-03-07T17:14:11Z</time>
      </trkpt>
      <trkpt lat="43.98334" lon="5.1187">
        <ele>287.2</ele>
        <time>2013-03-07T17:14:12Z</time>
      </trkpt>
      <trkpt lat="43.98333" lon="5.11875">
        <ele>288.3</ele>
        <time>2013-03-07T17:14:13Z</time>
      </trkpt>
      <trkpt lat="43.98333" lon="5.11877">
        <ele>288.8</ele>
        <time>2013-03-07T17:14:14Z</time>
      </trkpt>
      <trkpt lat="43.98331" lon="5.11881">
        <ele>289.2</ele>
        <time>2013-03-07T17:14:16Z</time>
      </trkpt>
      <trkpt lat="43.98331" lon="5.11883">
        <ele>289.5</ele>
        <time>2013-03-07T17:14:17Z</time>
      </trkpt>
      <trkpt lat="43.98332" lon="5.11889">
        <ele>290.8</ele>
        <time>2013-03-07T17:14:20Z</time>
      </trkpt>
      <trkpt lat="43.98333" lon="5.1189">
        <ele>290.7</ele>
        <time>2013-03-07T17:14:21Z</time>
      </trkpt>
      <trkpt lat="43.98335" lon="5.11896">
        <ele>292.2</ele>
        <time>2013-03-07T17:14:28Z</time>
      </trkpt>
      <trkpt lat="43.98336" lon="5.11896">
        <ele>292.8</ele>
        <time>2013-03-07T17:14:29Z</time>
      </trkpt>
      <trkpt lat="43.9834" lon="5.11895">
        <ele>297.4</ele>
        <time>2013-03-07T17:14:56Z</time>
      </trkpt>
      <trkpt lat="43.98341" lon="5.11894">
        <ele>297.9</ele>
        <time>2013-03-07T17:14:57Z</time>
      </trkpt>
      <trkpt lat="43.98338" lon="5.11893">
        <ele>298.1</ele>
        <time>2013-03-07T17:15:06Z</time>
      </trkpt>
    </trkseg>
  </trk>
</gpx>